<?xml version="1.0" encoding="UTF-8" standalone="no" ?>
<gpx xmlns="http://www.topografix.com/GPX/1/1" xmlns:xsi="http://www.w3.org/2001/XMLSchema-instance" xsi:schemaLocation="http://www.topografix.com/GPX/1/1 http://www.topografix.com/GPX/1/1/gpx.xsd" version="1.1" creator="VisuGPX - https://www.visugpx.com">
  <metadata>
    <name>AUFFARGIS</name>
  </metadata>
  <trk>
    <name><![CDATA[track]]></name>
    <trkseg>
      <trkpt lat="48.70349" lon="1.88527">
        <ele>147</ele>
        <time>2013-06-27T08:45:10Z</time>
      </trkpt>
      <trkpt lat="48.7036" lon="1.88527">
        <ele>147</ele>
      </trkpt>
      <trkpt lat="48.70371" lon="1.88527">
        <ele>147</ele>
      </trkpt>
      <trkpt lat="48.70381" lon="1.88527">
        <ele>151</ele>
      </trkpt>
      <trkpt lat="48.70392" lon="1.88527">
        <ele>151</ele>
        <time>2013-06-27T08:45:42Z</time>
      </trkpt>
      <trkpt lat="48.704" lon="1.88536">
        <ele>151</ele>
      </trkpt>
      <trkpt lat="48.70408" lon="1.88545">
        <ele>152</ele>
        <time>2013-06-27T08:46:03Z</time>
      </trkpt>
      <trkpt lat="48.70405" lon="1.88559">
        <ele>152</ele>
      </trkpt>
      <trkpt lat="48.70402" lon="1.88572">
        <ele>152</ele>
      </trkpt>
      <trkpt lat="48.70398" lon="1.88586">
        <ele>152</ele>
        <time>2013-06-27T08:46:26Z</time>
      </trkpt>
      <trkpt lat="48.704" lon="1.88602">
        <ele>152</ele>
      </trkpt>
      <trkpt lat="48.70401" lon="1.88617">
        <ele>152</ele>
      </trkpt>
      <trkpt lat="48.70403" lon="1.88633">
        <ele>153</ele>
      </trkpt>
      <trkpt lat="48.70405" lon="1.88648">
        <ele>153</ele>
        <time>2013-06-27T08:47:02Z</time>
      </trkpt>
      <trkpt lat="48.70404" lon="1.88662">
        <ele>153</ele>
      </trkpt>
      <trkpt lat="48.70403" lon="1.88675">
        <ele>153</ele>
      </trkpt>
      <trkpt lat="48.70402" lon="1.88689">
        <ele>153</ele>
      </trkpt>
      <trkpt lat="48.70401" lon="1.88703">
        <ele>153</ele>
        <time>2013-06-27T08:47:33Z</time>
      </trkpt>
      <trkpt lat="48.70403" lon="1.88718">
        <ele>153</ele>
      </trkpt>
      <trkpt lat="48.70405" lon="1.88733">
        <ele>153</ele>
      </trkpt>
      <trkpt lat="48.70407" lon="1.88749">
        <ele>153</ele>
      </trkpt>
      <trkpt lat="48.70409" lon="1.88764">
        <ele>153</ele>
        <time>2013-06-27T08:48:05Z</time>
      </trkpt>
      <trkpt lat="48.70402" lon="1.88775">
        <ele>153</ele>
      </trkpt>
      <trkpt lat="48.70395" lon="1.88786">
        <ele>153</ele>
      </trkpt>
      <trkpt lat="48.70388" lon="1.88798">
        <ele>152</ele>
      </trkpt>
      <trkpt lat="48.70381" lon="1.88809">
        <ele>152</ele>
        <time>2013-06-27T08:48:42Z</time>
      </trkpt>
      <trkpt lat="48.70374" lon="1.8882">
        <ele>147</ele>
      </trkpt>
      <trkpt lat="48.70367" lon="1.8883">
        <ele>147</ele>
      </trkpt>
      <trkpt lat="48.7036" lon="1.88841">
        <ele>147</ele>
      </trkpt>
      <trkpt lat="48.70353" lon="1.88852">
        <ele>147</ele>
        <time>2013-06-27T08:49:12Z</time>
      </trkpt>
      <trkpt lat="48.70344" lon="1.88859">
        <ele>147</ele>
      </trkpt>
      <trkpt lat="48.70336" lon="1.88866">
        <ele>147</ele>
      </trkpt>
      <trkpt lat="48.70327" lon="1.88874">
        <ele>147</ele>
      </trkpt>
      <trkpt lat="48.70318" lon="1.88881">
        <ele>145</ele>
        <time>2013-06-27T08:49:53Z</time>
      </trkpt>
      <trkpt lat="48.70312" lon="1.88893">
        <ele>145</ele>
      </trkpt>
      <trkpt lat="48.70306" lon="1.88905">
        <ele>145</ele>
      </trkpt>
      <trkpt lat="48.70301" lon="1.88917">
        <ele>145</ele>
      </trkpt>
      <trkpt lat="48.70295" lon="1.88929">
        <ele>145</ele>
        <time>2013-06-27T08:50:28Z</time>
      </trkpt>
      <trkpt lat="48.70288" lon="1.88941">
        <ele>144</ele>
      </trkpt>
      <trkpt lat="48.70282" lon="1.88953">
        <ele>144</ele>
        <time>2013-06-27T08:50:38Z</time>
      </trkpt>
      <trkpt lat="48.70276" lon="1.88964">
        <ele>143</ele>
      </trkpt>
      <trkpt lat="48.70269" lon="1.88976">
        <ele>143</ele>
      </trkpt>
      <trkpt lat="48.70263" lon="1.88988">
        <ele>143</ele>
        <time>2013-06-27T08:51:07Z</time>
      </trkpt>
      <trkpt lat="48.70255" lon="1.88981">
        <ele>143</ele>
      </trkpt>
      <trkpt lat="48.70247" lon="1.88975">
        <ele>143</ele>
      </trkpt>
      <trkpt lat="48.70239" lon="1.88969">
        <ele>143</ele>
        <time>2013-06-27T08:51:50Z</time>
      </trkpt>
      <trkpt lat="48.70235" lon="1.88983">
        <ele>143</ele>
      </trkpt>
      <trkpt lat="48.7023" lon="1.88998">
        <ele>143</ele>
      </trkpt>
      <trkpt lat="48.70225" lon="1.89013">
        <ele>143</ele>
        <time>2013-06-27T08:52:29Z</time>
      </trkpt>
      <trkpt lat="48.70221" lon="1.89026">
        <ele>143</ele>
      </trkpt>
      <trkpt lat="48.70217" lon="1.8904">
        <ele>143</ele>
      </trkpt>
      <trkpt lat="48.70212" lon="1.89053">
        <ele>142</ele>
      </trkpt>
      <trkpt lat="48.70208" lon="1.89067">
        <ele>144</ele>
        <time>2013-06-27T08:52:54Z</time>
      </trkpt>
      <trkpt lat="48.7021" lon="1.89074">
        <ele>142</ele>
        <time>2013-06-27T08:54:09Z</time>
      </trkpt>
      <trkpt lat="48.70203" lon="1.89082">
        <ele>144</ele>
      </trkpt>
      <trkpt lat="48.70195" lon="1.89091">
        <ele>144</ele>
      </trkpt>
      <trkpt lat="48.70187" lon="1.89099">
        <ele>144</ele>
      </trkpt>
      <trkpt lat="48.70179" lon="1.89108">
        <ele>144</ele>
        <time>2013-06-27T08:54:28Z</time>
      </trkpt>
      <trkpt lat="48.70182" lon="1.89122">
        <ele>144</ele>
      </trkpt>
      <trkpt lat="48.70185" lon="1.89136">
        <ele>144</ele>
      </trkpt>
      <trkpt lat="48.70188" lon="1.8915">
        <ele>144</ele>
      </trkpt>
      <trkpt lat="48.70191" lon="1.89165">
        <ele>144</ele>
        <time>2013-06-27T08:54:56Z</time>
      </trkpt>
      <trkpt lat="48.70199" lon="1.89178">
        <ele>144</ele>
      </trkpt>
      <trkpt lat="48.70206" lon="1.89191">
        <ele>144</ele>
        <time>2013-06-27T08:55:04Z</time>
      </trkpt>
      <trkpt lat="48.70201" lon="1.892">
        <ele>144</ele>
      </trkpt>
      <trkpt lat="48.70197" lon="1.8921">
        <ele>143</ele>
        <time>2013-06-27T08:55:15Z</time>
      </trkpt>
      <trkpt lat="48.70204" lon="1.89219">
        <ele>143</ele>
      </trkpt>
      <trkpt lat="48.70211" lon="1.89229">
        <ele>141</ele>
      </trkpt>
      <trkpt lat="48.70219" lon="1.89239">
        <ele>141</ele>
        <time>2013-06-27T08:55:53Z</time>
      </trkpt>
      <trkpt lat="48.70225" lon="1.89251">
        <ele>141</ele>
      </trkpt>
      <trkpt lat="48.70232" lon="1.89263">
        <ele>141</ele>
      </trkpt>
      <trkpt lat="48.70239" lon="1.89274">
        <ele>141</ele>
      </trkpt>
      <trkpt lat="48.70245" lon="1.89286">
        <ele>141</ele>
        <time>2013-06-27T08:56:25Z</time>
      </trkpt>
      <trkpt lat="48.70253" lon="1.89298">
        <ele>142</ele>
      </trkpt>
      <trkpt lat="48.70261" lon="1.8931">
        <ele>142</ele>
      </trkpt>
      <trkpt lat="48.70269" lon="1.89323">
        <ele>142</ele>
        <time>2013-06-27T08:56:54Z</time>
      </trkpt>
      <trkpt lat="48.70278" lon="1.89331">
        <ele>142</ele>
      </trkpt>
      <trkpt lat="48.70288" lon="1.89339">
        <ele>142</ele>
      </trkpt>
      <trkpt lat="48.70298" lon="1.89347">
        <ele>153</ele>
        <time>2013-06-27T08:57:19Z</time>
      </trkpt>
      <trkpt lat="48.70298" lon="1.89362">
        <ele>153</ele>
      </trkpt>
      <trkpt lat="48.70299" lon="1.89377">
        <ele>152</ele>
      </trkpt>
      <trkpt lat="48.70299" lon="1.89392">
        <ele>152</ele>
      </trkpt>
      <trkpt lat="48.703" lon="1.89407">
        <ele>152</ele>
        <time>2013-06-27T08:57:43Z</time>
      </trkpt>
      <trkpt lat="48.70303" lon="1.89422">
        <ele>152</ele>
      </trkpt>
      <trkpt lat="48.70305" lon="1.89437">
        <ele>152</ele>
      </trkpt>
      <trkpt lat="48.70308" lon="1.89452">
        <ele>152</ele>
      </trkpt>
      <trkpt lat="48.7031" lon="1.89467">
        <ele>152</ele>
      </trkpt>
      <trkpt lat="48.70313" lon="1.89483">
        <ele>152</ele>
        <time>2013-06-27T08:58:31Z</time>
      </trkpt>
      <trkpt lat="48.70312" lon="1.89499">
        <ele>152</ele>
      </trkpt>
      <trkpt lat="48.70312" lon="1.89515">
        <ele>152</ele>
      </trkpt>
      <trkpt lat="48.70312" lon="1.89531">
        <ele>152</ele>
      </trkpt>
      <trkpt lat="48.70312" lon="1.89547">
        <ele>157</ele>
      </trkpt>
      <trkpt lat="48.70312" lon="1.89563">
        <ele>157</ele>
        <time>2013-06-27T08:59:32Z</time>
      </trkpt>
      <trkpt lat="48.70304" lon="1.89569">
        <ele>157</ele>
      </trkpt>
      <trkpt lat="48.70297" lon="1.89576">
        <ele>157</ele>
      </trkpt>
      <trkpt lat="48.70289" lon="1.89583">
        <ele>147</ele>
      </trkpt>
      <trkpt lat="48.70282" lon="1.89589">
        <ele>147</ele>
        <time>2013-06-27T08:59:59Z</time>
      </trkpt>
      <trkpt lat="48.70273" lon="1.89598">
        <ele>147</ele>
      </trkpt>
      <trkpt lat="48.70265" lon="1.89607">
        <ele>147</ele>
      </trkpt>
      <trkpt lat="48.70257" lon="1.89615">
        <ele>147</ele>
      </trkpt>
      <trkpt lat="48.70248" lon="1.89624">
        <ele>147</ele>
        <time>2013-06-27T09:00:32Z</time>
      </trkpt>
      <trkpt lat="48.70241" lon="1.89634">
        <ele>152</ele>
      </trkpt>
      <trkpt lat="48.70234" lon="1.89645">
        <ele>152</ele>
      </trkpt>
      <trkpt lat="48.70227" lon="1.89656">
        <ele>152</ele>
      </trkpt>
      <trkpt lat="48.7022" lon="1.89667">
        <ele>152</ele>
        <time>2013-06-27T09:01:01Z</time>
      </trkpt>
      <trkpt lat="48.70212" lon="1.89675">
        <ele>152</ele>
      </trkpt>
      <trkpt lat="48.70203" lon="1.89684">
        <ele>145</ele>
      </trkpt>
      <trkpt lat="48.70194" lon="1.89693">
        <ele>145</ele>
      </trkpt>
      <trkpt lat="48.70185" lon="1.89702">
        <ele>145</ele>
        <time>2013-06-27T09:01:30Z</time>
      </trkpt>
      <trkpt lat="48.70184" lon="1.89718">
        <ele>149</ele>
      </trkpt>
      <trkpt lat="48.70182" lon="1.89733">
        <ele>149</ele>
      </trkpt>
      <trkpt lat="48.7018" lon="1.89749">
        <ele>149</ele>
        <time>2013-06-27T09:01:54Z</time>
      </trkpt>
      <trkpt lat="48.7017" lon="1.8975">
        <ele>149</ele>
      </trkpt>
      <trkpt lat="48.7016" lon="1.8975">
        <ele>149</ele>
      </trkpt>
      <trkpt lat="48.7015" lon="1.8975">
        <ele>149</ele>
      </trkpt>
      <trkpt lat="48.7014" lon="1.8975">
        <ele>149</ele>
        <time>2013-06-27T09:02:26Z</time>
      </trkpt>
      <trkpt lat="48.70129" lon="1.89757">
        <ele>149</ele>
      </trkpt>
      <trkpt lat="48.70119" lon="1.89765">
        <ele>146</ele>
      </trkpt>
      <trkpt lat="48.70109" lon="1.89772">
        <ele>146</ele>
        <time>2013-06-27T09:02:50Z</time>
      </trkpt>
      <trkpt lat="48.70106" lon="1.89786">
        <ele>146</ele>
      </trkpt>
      <trkpt lat="48.70104" lon="1.898">
        <ele>146</ele>
      </trkpt>
      <trkpt lat="48.70101" lon="1.89814">
        <ele>146</ele>
      </trkpt>
      <trkpt lat="48.70099" lon="1.89828">
        <ele>146</ele>
        <time>2013-06-27T09:03:27Z</time>
      </trkpt>
      <trkpt lat="48.7009" lon="1.89837">
        <ele>146</ele>
      </trkpt>
      <trkpt lat="48.70082" lon="1.89846">
        <ele>146</ele>
      </trkpt>
      <trkpt lat="48.70074" lon="1.89856">
        <ele>146</ele>
      </trkpt>
      <trkpt lat="48.70065" lon="1.89865">
        <ele>146</ele>
        <time>2013-06-27T09:04:02Z</time>
      </trkpt>
      <trkpt lat="48.70056" lon="1.8987">
        <ele>146</ele>
      </trkpt>
      <trkpt lat="48.70047" lon="1.89874">
        <ele>146</ele>
      </trkpt>
      <trkpt lat="48.70037" lon="1.89878">
        <ele>142</ele>
      </trkpt>
      <trkpt lat="48.70028" lon="1.89882">
        <ele>142</ele>
        <time>2013-06-27T09:04:24Z</time>
      </trkpt>
      <trkpt lat="48.70022" lon="1.89894">
        <ele>142</ele>
      </trkpt>
      <trkpt lat="48.70016" lon="1.89906">
        <ele>142</ele>
      </trkpt>
      <trkpt lat="48.70011" lon="1.89918">
        <ele>142</ele>
      </trkpt>
      <trkpt lat="48.70005" lon="1.8993">
        <ele>142</ele>
        <time>2013-06-27T09:05:09Z</time>
      </trkpt>
      <trkpt lat="48.70005" lon="1.89947">
        <ele>142</ele>
      </trkpt>
      <trkpt lat="48.70005" lon="1.89964">
        <ele>143</ele>
      </trkpt>
      <trkpt lat="48.70005" lon="1.89981">
        <ele>143</ele>
      </trkpt>
      <trkpt lat="48.70005" lon="1.89997">
        <ele>143</ele>
        <time>2013-06-27T09:05:35Z</time>
      </trkpt>
      <trkpt lat="48.69999" lon="1.90011">
        <ele>143</ele>
      </trkpt>
      <trkpt lat="48.69994" lon="1.90025">
        <ele>143</ele>
        <time>2013-06-27T09:05:58Z</time>
      </trkpt>
      <trkpt lat="48.69997" lon="1.90039">
        <ele>143</ele>
      </trkpt>
      <trkpt lat="48.7" lon="1.90053">
        <ele>143</ele>
      </trkpt>
      <trkpt lat="48.70002" lon="1.90067">
        <ele>143</ele>
        <time>2013-06-27T09:06:15Z</time>
      </trkpt>
      <trkpt lat="48.70003" lon="1.90081">
        <ele>143</ele>
      </trkpt>
      <trkpt lat="48.70005" lon="1.90096">
        <ele>143</ele>
      </trkpt>
      <trkpt lat="48.70006" lon="1.9011">
        <ele>143</ele>
      </trkpt>
      <trkpt lat="48.70007" lon="1.90124">
        <ele>143</ele>
        <time>2013-06-27T09:06:53Z</time>
      </trkpt>
      <trkpt lat="48.70005" lon="1.90141">
        <ele>143</ele>
      </trkpt>
      <trkpt lat="48.70003" lon="1.90159">
        <ele>143</ele>
      </trkpt>
      <trkpt lat="48.70002" lon="1.90176">
        <ele>143</ele>
        <time>2013-06-27T09:07:13Z</time>
      </trkpt>
      <trkpt lat="48.69998" lon="1.90193">
        <ele>143</ele>
      </trkpt>
      <trkpt lat="48.69994" lon="1.9021">
        <ele>144</ele>
      </trkpt>
      <trkpt lat="48.69991" lon="1.90226">
        <ele>144</ele>
        <time>2013-06-27T09:07:52Z</time>
      </trkpt>
      <trkpt lat="48.6999" lon="1.90242">
        <ele>144</ele>
      </trkpt>
      <trkpt lat="48.6999" lon="1.90258">
        <ele>144</ele>
      </trkpt>
      <trkpt lat="48.6999" lon="1.90274">
        <ele>144</ele>
      </trkpt>
      <trkpt lat="48.69989" lon="1.90289">
        <ele>144</ele>
        <time>2013-06-27T09:08:17Z</time>
      </trkpt>
      <trkpt lat="48.69992" lon="1.90303">
        <ele>145</ele>
      </trkpt>
      <trkpt lat="48.69995" lon="1.90317">
        <ele>145</ele>
      </trkpt>
      <trkpt lat="48.69998" lon="1.90331">
        <ele>145</ele>
      </trkpt>
      <trkpt lat="48.7" lon="1.90345">
        <ele>145</ele>
        <time>2013-06-27T09:08:50Z</time>
      </trkpt>
      <trkpt lat="48.70005" lon="1.90359">
        <ele>145</ele>
      </trkpt>
      <trkpt lat="48.70009" lon="1.90372">
        <ele>145</ele>
      </trkpt>
      <trkpt lat="48.70013" lon="1.90386">
        <ele>143</ele>
      </trkpt>
      <trkpt lat="48.70017" lon="1.904">
        <ele>143</ele>
        <time>2013-06-27T09:09:26Z</time>
      </trkpt>
      <trkpt lat="48.70019" lon="1.90414">
        <ele>143</ele>
      </trkpt>
      <trkpt lat="48.70021" lon="1.90428">
        <ele>143</ele>
      </trkpt>
      <trkpt lat="48.70023" lon="1.90442">
        <ele>143</ele>
      </trkpt>
      <trkpt lat="48.70025" lon="1.90456">
        <ele>143</ele>
        <time>2013-06-27T09:09:56Z</time>
      </trkpt>
      <trkpt lat="48.70025" lon="1.90473">
        <ele>144</ele>
      </trkpt>
      <trkpt lat="48.70025" lon="1.9049">
        <ele>144</ele>
      </trkpt>
      <trkpt lat="48.70025" lon="1.90506">
        <ele>144</ele>
      </trkpt>
      <trkpt lat="48.70025" lon="1.90523">
        <ele>144</ele>
        <time>2013-06-27T09:10:27Z</time>
      </trkpt>
      <trkpt lat="48.7003" lon="1.90537">
        <ele>144</ele>
      </trkpt>
      <trkpt lat="48.70035" lon="1.90552">
        <ele>146</ele>
      </trkpt>
      <trkpt lat="48.7004" lon="1.90566">
        <ele>146</ele>
        <time>2013-06-27T09:10:55Z</time>
      </trkpt>
      <trkpt lat="48.70046" lon="1.90579">
        <ele>153</ele>
      </trkpt>
      <trkpt lat="48.70052" lon="1.90591">
        <ele>153</ele>
      </trkpt>
      <trkpt lat="48.70058" lon="1.90604">
        <ele>153</ele>
      </trkpt>
      <trkpt lat="48.70063" lon="1.90616">
        <ele>153</ele>
        <time>2013-06-27T09:11:24Z</time>
      </trkpt>
      <trkpt lat="48.70063" lon="1.90631">
        <ele>153</ele>
      </trkpt>
      <trkpt lat="48.70063" lon="1.90645">
        <ele>153</ele>
      </trkpt>
      <trkpt lat="48.70063" lon="1.90659">
        <ele>153</ele>
      </trkpt>
      <trkpt lat="48.70063" lon="1.90674">
        <ele>153</ele>
        <time>2013-06-27T09:11:57Z</time>
      </trkpt>
      <trkpt lat="48.70054" lon="1.90683">
        <ele>153</ele>
      </trkpt>
      <trkpt lat="48.70046" lon="1.90692">
        <ele>153</ele>
      </trkpt>
      <trkpt lat="48.70037" lon="1.90701">
        <ele>142</ele>
      </trkpt>
      <trkpt lat="48.70029" lon="1.9071">
        <ele>145</ele>
        <time>2013-06-27T09:12:28Z</time>
      </trkpt>
      <trkpt lat="48.70024" lon="1.90723">
        <ele>145</ele>
      </trkpt>
      <trkpt lat="48.7002" lon="1.90737">
        <ele>145</ele>
      </trkpt>
      <trkpt lat="48.70015" lon="1.9075">
        <ele>145</ele>
      </trkpt>
      <trkpt lat="48.70011" lon="1.90764">
        <ele>145</ele>
        <time>2013-06-27T09:13:02Z</time>
      </trkpt>
      <trkpt lat="48.70005" lon="1.90777">
        <ele>145</ele>
      </trkpt>
      <trkpt lat="48.7" lon="1.90791">
        <ele>145</ele>
      </trkpt>
      <trkpt lat="48.69995" lon="1.90804">
        <ele>148</ele>
      </trkpt>
      <trkpt lat="48.6999" lon="1.90817">
        <ele>148</ele>
        <time>2013-06-27T09:13:36Z</time>
      </trkpt>
      <trkpt lat="48.69985" lon="1.9083">
        <ele>148</ele>
      </trkpt>
      <trkpt lat="48.6998" lon="1.90842">
        <ele>148</ele>
      </trkpt>
      <trkpt lat="48.69975" lon="1.90854">
        <ele>148</ele>
      </trkpt>
      <trkpt lat="48.69969" lon="1.90866">
        <ele>148</ele>
        <time>2013-06-27T09:14:04Z</time>
      </trkpt>
      <trkpt lat="48.69967" lon="1.9088">
        <ele>153</ele>
      </trkpt>
      <trkpt lat="48.69964" lon="1.90894">
        <ele>153</ele>
      </trkpt>
      <trkpt lat="48.69961" lon="1.90908">
        <ele>153</ele>
      </trkpt>
      <trkpt lat="48.69958" lon="1.90922">
        <ele>144</ele>
        <time>2013-06-27T09:14:36Z</time>
      </trkpt>
      <trkpt lat="48.69954" lon="1.90935">
        <ele>144</ele>
      </trkpt>
      <trkpt lat="48.69951" lon="1.90949">
        <ele>144</ele>
      </trkpt>
      <trkpt lat="48.69947" lon="1.90963">
        <ele>142</ele>
        <time>2013-06-27T09:15:08Z</time>
      </trkpt>
      <trkpt lat="48.69945" lon="1.90978">
        <ele>142</ele>
      </trkpt>
      <trkpt lat="48.69943" lon="1.90993">
        <ele>142</ele>
        <time>2013-06-27T09:15:22Z</time>
      </trkpt>
      <trkpt lat="48.6994" lon="1.91008">
        <ele>142</ele>
      </trkpt>
      <trkpt lat="48.69937" lon="1.91024">
        <ele>142</ele>
      </trkpt>
      <trkpt lat="48.69935" lon="1.91039">
        <ele>142</ele>
      </trkpt>
      <trkpt lat="48.69932" lon="1.91055">
        <ele>141</ele>
        <time>2013-06-27T09:15:56Z</time>
      </trkpt>
      <trkpt lat="48.6993" lon="1.91069">
        <ele>141</ele>
      </trkpt>
      <trkpt lat="48.69927" lon="1.91084">
        <ele>141</ele>
      </trkpt>
      <trkpt lat="48.69924" lon="1.91098">
        <ele>141</ele>
      </trkpt>
      <trkpt lat="48.69922" lon="1.91113">
        <ele>141</ele>
        <time>2013-06-27T09:16:29Z</time>
      </trkpt>
      <trkpt lat="48.69923" lon="1.91129">
        <ele>143</ele>
      </trkpt>
      <trkpt lat="48.69925" lon="1.91145">
        <ele>143</ele>
      </trkpt>
      <trkpt lat="48.69926" lon="1.91162">
        <ele>143</ele>
      </trkpt>
      <trkpt lat="48.69927" lon="1.91178">
        <ele>143</ele>
        <time>2013-06-27T09:17:05Z</time>
      </trkpt>
      <trkpt lat="48.69921" lon="1.9119">
        <ele>143</ele>
      </trkpt>
      <trkpt lat="48.69915" lon="1.91202">
        <ele>143</ele>
      </trkpt>
      <trkpt lat="48.69909" lon="1.91215">
        <ele>148</ele>
      </trkpt>
      <trkpt lat="48.69903" lon="1.91227">
        <ele>148</ele>
        <time>2013-06-27T09:17:40Z</time>
      </trkpt>
      <trkpt lat="48.69895" lon="1.91237">
        <ele>148</ele>
      </trkpt>
      <trkpt lat="48.69886" lon="1.91248">
        <ele>148</ele>
      </trkpt>
      <trkpt lat="48.69877" lon="1.91258">
        <ele>148</ele>
      </trkpt>
      <trkpt lat="48.69868" lon="1.91268">
        <ele>138</ele>
        <time>2013-06-27T09:18:26Z</time>
      </trkpt>
      <trkpt lat="48.6987" lon="1.91283">
        <ele>138</ele>
      </trkpt>
      <trkpt lat="48.69872" lon="1.91299">
        <ele>136</ele>
      </trkpt>
      <trkpt lat="48.69874" lon="1.91314">
        <ele>136</ele>
      </trkpt>
      <trkpt lat="48.69877" lon="1.91329">
        <ele>150</ele>
        <time>2013-06-27T09:19:03Z</time>
      </trkpt>
      <trkpt lat="48.69875" lon="1.91343">
        <ele>136</ele>
      </trkpt>
      <trkpt lat="48.69873" lon="1.91357">
        <ele>136</ele>
      </trkpt>
      <trkpt lat="48.69871" lon="1.91371">
        <ele>136</ele>
      </trkpt>
      <trkpt lat="48.69869" lon="1.91385">
        <ele>137</ele>
        <time>2013-06-27T09:19:35Z</time>
      </trkpt>
      <trkpt lat="48.69865" lon="1.91398">
        <ele>137</ele>
      </trkpt>
      <trkpt lat="48.69862" lon="1.91412">
        <ele>137</ele>
      </trkpt>
      <trkpt lat="48.69858" lon="1.91425">
        <ele>137</ele>
      </trkpt>
      <trkpt lat="48.69855" lon="1.91438">
        <ele>137</ele>
        <time>2013-06-27T09:20:10Z</time>
      </trkpt>
      <trkpt lat="48.69849" lon="1.91448">
        <ele>137</ele>
      </trkpt>
      <trkpt lat="48.69843" lon="1.91458">
        <ele>143</ele>
      </trkpt>
      <trkpt lat="48.69836" lon="1.91469">
        <ele>143</ele>
      </trkpt>
      <trkpt lat="48.6983" lon="1.91479">
        <ele>143</ele>
        <time>2013-06-27T09:20:44Z</time>
      </trkpt>
      <trkpt lat="48.69835" lon="1.9149">
        <ele>143</ele>
      </trkpt>
      <trkpt lat="48.6984" lon="1.91502">
        <ele>143</ele>
      </trkpt>
      <trkpt lat="48.69845" lon="1.91514">
        <ele>143</ele>
      </trkpt>
      <trkpt lat="48.69851" lon="1.91525">
        <ele>143</ele>
        <time>2013-06-27T09:21:14Z</time>
      </trkpt>
      <trkpt lat="48.69856" lon="1.91537">
        <ele>143</ele>
      </trkpt>
      <trkpt lat="48.69862" lon="1.91549">
        <ele>152</ele>
      </trkpt>
      <trkpt lat="48.69867" lon="1.91561">
        <ele>152</ele>
      </trkpt>
      <trkpt lat="48.69873" lon="1.91573">
        <ele>152</ele>
        <time>2013-06-27T09:21:55Z</time>
      </trkpt>
      <trkpt lat="48.69878" lon="1.91589">
        <ele>158</ele>
      </trkpt>
      <trkpt lat="48.69882" lon="1.91605">
        <ele>158</ele>
      </trkpt>
      <trkpt lat="48.69887" lon="1.91621">
        <ele>158</ele>
        <time>2013-06-27T09:22:38Z</time>
      </trkpt>
      <trkpt lat="48.69886" lon="1.91634">
        <ele>168</ele>
      </trkpt>
      <trkpt lat="48.69884" lon="1.91647">
        <ele>168</ele>
      </trkpt>
      <trkpt lat="48.69882" lon="1.9166">
        <ele>168</ele>
      </trkpt>
      <trkpt lat="48.6988" lon="1.91674">
        <ele>168</ele>
        <time>2013-06-27T09:23:30Z</time>
      </trkpt>
      <trkpt lat="48.69876" lon="1.91686">
        <ele>168</ele>
      </trkpt>
      <trkpt lat="48.69872" lon="1.91699">
        <ele>172</ele>
      </trkpt>
      <trkpt lat="48.69869" lon="1.91712">
        <ele>181</ele>
      </trkpt>
      <trkpt lat="48.69865" lon="1.91725">
        <ele>181</ele>
        <time>2013-06-27T09:24:19Z</time>
      </trkpt>
      <trkpt lat="48.69858" lon="1.91738">
        <ele>181</ele>
      </trkpt>
      <trkpt lat="48.69851" lon="1.91751">
        <ele>181</ele>
      </trkpt>
      <trkpt lat="48.69843" lon="1.91763">
        <ele>181</ele>
        <time>2013-06-27T09:28:02Z</time>
      </trkpt>
      <trkpt lat="48.69834" lon="1.9176">
        <ele>181</ele>
      </trkpt>
      <trkpt lat="48.69824" lon="1.91756">
        <ele>181</ele>
      </trkpt>
      <trkpt lat="48.69814" lon="1.91752">
        <ele>181</ele>
      </trkpt>
      <trkpt lat="48.69805" lon="1.91748">
        <ele>181</ele>
        <time>2013-06-27T09:29:39Z</time>
      </trkpt>
      <trkpt lat="48.69795" lon="1.9174">
        <ele>181</ele>
      </trkpt>
      <trkpt lat="48.69785" lon="1.91731">
        <ele>176</ele>
      </trkpt>
      <trkpt lat="48.69774" lon="1.91723">
        <ele>176</ele>
      </trkpt>
      <trkpt lat="48.69764" lon="1.91714">
        <ele>176</ele>
        <time>2013-06-27T09:30:18Z</time>
      </trkpt>
      <trkpt lat="48.69757" lon="1.91706">
        <ele>177</ele>
      </trkpt>
      <trkpt lat="48.69749" lon="1.91699">
        <ele>177</ele>
      </trkpt>
      <trkpt lat="48.69742" lon="1.91691">
        <ele>177</ele>
      </trkpt>
      <trkpt lat="48.69734" lon="1.91683">
        <ele>177</ele>
        <time>2013-06-27T09:30:49Z</time>
      </trkpt>
      <trkpt lat="48.69726" lon="1.91674">
        <ele>177</ele>
      </trkpt>
      <trkpt lat="48.69719" lon="1.91665">
        <ele>177</ele>
      </trkpt>
      <trkpt lat="48.69711" lon="1.91657">
        <ele>177</ele>
      </trkpt>
      <trkpt lat="48.69703" lon="1.91648">
        <ele>175</ele>
        <time>2013-06-27T09:31:22Z</time>
      </trkpt>
      <trkpt lat="48.69694" lon="1.9164">
        <ele>175</ele>
      </trkpt>
      <trkpt lat="48.69685" lon="1.91632">
        <ele>175</ele>
      </trkpt>
      <trkpt lat="48.69677" lon="1.91624">
        <ele>175</ele>
      </trkpt>
      <trkpt lat="48.69668" lon="1.91616">
        <ele>175</ele>
        <time>2013-06-27T09:31:56Z</time>
      </trkpt>
      <trkpt lat="48.6966" lon="1.91606">
        <ele>175</ele>
      </trkpt>
      <trkpt lat="48.69653" lon="1.91596">
        <ele>175</ele>
      </trkpt>
      <trkpt lat="48.69645" lon="1.91586">
        <ele>175</ele>
      </trkpt>
      <trkpt lat="48.69638" lon="1.91577">
        <ele>175</ele>
        <time>2013-06-27T09:32:32Z</time>
      </trkpt>
      <trkpt lat="48.69628" lon="1.91575">
        <ele>175</ele>
      </trkpt>
      <trkpt lat="48.69619" lon="1.91574">
        <ele>171</ele>
        <time>2013-06-27T09:32:46Z</time>
      </trkpt>
      <trkpt lat="48.69609" lon="1.91576">
        <ele>171</ele>
      </trkpt>
      <trkpt lat="48.69599" lon="1.91578">
        <ele>171</ele>
      </trkpt>
      <trkpt lat="48.69589" lon="1.91581">
        <ele>171</ele>
      </trkpt>
      <trkpt lat="48.69579" lon="1.91583">
        <ele>171</ele>
        <time>2013-06-27T09:33:18Z</time>
      </trkpt>
      <trkpt lat="48.69569" lon="1.91584">
        <ele>171</ele>
      </trkpt>
      <trkpt lat="48.69559" lon="1.91585">
        <ele>171</ele>
      </trkpt>
      <trkpt lat="48.69549" lon="1.91586">
        <ele>171</ele>
        <time>2013-06-27T09:33:45Z</time>
      </trkpt>
      <trkpt lat="48.6954" lon="1.91591">
        <ele>154</ele>
      </trkpt>
      <trkpt lat="48.69531" lon="1.91595">
        <ele>154</ele>
      </trkpt>
      <trkpt lat="48.69522" lon="1.91599">
        <ele>154</ele>
      </trkpt>
      <trkpt lat="48.69513" lon="1.91603">
        <ele>154</ele>
        <time>2013-06-27T09:34:32Z</time>
      </trkpt>
      <trkpt lat="48.69504" lon="1.91611">
        <ele>154</ele>
      </trkpt>
      <trkpt lat="48.69496" lon="1.91619">
        <ele>154</ele>
      </trkpt>
      <trkpt lat="48.69487" lon="1.91628">
        <ele>155</ele>
        <time>2013-06-27T09:35:16Z</time>
      </trkpt>
      <trkpt lat="48.69482" lon="1.91633">
        <ele>155</ele>
      </trkpt>
      <trkpt lat="48.69477" lon="1.91638">
        <ele>155</ele>
        <time>2013-06-27T09:36:05Z</time>
      </trkpt>
      <trkpt lat="48.69469" lon="1.91629">
        <ele>155</ele>
      </trkpt>
      <trkpt lat="48.69461" lon="1.91621">
        <ele>154</ele>
      </trkpt>
      <trkpt lat="48.69453" lon="1.91612">
        <ele>145</ele>
      </trkpt>
      <trkpt lat="48.69446" lon="1.91604">
        <ele>145</ele>
        <time>2013-06-27T09:36:43Z</time>
      </trkpt>
      <trkpt lat="48.69437" lon="1.916">
        <ele>145</ele>
      </trkpt>
      <trkpt lat="48.69429" lon="1.91597">
        <ele>145</ele>
      </trkpt>
      <trkpt lat="48.6942" lon="1.91594">
        <ele>145</ele>
        <time>2013-06-27T09:37:31Z</time>
      </trkpt>
      <trkpt lat="48.69415" lon="1.91607">
        <ele>145</ele>
      </trkpt>
      <trkpt lat="48.6941" lon="1.91621">
        <ele>145</ele>
      </trkpt>
      <trkpt lat="48.69405" lon="1.91635">
        <ele>153</ele>
        <time>2013-06-27T09:38:07Z</time>
      </trkpt>
      <trkpt lat="48.69401" lon="1.91649">
        <ele>153</ele>
      </trkpt>
      <trkpt lat="48.69397" lon="1.91663">
        <ele>153</ele>
      </trkpt>
      <trkpt lat="48.69394" lon="1.91677">
        <ele>153</ele>
      </trkpt>
      <trkpt lat="48.6939" lon="1.91691">
        <ele>153</ele>
        <time>2013-06-27T09:39:34Z</time>
      </trkpt>
      <trkpt lat="48.69381" lon="1.91686">
        <ele>153</ele>
      </trkpt>
      <trkpt lat="48.69373" lon="1.91682">
        <ele>157</ele>
      </trkpt>
      <trkpt lat="48.69364" lon="1.91677">
        <ele>157</ele>
      </trkpt>
      <trkpt lat="48.69356" lon="1.91673">
        <ele>157</ele>
        <time>2013-06-27T09:40:20Z</time>
      </trkpt>
      <trkpt lat="48.69348" lon="1.91686">
        <ele>157</ele>
      </trkpt>
      <trkpt lat="48.6934" lon="1.91698">
        <ele>157</ele>
      </trkpt>
      <trkpt lat="48.69333" lon="1.91711">
        <ele>170</ele>
        <time>2013-06-27T09:41:14Z</time>
      </trkpt>
      <trkpt lat="48.69333" lon="1.91725">
        <ele>170</ele>
      </trkpt>
      <trkpt lat="48.69333" lon="1.91739">
        <ele>170</ele>
      </trkpt>
      <trkpt lat="48.69333" lon="1.91752">
        <ele>170</ele>
      </trkpt>
      <trkpt lat="48.69333" lon="1.91766">
        <ele>170</ele>
        <time>2013-06-27T09:41:47Z</time>
      </trkpt>
      <trkpt lat="48.69324" lon="1.91774">
        <ele>170</ele>
      </trkpt>
      <trkpt lat="48.69315" lon="1.91781">
        <ele>170</ele>
      </trkpt>
      <trkpt lat="48.69306" lon="1.91789">
        <ele>170</ele>
        <time>2013-06-27T09:42:30Z</time>
      </trkpt>
      <trkpt lat="48.69306" lon="1.91804">
        <ele>178</ele>
      </trkpt>
      <trkpt lat="48.69306" lon="1.91819">
        <ele>178</ele>
      </trkpt>
      <trkpt lat="48.69305" lon="1.91834">
        <ele>178</ele>
      </trkpt>
      <trkpt lat="48.69305" lon="1.91849">
        <ele>178</ele>
        <time>2013-06-27T09:43:03Z</time>
      </trkpt>
      <trkpt lat="48.69302" lon="1.91866">
        <ele>178</ele>
      </trkpt>
      <trkpt lat="48.693" lon="1.91882">
        <ele>179</ele>
      </trkpt>
      <trkpt lat="48.69297" lon="1.91899">
        <ele>179</ele>
        <time>2013-06-27T09:43:33Z</time>
      </trkpt>
      <trkpt lat="48.69292" lon="1.91911">
        <ele>179</ele>
      </trkpt>
      <trkpt lat="48.69288" lon="1.91924">
        <ele>166</ele>
      </trkpt>
      <trkpt lat="48.69284" lon="1.91936">
        <ele>166</ele>
      </trkpt>
      <trkpt lat="48.69279" lon="1.91948">
        <ele>166</ele>
        <time>2013-06-27T09:44:00Z</time>
      </trkpt>
      <trkpt lat="48.6928" lon="1.91965">
        <ele>170</ele>
      </trkpt>
      <trkpt lat="48.69282" lon="1.91981">
        <ele>170</ele>
      </trkpt>
      <trkpt lat="48.69283" lon="1.91997">
        <ele>170</ele>
        <time>2013-06-27T09:44:32Z</time>
      </trkpt>
      <trkpt lat="48.69276" lon="1.92004">
        <ele>170</ele>
      </trkpt>
      <trkpt lat="48.69268" lon="1.92011">
        <ele>170</ele>
      </trkpt>
      <trkpt lat="48.6926" lon="1.92019">
        <ele>170</ele>
      </trkpt>
      <trkpt lat="48.69253" lon="1.92026">
        <ele>170</ele>
        <time>2013-06-27T09:45:04Z</time>
      </trkpt>
      <trkpt lat="48.69243" lon="1.9203">
        <ele>170</ele>
      </trkpt>
      <trkpt lat="48.69232" lon="1.92034">
        <ele>170</ele>
      </trkpt>
      <trkpt lat="48.69222" lon="1.92039">
        <ele>170</ele>
      </trkpt>
      <trkpt lat="48.69211" lon="1.92043">
        <ele>177</ele>
      </trkpt>
      <trkpt lat="48.69201" lon="1.92047">
        <ele>176</ele>
        <time>2013-06-27T09:46:28Z</time>
      </trkpt>
      <trkpt lat="48.6919" lon="1.92049">
        <ele>176</ele>
      </trkpt>
      <trkpt lat="48.69179" lon="1.9205">
        <ele>176</ele>
      </trkpt>
      <trkpt lat="48.69167" lon="1.92051">
        <ele>176</ele>
      </trkpt>
      <trkpt lat="48.69156" lon="1.92053">
        <ele>176</ele>
        <time>2013-06-27T09:47:00Z</time>
      </trkpt>
      <trkpt lat="48.6915" lon="1.92064">
        <ele>176</ele>
      </trkpt>
      <trkpt lat="48.69145" lon="1.92076">
        <ele>176</ele>
      </trkpt>
      <trkpt lat="48.69139" lon="1.92088">
        <ele>176</ele>
      </trkpt>
      <trkpt lat="48.69134" lon="1.92099">
        <ele>176</ele>
        <time>2013-06-27T09:47:32Z</time>
      </trkpt>
      <trkpt lat="48.69133" lon="1.92114">
        <ele>176</ele>
      </trkpt>
      <trkpt lat="48.69131" lon="1.92129">
        <ele>177</ele>
      </trkpt>
      <trkpt lat="48.6913" lon="1.92144">
        <ele>177</ele>
      </trkpt>
      <trkpt lat="48.69129" lon="1.92159">
        <ele>177</ele>
        <time>2013-06-27T09:47:58Z</time>
      </trkpt>
      <trkpt lat="48.69126" lon="1.92171">
        <ele>177</ele>
      </trkpt>
      <trkpt lat="48.69124" lon="1.92184">
        <ele>161</ele>
      </trkpt>
      <trkpt lat="48.69121" lon="1.92197">
        <ele>161</ele>
      </trkpt>
      <trkpt lat="48.69119" lon="1.9221">
        <ele>160</ele>
        <time>2013-06-27T09:48:31Z</time>
      </trkpt>
      <trkpt lat="48.69114" lon="1.92222">
        <ele>160</ele>
      </trkpt>
      <trkpt lat="48.6911" lon="1.92234">
        <ele>160</ele>
        <time>2013-06-27T09:48:46Z</time>
      </trkpt>
      <trkpt lat="48.69109" lon="1.92251">
        <ele>160</ele>
      </trkpt>
      <trkpt lat="48.69108" lon="1.92268">
        <ele>160</ele>
      </trkpt>
      <trkpt lat="48.69108" lon="1.92284">
        <ele>160</ele>
        <time>2013-06-27T09:49:20Z</time>
      </trkpt>
      <trkpt lat="48.69107" lon="1.923">
        <ele>164</ele>
      </trkpt>
      <trkpt lat="48.69106" lon="1.92316">
        <ele>164</ele>
      </trkpt>
      <trkpt lat="48.69105" lon="1.92331">
        <ele>164</ele>
        <time>2013-06-27T09:49:45Z</time>
      </trkpt>
      <trkpt lat="48.69101" lon="1.92346">
        <ele>164</ele>
      </trkpt>
      <trkpt lat="48.69097" lon="1.9236">
        <ele>164</ele>
      </trkpt>
      <trkpt lat="48.69094" lon="1.92375">
        <ele>164</ele>
      </trkpt>
      <trkpt lat="48.6909" lon="1.9239">
        <ele>170</ele>
        <time>2013-06-27T09:50:26Z</time>
      </trkpt>
      <trkpt lat="48.69083" lon="1.92403">
        <ele>170</ele>
      </trkpt>
      <trkpt lat="48.69076" lon="1.92416">
        <ele>170</ele>
      </trkpt>
      <trkpt lat="48.69069" lon="1.92429">
        <ele>170</ele>
      </trkpt>
      <trkpt lat="48.69062" lon="1.92442">
        <ele>170</ele>
        <time>2013-06-27T09:50:59Z</time>
      </trkpt>
      <trkpt lat="48.69062" lon="1.92455">
        <ele>170</ele>
      </trkpt>
      <trkpt lat="48.69061" lon="1.92469">
        <ele>175</ele>
      </trkpt>
      <trkpt lat="48.69061" lon="1.92483">
        <ele>175</ele>
        <time>2013-06-27T09:51:26Z</time>
      </trkpt>
      <trkpt lat="48.69058" lon="1.92496">
        <ele>175</ele>
      </trkpt>
      <trkpt lat="48.69055" lon="1.92509">
        <ele>175</ele>
      </trkpt>
      <trkpt lat="48.69052" lon="1.92523">
        <ele>175</ele>
      </trkpt>
      <trkpt lat="48.69049" lon="1.92536">
        <ele>175</ele>
        <time>2013-06-27T09:51:56Z</time>
      </trkpt>
      <trkpt lat="48.69045" lon="1.92549">
        <ele>178</ele>
      </trkpt>
      <trkpt lat="48.69041" lon="1.92561">
        <ele>171</ele>
      </trkpt>
      <trkpt lat="48.69036" lon="1.92574">
        <ele>171</ele>
      </trkpt>
      <trkpt lat="48.69032" lon="1.92586">
        <ele>171</ele>
        <time>2013-06-27T09:52:26Z</time>
      </trkpt>
      <trkpt lat="48.69037" lon="1.92597">
        <ele>171</ele>
      </trkpt>
      <trkpt lat="48.69043" lon="1.92609">
        <ele>178</ele>
      </trkpt>
      <trkpt lat="48.69048" lon="1.9262">
        <ele>178</ele>
      </trkpt>
      <trkpt lat="48.69054" lon="1.92631">
        <ele>176</ele>
        <time>2013-06-27T09:52:53Z</time>
      </trkpt>
      <trkpt lat="48.69063" lon="1.92635">
        <ele>176</ele>
      </trkpt>
      <trkpt lat="48.69072" lon="1.92638">
        <ele>176</ele>
      </trkpt>
      <trkpt lat="48.69081" lon="1.92642">
        <ele>176</ele>
      </trkpt>
      <trkpt lat="48.69091" lon="1.92646">
        <ele>176</ele>
        <time>2013-06-27T09:53:31Z</time>
      </trkpt>
      <trkpt lat="48.69101" lon="1.92651">
        <ele>176</ele>
      </trkpt>
      <trkpt lat="48.69111" lon="1.92656">
        <ele>176</ele>
      </trkpt>
      <trkpt lat="48.69122" lon="1.92662">
        <ele>176</ele>
      </trkpt>
      <trkpt lat="48.69132" lon="1.92667">
        <ele>176</ele>
        <time>2013-06-27T09:54:12Z</time>
      </trkpt>
      <trkpt lat="48.69138" lon="1.92678">
        <ele>176</ele>
      </trkpt>
      <trkpt lat="48.69145" lon="1.92689">
        <ele>176</ele>
      </trkpt>
      <trkpt lat="48.69151" lon="1.927">
        <ele>176</ele>
      </trkpt>
      <trkpt lat="48.69157" lon="1.92711">
        <ele>172</ele>
        <time>2013-06-27T09:54:53Z</time>
      </trkpt>
      <trkpt lat="48.69164" lon="1.92719">
        <ele>172</ele>
      </trkpt>
      <trkpt lat="48.69172" lon="1.92727">
        <ele>172</ele>
      </trkpt>
      <trkpt lat="48.69179" lon="1.92735">
        <ele>172</ele>
      </trkpt>
      <trkpt lat="48.69186" lon="1.92743">
        <ele>172</ele>
        <time>2013-06-27T09:55:07Z</time>
      </trkpt>
      <trkpt lat="48.69177" lon="1.92745">
        <ele>172</ele>
      </trkpt>
      <trkpt lat="48.69168" lon="1.92746">
        <ele>172</ele>
      </trkpt>
      <trkpt lat="48.69158" lon="1.92748">
        <ele>172</ele>
        <time>2013-06-27T09:55:52Z</time>
      </trkpt>
      <trkpt lat="48.69149" lon="1.92748">
        <ele>172</ele>
      </trkpt>
      <trkpt lat="48.69139" lon="1.92748">
        <ele>172</ele>
      </trkpt>
      <trkpt lat="48.6913" lon="1.92749">
        <ele>172</ele>
      </trkpt>
      <trkpt lat="48.6912" lon="1.92749">
        <ele>168</ele>
        <time>2013-06-27T09:56:23Z</time>
      </trkpt>
      <trkpt lat="48.69113" lon="1.92758">
        <ele>168</ele>
      </trkpt>
      <trkpt lat="48.69105" lon="1.92768">
        <ele>168</ele>
      </trkpt>
      <trkpt lat="48.69097" lon="1.92778">
        <ele>168</ele>
      </trkpt>
      <trkpt lat="48.69089" lon="1.92787">
        <ele>168</ele>
        <time>2013-06-27T09:57:01Z</time>
      </trkpt>
      <trkpt lat="48.69078" lon="1.92789">
        <ele>168</ele>
      </trkpt>
      <trkpt lat="48.69067" lon="1.92791">
        <ele>168</ele>
      </trkpt>
      <trkpt lat="48.69056" lon="1.92794">
        <ele>172</ele>
      </trkpt>
      <trkpt lat="48.69045" lon="1.92796">
        <ele>172</ele>
      </trkpt>
      <trkpt lat="48.69034" lon="1.92798">
        <ele>162</ele>
      </trkpt>
      <trkpt lat="48.69023" lon="1.928">
        <ele>162</ele>
      </trkpt>
      <trkpt lat="48.69012" lon="1.92802">
        <ele>162</ele>
      </trkpt>
      <trkpt lat="48.69001" lon="1.92804">
        <ele>162</ele>
        <time>2013-06-27T09:58:23Z</time>
      </trkpt>
      <trkpt lat="48.68993" lon="1.92794">
        <ele>162</ele>
      </trkpt>
      <trkpt lat="48.68984" lon="1.92785">
        <ele>163</ele>
      </trkpt>
      <trkpt lat="48.68975" lon="1.92776">
        <ele>163</ele>
      </trkpt>
      <trkpt lat="48.68967" lon="1.92767">
        <ele>163</ele>
        <time>2013-06-27T09:58:51Z</time>
      </trkpt>
      <trkpt lat="48.68962" lon="1.92754">
        <ele>163</ele>
      </trkpt>
      <trkpt lat="48.68957" lon="1.9274">
        <ele>155</ele>
      </trkpt>
      <trkpt lat="48.68952" lon="1.92727">
        <ele>155</ele>
      </trkpt>
      <trkpt lat="48.68947" lon="1.92714">
        <ele>155</ele>
        <time>2013-06-27T09:59:32Z</time>
      </trkpt>
      <trkpt lat="48.6894" lon="1.92705">
        <ele>153</ele>
      </trkpt>
      <trkpt lat="48.68933" lon="1.92696">
        <ele>153</ele>
      </trkpt>
      <trkpt lat="48.68927" lon="1.92688">
        <ele>153</ele>
      </trkpt>
      <trkpt lat="48.6892" lon="1.92679">
        <ele>153</ele>
        <time>2013-06-27T09:59:57Z</time>
      </trkpt>
      <trkpt lat="48.68911" lon="1.92668">
        <ele>153</ele>
      </trkpt>
      <trkpt lat="48.68902" lon="1.92658">
        <ele>153</ele>
      </trkpt>
      <trkpt lat="48.68894" lon="1.92647">
        <ele>153</ele>
        <time>2013-06-27T10:00:31Z</time>
      </trkpt>
      <trkpt lat="48.68886" lon="1.9264">
        <ele>153</ele>
      </trkpt>
      <trkpt lat="48.68878" lon="1.92633">
        <ele>153</ele>
      </trkpt>
      <trkpt lat="48.68869" lon="1.92626">
        <ele>142</ele>
      </trkpt>
      <trkpt lat="48.6886" lon="1.92622">
        <ele>136</ele>
      </trkpt>
      <trkpt lat="48.68851" lon="1.92618">
        <ele>136</ele>
      </trkpt>
      <trkpt lat="48.68841" lon="1.92614">
        <ele>136</ele>
      </trkpt>
      <trkpt lat="48.68832" lon="1.92623">
        <ele>136</ele>
      </trkpt>
      <trkpt lat="48.68823" lon="1.92631">
        <ele>142</ele>
      </trkpt>
      <trkpt lat="48.68814" lon="1.9264">
        <ele>142</ele>
      </trkpt>
      <trkpt lat="48.68805" lon="1.92649">
        <ele>142</ele>
      </trkpt>
      <trkpt lat="48.68798" lon="1.92663">
        <ele>142</ele>
      </trkpt>
      <trkpt lat="48.68791" lon="1.92676">
        <ele>132</ele>
      </trkpt>
      <trkpt lat="48.68784" lon="1.9269">
        <ele>132</ele>
      </trkpt>
      <trkpt lat="48.68779" lon="1.92704">
        <ele>132</ele>
      </trkpt>
      <trkpt lat="48.68774" lon="1.92717">
        <ele>133</ele>
        <time>2013-06-27T10:02:33Z</time>
      </trkpt>
      <trkpt lat="48.6877" lon="1.92731">
        <ele>133</ele>
      </trkpt>
      <trkpt lat="48.68766" lon="1.92744">
        <ele>133</ele>
      </trkpt>
      <trkpt lat="48.68763" lon="1.92757">
        <ele>133</ele>
      </trkpt>
      <trkpt lat="48.68759" lon="1.9277">
        <ele>133</ele>
        <time>2013-06-27T10:03:09Z</time>
      </trkpt>
      <trkpt lat="48.68755" lon="1.92784">
        <ele>133</ele>
      </trkpt>
      <trkpt lat="48.6875" lon="1.92798">
        <ele>137</ele>
        <time>2013-06-27T10:03:22Z</time>
      </trkpt>
      <trkpt lat="48.68742" lon="1.92811">
        <ele>137</ele>
      </trkpt>
      <trkpt lat="48.68738" lon="1.92818">
        <ele>137</ele>
      </trkpt>
      <trkpt lat="48.68734" lon="1.92824">
        <ele>137</ele>
      </trkpt>
      <trkpt lat="48.68727" lon="1.92837">
        <ele>137</ele>
        <time>2013-06-27T10:03:45Z</time>
      </trkpt>
      <trkpt lat="48.68721" lon="1.92848">
        <ele>137</ele>
      </trkpt>
      <trkpt lat="48.68715" lon="1.92858">
        <ele>137</ele>
      </trkpt>
      <trkpt lat="48.6871" lon="1.92869">
        <ele>137</ele>
      </trkpt>
      <trkpt lat="48.68704" lon="1.92879">
        <ele>130</ele>
        <time>2013-06-27T10:04:20Z</time>
      </trkpt>
      <trkpt lat="48.68701" lon="1.92895">
        <ele>130</ele>
      </trkpt>
      <trkpt lat="48.68698" lon="1.92912">
        <ele>130</ele>
      </trkpt>
      <trkpt lat="48.68695" lon="1.92928">
        <ele>130</ele>
      </trkpt>
      <trkpt lat="48.68692" lon="1.92944">
        <ele>130</ele>
      </trkpt>
      <trkpt lat="48.6869" lon="1.9296">
        <ele>134</ele>
      </trkpt>
      <trkpt lat="48.68687" lon="1.92976">
        <ele>134</ele>
      </trkpt>
      <trkpt lat="48.68684" lon="1.92993">
        <ele>134</ele>
      </trkpt>
      <trkpt lat="48.68681" lon="1.93009">
        <ele>134</ele>
      </trkpt>
      <trkpt lat="48.68678" lon="1.93025">
        <ele>134</ele>
      </trkpt>
      <trkpt lat="48.68675" lon="1.93041">
        <ele>134</ele>
      </trkpt>
      <trkpt lat="48.68672" lon="1.93058">
        <ele>139</ele>
      </trkpt>
      <trkpt lat="48.68669" lon="1.93074">
        <ele>139</ele>
      </trkpt>
      <trkpt lat="48.68667" lon="1.9309">
        <ele>139</ele>
      </trkpt>
      <trkpt lat="48.68664" lon="1.93106">
        <ele>139</ele>
      </trkpt>
      <trkpt lat="48.68661" lon="1.93122">
        <ele>139</ele>
      </trkpt>
      <trkpt lat="48.68658" lon="1.93139">
        <ele>140</ele>
      </trkpt>
      <trkpt lat="48.68655" lon="1.93155">
        <ele>140</ele>
      </trkpt>
      <trkpt lat="48.68652" lon="1.93171">
        <ele>140</ele>
      </trkpt>
      <trkpt lat="48.68649" lon="1.93187">
        <ele>140</ele>
        <time>2013-06-27T10:07:08Z</time>
      </trkpt>
      <trkpt lat="48.68646" lon="1.932">
        <ele>140</ele>
      </trkpt>
      <trkpt lat="48.68642" lon="1.93212">
        <ele>140</ele>
      </trkpt>
      <trkpt lat="48.68639" lon="1.93225">
        <ele>140</ele>
      </trkpt>
      <trkpt lat="48.68635" lon="1.93238">
        <ele>140</ele>
        <time>2013-06-27T10:07:36Z</time>
      </trkpt>
      <trkpt lat="48.68638" lon="1.93253">
        <ele>140</ele>
      </trkpt>
      <trkpt lat="48.68641" lon="1.93269">
        <ele>140</ele>
      </trkpt>
      <trkpt lat="48.68644" lon="1.93285">
        <ele>140</ele>
      </trkpt>
      <trkpt lat="48.68647" lon="1.933">
        <ele>137</ele>
        <time>2013-06-27T10:07:55Z</time>
      </trkpt>
      <trkpt lat="48.68656" lon="1.93308">
        <ele>137</ele>
      </trkpt>
      <trkpt lat="48.68665" lon="1.93315">
        <ele>137</ele>
      </trkpt>
      <trkpt lat="48.68672" lon="1.93323">
        <ele>137</ele>
      </trkpt>
      <trkpt lat="48.68678" lon="1.93331">
        <ele>137</ele>
      </trkpt>
      <trkpt lat="48.68684" lon="1.93339">
        <ele>137</ele>
      </trkpt>
      <trkpt lat="48.68676" lon="1.93347">
        <ele>137</ele>
      </trkpt>
      <trkpt lat="48.68668" lon="1.93355">
        <ele>137</ele>
      </trkpt>
      <trkpt lat="48.68661" lon="1.93363">
        <ele>137</ele>
      </trkpt>
      <trkpt lat="48.68653" lon="1.93371">
        <ele>137</ele>
      </trkpt>
      <trkpt lat="48.68644" lon="1.93379">
        <ele>143</ele>
      </trkpt>
      <trkpt lat="48.68634" lon="1.93387">
        <ele>143</ele>
      </trkpt>
      <trkpt lat="48.68625" lon="1.93395">
        <ele>143</ele>
      </trkpt>
      <trkpt lat="48.68616" lon="1.93403">
        <ele>131</ele>
      </trkpt>
      <trkpt lat="48.68609" lon="1.93417">
        <ele>131</ele>
      </trkpt>
      <trkpt lat="48.68602" lon="1.9343">
        <ele>131</ele>
      </trkpt>
      <trkpt lat="48.68595" lon="1.93443">
        <ele>131</ele>
      </trkpt>
      <trkpt lat="48.68588" lon="1.93455">
        <ele>131</ele>
      </trkpt>
      <trkpt lat="48.68582" lon="1.93467">
        <ele>129</ele>
      </trkpt>
      <trkpt lat="48.68576" lon="1.93479">
        <ele>129</ele>
      </trkpt>
      <trkpt lat="48.6857" lon="1.93491">
        <ele>129</ele>
      </trkpt>
      <trkpt lat="48.68563" lon="1.93503">
        <ele>129</ele>
      </trkpt>
      <trkpt lat="48.6856" lon="1.93517">
        <ele>129</ele>
      </trkpt>
      <trkpt lat="48.68556" lon="1.9353">
        <ele>129</ele>
      </trkpt>
      <trkpt lat="48.68552" lon="1.93544">
        <ele>132</ele>
        <time>2013-06-27T10:11:26Z</time>
      </trkpt>
      <trkpt lat="48.68552" lon="1.93559">
        <ele>132</ele>
      </trkpt>
      <trkpt lat="48.68551" lon="1.93574">
        <ele>132</ele>
      </trkpt>
      <trkpt lat="48.6855" lon="1.9359">
        <ele>132</ele>
      </trkpt>
      <trkpt lat="48.6855" lon="1.93605">
        <ele>132</ele>
        <time>2013-06-27T10:11:46Z</time>
      </trkpt>
      <trkpt lat="48.68544" lon="1.93616">
        <ele>132</ele>
      </trkpt>
      <trkpt lat="48.68538" lon="1.93628">
        <ele>125</ele>
      </trkpt>
      <trkpt lat="48.68531" lon="1.93639">
        <ele>125</ele>
        <time>2013-06-27T10:12:09Z</time>
      </trkpt>
      <trkpt lat="48.68528" lon="1.93651">
        <ele>125</ele>
      </trkpt>
      <trkpt lat="48.68524" lon="1.93664">
        <ele>125</ele>
      </trkpt>
      <trkpt lat="48.68521" lon="1.93676">
        <ele>125</ele>
        <time>2013-06-27T10:12:32Z</time>
      </trkpt>
      <trkpt lat="48.68528" lon="1.93683">
        <ele>125</ele>
      </trkpt>
      <trkpt lat="48.68535" lon="1.93691">
        <ele>125</ele>
      </trkpt>
      <trkpt lat="48.68542" lon="1.93698">
        <ele>125</ele>
        <time>2013-06-27T10:12:55Z</time>
      </trkpt>
      <trkpt lat="48.6855" lon="1.93709">
        <ele>145</ele>
      </trkpt>
      <trkpt lat="48.68559" lon="1.93719">
        <ele>145</ele>
      </trkpt>
      <trkpt lat="48.68568" lon="1.9373">
        <ele>145</ele>
        <time>2013-06-27T10:13:25Z</time>
      </trkpt>
      <trkpt lat="48.68576" lon="1.93734">
        <ele>145</ele>
      </trkpt>
      <trkpt lat="48.68583" lon="1.93738">
        <ele>145</ele>
      </trkpt>
      <trkpt lat="48.68591" lon="1.93741">
        <ele>145</ele>
      </trkpt>
      <trkpt lat="48.68592" lon="1.93754">
        <ele>145</ele>
      </trkpt>
      <trkpt lat="48.68593" lon="1.93766">
        <ele>145</ele>
      </trkpt>
      <trkpt lat="48.68595" lon="1.93779">
        <ele>145</ele>
      </trkpt>
      <trkpt lat="48.68585" lon="1.93786">
        <ele>145</ele>
      </trkpt>
      <trkpt lat="48.68576" lon="1.93793">
        <ele>154</ele>
      </trkpt>
      <trkpt lat="48.68567" lon="1.93801">
        <ele>154</ele>
      </trkpt>
      <trkpt lat="48.68558" lon="1.93808">
        <ele>154</ele>
      </trkpt>
      <trkpt lat="48.6855" lon="1.9382">
        <ele>154</ele>
      </trkpt>
      <trkpt lat="48.68542" lon="1.93831">
        <ele>134</ele>
      </trkpt>
      <trkpt lat="48.68538" lon="1.93842">
        <ele>134</ele>
      </trkpt>
      <trkpt lat="48.68534" lon="1.93853">
        <ele>134</ele>
      </trkpt>
      <trkpt lat="48.6853" lon="1.93864">
        <ele>134</ele>
      </trkpt>
      <trkpt lat="48.68521" lon="1.9387">
        <ele>134</ele>
      </trkpt>
      <trkpt lat="48.68512" lon="1.93877">
        <ele>148</ele>
      </trkpt>
      <trkpt lat="48.68502" lon="1.93884">
        <ele>148</ele>
      </trkpt>
      <trkpt lat="48.68493" lon="1.93891">
        <ele>148</ele>
      </trkpt>
      <trkpt lat="48.68484" lon="1.93898">
        <ele>148</ele>
      </trkpt>
      <trkpt lat="48.68474" lon="1.93904">
        <ele>148</ele>
      </trkpt>
      <trkpt lat="48.68468" lon="1.93916">
        <ele>148</ele>
      </trkpt>
      <trkpt lat="48.68462" lon="1.93928">
        <ele>148</ele>
      </trkpt>
      <trkpt lat="48.68456" lon="1.9394">
        <ele>129</ele>
      </trkpt>
      <trkpt lat="48.68449" lon="1.93952">
        <ele>129</ele>
      </trkpt>
      <trkpt lat="48.68448" lon="1.93966">
        <ele>137</ele>
      </trkpt>
      <trkpt lat="48.68447" lon="1.9398">
        <ele>137</ele>
      </trkpt>
      <trkpt lat="48.68447" lon="1.93991">
        <ele>137</ele>
      </trkpt>
      <trkpt lat="48.68448" lon="1.94002">
        <ele>137</ele>
      </trkpt>
      <trkpt lat="48.68454" lon="1.94006">
        <ele>137</ele>
      </trkpt>
      <trkpt lat="48.6846" lon="1.9401">
        <ele>158</ele>
      </trkpt>
      <trkpt lat="48.68464" lon="1.94026">
        <ele>158</ele>
      </trkpt>
      <trkpt lat="48.68473" lon="1.94029">
        <ele>158</ele>
      </trkpt>
      <trkpt lat="48.6848" lon="1.94029">
        <ele>158</ele>
        <time>2013-06-27T10:58:10Z</time>
      </trkpt>
      <trkpt lat="48.6849" lon="1.9402">
        <ele>158</ele>
      </trkpt>
      <trkpt lat="48.68501" lon="1.94012">
        <ele>158</ele>
        <time>2013-06-27T11:05:08Z</time>
      </trkpt>
      <trkpt lat="48.68509" lon="1.94005">
        <ele>158</ele>
      </trkpt>
      <trkpt lat="48.68518" lon="1.93997">
        <ele>158</ele>
      </trkpt>
      <trkpt lat="48.68526" lon="1.9399">
        <ele>158</ele>
      </trkpt>
      <trkpt lat="48.68535" lon="1.93983">
        <ele>158</ele>
        <time>2013-06-27T11:05:43Z</time>
      </trkpt>
      <trkpt lat="48.68542" lon="1.93973">
        <ele>162</ele>
      </trkpt>
      <trkpt lat="48.68549" lon="1.93962">
        <ele>162</ele>
      </trkpt>
      <trkpt lat="48.68556" lon="1.93952">
        <ele>164</ele>
      </trkpt>
      <trkpt lat="48.68562" lon="1.93941">
        <ele>164</ele>
        <time>2013-06-27T11:06:22Z</time>
      </trkpt>
      <trkpt lat="48.68572" lon="1.93936">
        <ele>164</ele>
      </trkpt>
      <trkpt lat="48.68582" lon="1.93932">
        <ele>164</ele>
      </trkpt>
      <trkpt lat="48.68591" lon="1.93927">
        <ele>164</ele>
      </trkpt>
      <trkpt lat="48.68601" lon="1.93922">
        <ele>164</ele>
        <time>2013-06-27T11:06:56Z</time>
      </trkpt>
      <trkpt lat="48.6861" lon="1.93918">
        <ele>164</ele>
      </trkpt>
      <trkpt lat="48.68619" lon="1.93913">
        <ele>164</ele>
      </trkpt>
      <trkpt lat="48.68628" lon="1.93909">
        <ele>169</ele>
      </trkpt>
      <trkpt lat="48.68637" lon="1.93904">
        <ele>169</ele>
        <time>2013-06-27T11:07:34Z</time>
      </trkpt>
      <trkpt lat="48.68647" lon="1.93908">
        <ele>169</ele>
      </trkpt>
      <trkpt lat="48.68656" lon="1.93912">
        <ele>169</ele>
      </trkpt>
      <trkpt lat="48.68666" lon="1.93916">
        <ele>169</ele>
      </trkpt>
      <trkpt lat="48.68675" lon="1.9392">
        <ele>169</ele>
        <time>2013-06-27T11:08:05Z</time>
      </trkpt>
      <trkpt lat="48.68685" lon="1.93926">
        <ele>169</ele>
      </trkpt>
      <trkpt lat="48.68696" lon="1.93931">
        <ele>169</ele>
      </trkpt>
      <trkpt lat="48.68706" lon="1.93936">
        <ele>169</ele>
      </trkpt>
      <trkpt lat="48.68716" lon="1.93942">
        <ele>174</ele>
        <time>2013-06-27T11:08:39Z</time>
      </trkpt>
      <trkpt lat="48.6871" lon="1.93952">
        <ele>174</ele>
      </trkpt>
      <trkpt lat="48.68704" lon="1.93963">
        <ele>170</ele>
      </trkpt>
      <trkpt lat="48.68698" lon="1.93973">
        <ele>170</ele>
      </trkpt>
      <trkpt lat="48.68691" lon="1.93983">
        <ele>170</ele>
        <time>2013-06-27T11:09:13Z</time>
      </trkpt>
      <trkpt lat="48.68686" lon="1.93995">
        <ele>170</ele>
      </trkpt>
      <trkpt lat="48.6868" lon="1.94007">
        <ele>170</ele>
      </trkpt>
      <trkpt lat="48.68674" lon="1.9402">
        <ele>170</ele>
      </trkpt>
      <trkpt lat="48.68668" lon="1.94032">
        <ele>170</ele>
        <time>2013-06-27T11:09:57Z</time>
      </trkpt>
      <trkpt lat="48.68665" lon="1.94046">
        <ele>176</ele>
      </trkpt>
      <trkpt lat="48.68661" lon="1.9406">
        <ele>176</ele>
      </trkpt>
      <trkpt lat="48.68658" lon="1.94074">
        <ele>176</ele>
      </trkpt>
      <trkpt lat="48.68655" lon="1.94088">
        <ele>176</ele>
        <time>2013-06-27T11:10:31Z</time>
      </trkpt>
      <trkpt lat="48.68647" lon="1.94098">
        <ele>176</ele>
      </trkpt>
      <trkpt lat="48.68639" lon="1.94108">
        <ele>176</ele>
        <time>2013-06-27T11:10:47Z</time>
      </trkpt>
      <trkpt lat="48.68633" lon="1.94121">
        <ele>176</ele>
      </trkpt>
      <trkpt lat="48.68628" lon="1.94133">
        <ele>179</ele>
      </trkpt>
      <trkpt lat="48.68622" lon="1.94146">
        <ele>167</ele>
      </trkpt>
      <trkpt lat="48.68617" lon="1.94158">
        <ele>167</ele>
        <time>2013-06-27T11:11:21Z</time>
      </trkpt>
      <trkpt lat="48.68611" lon="1.9417">
        <ele>167</ele>
      </trkpt>
      <trkpt lat="48.68605" lon="1.94182">
        <ele>167</ele>
      </trkpt>
      <trkpt lat="48.68599" lon="1.94193">
        <ele>167</ele>
        <time>2013-06-27T11:11:52Z</time>
      </trkpt>
      <trkpt lat="48.68593" lon="1.94206">
        <ele>167</ele>
      </trkpt>
      <trkpt lat="48.68588" lon="1.94218">
        <ele>169</ele>
      </trkpt>
      <trkpt lat="48.68582" lon="1.9423">
        <ele>169</ele>
      </trkpt>
      <trkpt lat="48.68577" lon="1.94243">
        <ele>169</ele>
        <time>2013-06-27T11:12:20Z</time>
      </trkpt>
      <trkpt lat="48.68574" lon="1.94256">
        <ele>169</ele>
      </trkpt>
      <trkpt lat="48.68572" lon="1.94268">
        <ele>169</ele>
      </trkpt>
      <trkpt lat="48.68569" lon="1.94281">
        <ele>169</ele>
      </trkpt>
      <trkpt lat="48.68567" lon="1.94294">
        <ele>175</ele>
        <time>2013-06-27T11:13:08Z</time>
      </trkpt>
      <trkpt lat="48.6856" lon="1.94306">
        <ele>175</ele>
      </trkpt>
      <trkpt lat="48.68554" lon="1.94318">
        <ele>175</ele>
      </trkpt>
      <trkpt lat="48.68548" lon="1.9433">
        <ele>175</ele>
      </trkpt>
      <trkpt lat="48.68542" lon="1.94342">
        <ele>175</ele>
        <time>2013-06-27T11:13:48Z</time>
      </trkpt>
      <trkpt lat="48.68537" lon="1.94353">
        <ele>161</ele>
      </trkpt>
      <trkpt lat="48.68532" lon="1.94364">
        <ele>161</ele>
      </trkpt>
      <trkpt lat="48.68527" lon="1.94376">
        <ele>173</ele>
      </trkpt>
      <trkpt lat="48.68522" lon="1.94387">
        <ele>173</ele>
        <time>2013-06-27T11:14:26Z</time>
      </trkpt>
      <trkpt lat="48.68515" lon="1.94399">
        <ele>173</ele>
      </trkpt>
      <trkpt lat="48.68509" lon="1.9441">
        <ele>173</ele>
      </trkpt>
      <trkpt lat="48.68502" lon="1.94421">
        <ele>173</ele>
      </trkpt>
      <trkpt lat="48.68496" lon="1.94432">
        <ele>173</ele>
        <time>2013-06-27T11:14:56Z</time>
      </trkpt>
      <trkpt lat="48.68492" lon="1.94444">
        <ele>173</ele>
      </trkpt>
      <trkpt lat="48.68488" lon="1.94457">
        <ele>173</ele>
      </trkpt>
      <trkpt lat="48.68485" lon="1.94469">
        <ele>176</ele>
      </trkpt>
      <trkpt lat="48.68481" lon="1.94481">
        <ele>176</ele>
        <time>2013-06-27T11:16:46Z</time>
      </trkpt>
      <trkpt lat="48.68476" lon="1.94493">
        <ele>176</ele>
      </trkpt>
      <trkpt lat="48.68471" lon="1.94505">
        <ele>176</ele>
      </trkpt>
      <trkpt lat="48.68466" lon="1.94517">
        <ele>176</ele>
      </trkpt>
      <trkpt lat="48.68461" lon="1.94529">
        <ele>176</ele>
        <time>2013-06-27T11:17:21Z</time>
      </trkpt>
      <trkpt lat="48.68454" lon="1.9454">
        <ele>167</ele>
      </trkpt>
      <trkpt lat="48.68448" lon="1.94551">
        <ele>174</ele>
      </trkpt>
      <trkpt lat="48.68441" lon="1.94562">
        <ele>174</ele>
      </trkpt>
      <trkpt lat="48.68435" lon="1.94572">
        <ele>174</ele>
        <time>2013-06-27T11:17:58Z</time>
      </trkpt>
      <trkpt lat="48.6843" lon="1.94585">
        <ele>174</ele>
      </trkpt>
      <trkpt lat="48.68425" lon="1.94599">
        <ele>174</ele>
      </trkpt>
      <trkpt lat="48.68419" lon="1.94612">
        <ele>174</ele>
      </trkpt>
      <trkpt lat="48.68414" lon="1.94625">
        <ele>174</ele>
        <time>2013-06-27T11:18:31Z</time>
      </trkpt>
      <trkpt lat="48.68409" lon="1.94636">
        <ele>177</ele>
      </trkpt>
      <trkpt lat="48.68403" lon="1.94648">
        <ele>177</ele>
      </trkpt>
      <trkpt lat="48.68397" lon="1.9466">
        <ele>177</ele>
      </trkpt>
      <trkpt lat="48.68392" lon="1.94672">
        <ele>177</ele>
        <time>2013-06-27T11:19:06Z</time>
      </trkpt>
      <trkpt lat="48.68388" lon="1.94686">
        <ele>177</ele>
      </trkpt>
      <trkpt lat="48.68384" lon="1.947">
        <ele>177</ele>
      </trkpt>
      <trkpt lat="48.6838" lon="1.94714">
        <ele>177</ele>
      </trkpt>
      <trkpt lat="48.68376" lon="1.94728">
        <ele>177</ele>
        <time>2013-06-27T11:19:41Z</time>
      </trkpt>
      <trkpt lat="48.68369" lon="1.94739">
        <ele>175</ele>
      </trkpt>
      <trkpt lat="48.68363" lon="1.9475">
        <ele>175</ele>
      </trkpt>
      <trkpt lat="48.68356" lon="1.94762">
        <ele>175</ele>
      </trkpt>
      <trkpt lat="48.68349" lon="1.94773">
        <ele>175</ele>
        <time>2013-06-27T11:20:18Z</time>
      </trkpt>
      <trkpt lat="48.68343" lon="1.94785">
        <ele>175</ele>
      </trkpt>
      <trkpt lat="48.68337" lon="1.94797">
        <ele>174</ele>
      </trkpt>
      <trkpt lat="48.68331" lon="1.94808">
        <ele>174</ele>
      </trkpt>
      <trkpt lat="48.68326" lon="1.9482">
        <ele>174</ele>
        <time>2013-06-27T11:20:50Z</time>
      </trkpt>
      <trkpt lat="48.68321" lon="1.94832">
        <ele>174</ele>
      </trkpt>
      <trkpt lat="48.68316" lon="1.94844">
        <ele>174</ele>
      </trkpt>
      <trkpt lat="48.68311" lon="1.94855">
        <ele>174</ele>
      </trkpt>
      <trkpt lat="48.68306" lon="1.94867">
        <ele>174</ele>
        <time>2013-06-27T11:21:25Z</time>
      </trkpt>
      <trkpt lat="48.68296" lon="1.94876">
        <ele>176</ele>
      </trkpt>
      <trkpt lat="48.68286" lon="1.94884">
        <ele>171</ele>
      </trkpt>
      <trkpt lat="48.68276" lon="1.94893">
        <ele>171</ele>
        <time>2013-06-27T11:22:20Z</time>
      </trkpt>
      <trkpt lat="48.68268" lon="1.949">
        <ele>171</ele>
      </trkpt>
      <trkpt lat="48.68259" lon="1.94907">
        <ele>171</ele>
      </trkpt>
      <trkpt lat="48.6825" lon="1.94913">
        <ele>171</ele>
      </trkpt>
      <trkpt lat="48.68242" lon="1.9492">
        <ele>171</ele>
        <time>2013-06-27T11:22:58Z</time>
      </trkpt>
      <trkpt lat="48.68233" lon="1.94925">
        <ele>171</ele>
      </trkpt>
      <trkpt lat="48.68224" lon="1.9493">
        <ele>171</ele>
      </trkpt>
      <trkpt lat="48.68215" lon="1.94936">
        <ele>171</ele>
      </trkpt>
      <trkpt lat="48.68205" lon="1.94941">
        <ele>155</ele>
        <time>2013-06-27T11:23:30Z</time>
      </trkpt>
      <trkpt lat="48.68199" lon="1.94951">
        <ele>155</ele>
      </trkpt>
      <trkpt lat="48.68192" lon="1.94962">
        <ele>165</ele>
      </trkpt>
      <trkpt lat="48.68185" lon="1.94972">
        <ele>165</ele>
      </trkpt>
      <trkpt lat="48.68178" lon="1.94983">
        <ele>165</ele>
        <time>2013-06-27T11:23:58Z</time>
      </trkpt>
      <trkpt lat="48.68173" lon="1.94996">
        <ele>165</ele>
      </trkpt>
      <trkpt lat="48.68168" lon="1.95009">
        <ele>165</ele>
      </trkpt>
      <trkpt lat="48.68163" lon="1.95023">
        <ele>165</ele>
      </trkpt>
      <trkpt lat="48.68158" lon="1.95036">
        <ele>165</ele>
        <time>2013-06-27T11:24:34Z</time>
      </trkpt>
      <trkpt lat="48.68152" lon="1.95049">
        <ele>171</ele>
      </trkpt>
      <trkpt lat="48.68146" lon="1.95063">
        <ele>171</ele>
      </trkpt>
      <trkpt lat="48.6814" lon="1.95076">
        <ele>171</ele>
      </trkpt>
      <trkpt lat="48.68134" lon="1.9509">
        <ele>171</ele>
        <time>2013-06-27T11:25:10Z</time>
      </trkpt>
      <trkpt lat="48.68135" lon="1.95104">
        <ele>171</ele>
      </trkpt>
      <trkpt lat="48.68136" lon="1.95119">
        <ele>171</ele>
      </trkpt>
      <trkpt lat="48.68137" lon="1.95133">
        <ele>175</ele>
      </trkpt>
      <trkpt lat="48.68138" lon="1.95147">
        <ele>175</ele>
        <time>2013-06-27T11:25:45Z</time>
      </trkpt>
      <trkpt lat="48.68134" lon="1.9516">
        <ele>175</ele>
      </trkpt>
      <trkpt lat="48.6813" lon="1.95173">
        <ele>175</ele>
      </trkpt>
      <trkpt lat="48.68126" lon="1.95186">
        <ele>175</ele>
      </trkpt>
      <trkpt lat="48.68122" lon="1.95199">
        <ele>156</ele>
        <time>2013-06-27T11:26:15Z</time>
      </trkpt>
      <trkpt lat="48.68116" lon="1.95212">
        <ele>163</ele>
      </trkpt>
      <trkpt lat="48.6811" lon="1.95226">
        <ele>163</ele>
      </trkpt>
      <trkpt lat="48.68104" lon="1.9524">
        <ele>163</ele>
      </trkpt>
      <trkpt lat="48.68098" lon="1.95253">
        <ele>163</ele>
        <time>2013-06-27T11:26:48Z</time>
      </trkpt>
      <trkpt lat="48.68093" lon="1.95267">
        <ele>163</ele>
      </trkpt>
      <trkpt lat="48.68088" lon="1.9528">
        <ele>163</ele>
      </trkpt>
      <trkpt lat="48.68083" lon="1.95294">
        <ele>173</ele>
      </trkpt>
      <trkpt lat="48.68078" lon="1.95307">
        <ele>173</ele>
        <time>2013-06-27T11:27:22Z</time>
      </trkpt>
      <trkpt lat="48.68073" lon="1.95319">
        <ele>173</ele>
      </trkpt>
      <trkpt lat="48.68067" lon="1.9533">
        <ele>173</ele>
      </trkpt>
      <trkpt lat="48.68062" lon="1.95342">
        <ele>173</ele>
      </trkpt>
      <trkpt lat="48.68056" lon="1.95353">
        <ele>173</ele>
        <time>2013-06-27T11:27:55Z</time>
      </trkpt>
      <trkpt lat="48.68053" lon="1.95367">
        <ele>173</ele>
      </trkpt>
      <trkpt lat="48.6805" lon="1.95381">
        <ele>176</ele>
      </trkpt>
      <trkpt lat="48.68048" lon="1.95396">
        <ele>176</ele>
      </trkpt>
      <trkpt lat="48.68045" lon="1.9541">
        <ele>176</ele>
        <time>2013-06-27T11:28:26Z</time>
      </trkpt>
      <trkpt lat="48.68043" lon="1.95426">
        <ele>176</ele>
      </trkpt>
      <trkpt lat="48.68041" lon="1.95442">
        <ele>156</ele>
      </trkpt>
      <trkpt lat="48.68039" lon="1.95457">
        <ele>156</ele>
      </trkpt>
      <trkpt lat="48.68037" lon="1.95473">
        <ele>160</ele>
        <time>2013-06-27T11:29:02Z</time>
      </trkpt>
      <trkpt lat="48.68031" lon="1.95485">
        <ele>160</ele>
      </trkpt>
      <trkpt lat="48.68026" lon="1.95497">
        <ele>160</ele>
      </trkpt>
      <trkpt lat="48.6802" lon="1.95509">
        <ele>160</ele>
      </trkpt>
      <trkpt lat="48.68015" lon="1.95521">
        <ele>160</ele>
        <time>2013-06-27T11:29:31Z</time>
      </trkpt>
      <trkpt lat="48.68012" lon="1.95536">
        <ele>160</ele>
      </trkpt>
      <trkpt lat="48.68009" lon="1.9555">
        <ele>170</ele>
      </trkpt>
      <trkpt lat="48.68006" lon="1.95565">
        <ele>170</ele>
      </trkpt>
      <trkpt lat="48.68003" lon="1.95579">
        <ele>170</ele>
        <time>2013-06-27T11:30:03Z</time>
      </trkpt>
      <trkpt lat="48.67997" lon="1.95591">
        <ele>170</ele>
      </trkpt>
      <trkpt lat="48.67992" lon="1.95602">
        <ele>170</ele>
      </trkpt>
      <trkpt lat="48.67987" lon="1.95613">
        <ele>170</ele>
      </trkpt>
      <trkpt lat="48.67981" lon="1.95624">
        <ele>170</ele>
        <time>2013-06-27T11:30:34Z</time>
      </trkpt>
      <trkpt lat="48.67975" lon="1.95637">
        <ele>175</ele>
      </trkpt>
      <trkpt lat="48.6797" lon="1.9565">
        <ele>175</ele>
      </trkpt>
      <trkpt lat="48.67964" lon="1.95662">
        <ele>175</ele>
      </trkpt>
      <trkpt lat="48.67958" lon="1.95675">
        <ele>155</ele>
        <time>2013-06-27T11:31:11Z</time>
      </trkpt>
      <trkpt lat="48.67955" lon="1.95689">
        <ele>155</ele>
      </trkpt>
      <trkpt lat="48.67953" lon="1.95704">
        <ele>155</ele>
      </trkpt>
      <trkpt lat="48.6795" lon="1.95719">
        <ele>167</ele>
      </trkpt>
      <trkpt lat="48.67947" lon="1.95734">
        <ele>167</ele>
        <time>2013-06-27T11:31:41Z</time>
      </trkpt>
      <trkpt lat="48.67943" lon="1.95748">
        <ele>167</ele>
      </trkpt>
      <trkpt lat="48.67939" lon="1.95762">
        <ele>167</ele>
      </trkpt>
      <trkpt lat="48.67935" lon="1.95776">
        <ele>167</ele>
      </trkpt>
      <trkpt lat="48.67931" lon="1.9579">
        <ele>167</ele>
        <time>2013-06-27T11:32:11Z</time>
      </trkpt>
      <trkpt lat="48.67926" lon="1.95804">
        <ele>175</ele>
      </trkpt>
      <trkpt lat="48.67921" lon="1.95818">
        <ele>175</ele>
      </trkpt>
      <trkpt lat="48.67916" lon="1.95832">
        <ele>175</ele>
      </trkpt>
      <trkpt lat="48.67912" lon="1.95846">
        <ele>175</ele>
        <time>2013-06-27T11:32:47Z</time>
      </trkpt>
      <trkpt lat="48.67905" lon="1.95859">
        <ele>175</ele>
      </trkpt>
      <trkpt lat="48.67899" lon="1.95873">
        <ele>175</ele>
      </trkpt>
      <trkpt lat="48.67892" lon="1.95886">
        <ele>179</ele>
      </trkpt>
      <trkpt lat="48.67885" lon="1.95899">
        <ele>179</ele>
        <time>2013-06-27T11:33:21Z</time>
      </trkpt>
      <trkpt lat="48.6788" lon="1.95911">
        <ele>179</ele>
      </trkpt>
      <trkpt lat="48.67875" lon="1.95922">
        <ele>159</ele>
      </trkpt>
      <trkpt lat="48.67869" lon="1.95934">
        <ele>159</ele>
      </trkpt>
      <trkpt lat="48.67864" lon="1.95945">
        <ele>159</ele>
        <time>2013-06-27T11:33:54Z</time>
      </trkpt>
      <trkpt lat="48.67857" lon="1.95956">
        <ele>159</ele>
      </trkpt>
      <trkpt lat="48.67849" lon="1.95966">
        <ele>169</ele>
      </trkpt>
      <trkpt lat="48.67842" lon="1.95977">
        <ele>169</ele>
      </trkpt>
      <trkpt lat="48.67834" lon="1.95987">
        <ele>169</ele>
        <time>2013-06-27T11:34:25Z</time>
      </trkpt>
      <trkpt lat="48.67829" lon="1.95999">
        <ele>169</ele>
      </trkpt>
      <trkpt lat="48.67824" lon="1.96011">
        <ele>169</ele>
      </trkpt>
      <trkpt lat="48.67818" lon="1.96022">
        <ele>169</ele>
      </trkpt>
      <trkpt lat="48.67813" lon="1.96034">
        <ele>169</ele>
        <time>2013-06-27T11:34:58Z</time>
      </trkpt>
      <trkpt lat="48.67806" lon="1.96044">
        <ele>177</ele>
      </trkpt>
      <trkpt lat="48.67799" lon="1.96053">
        <ele>177</ele>
      </trkpt>
      <trkpt lat="48.67792" lon="1.96063">
        <ele>177</ele>
      </trkpt>
      <trkpt lat="48.67786" lon="1.96073">
        <ele>150</ele>
        <time>2013-06-27T11:35:29Z</time>
      </trkpt>
      <trkpt lat="48.67778" lon="1.96082">
        <ele>150</ele>
      </trkpt>
      <trkpt lat="48.67771" lon="1.96092">
        <ele>150</ele>
      </trkpt>
      <trkpt lat="48.67764" lon="1.96101">
        <ele>150</ele>
      </trkpt>
      <trkpt lat="48.67756" lon="1.9611">
        <ele>150</ele>
        <time>2013-06-27T11:36:03Z</time>
      </trkpt>
      <trkpt lat="48.67747" lon="1.96105">
        <ele>150</ele>
      </trkpt>
      <trkpt lat="48.67737" lon="1.961">
        <ele>150</ele>
        <time>2013-06-27T11:36:52Z</time>
      </trkpt>
      <trkpt lat="48.67737" lon="1.96085">
        <ele>150</ele>
      </trkpt>
      <trkpt lat="48.67738" lon="1.96071">
        <ele>150</ele>
      </trkpt>
      <trkpt lat="48.67739" lon="1.96056">
        <ele>150</ele>
      </trkpt>
      <trkpt lat="48.67739" lon="1.96042">
        <ele>150</ele>
        <time>2013-06-27T11:37:28Z</time>
      </trkpt>
      <trkpt lat="48.67736" lon="1.96028">
        <ele>141</ele>
      </trkpt>
      <trkpt lat="48.67732" lon="1.96013">
        <ele>141</ele>
      </trkpt>
      <trkpt lat="48.67729" lon="1.95999">
        <ele>141</ele>
        <time>2013-06-27T11:38:08Z</time>
      </trkpt>
      <trkpt lat="48.67722" lon="1.96008">
        <ele>141</ele>
      </trkpt>
      <trkpt lat="48.67716" lon="1.96018">
        <ele>141</ele>
      </trkpt>
      <trkpt lat="48.67709" lon="1.96027">
        <ele>141</ele>
      </trkpt>
      <trkpt lat="48.67703" lon="1.96037">
        <ele>122</ele>
        <time>2013-06-27T11:38:43Z</time>
      </trkpt>
      <trkpt lat="48.67701" lon="1.9605">
        <ele>124</ele>
      </trkpt>
      <trkpt lat="48.677" lon="1.96063">
        <ele>124</ele>
      </trkpt>
      <trkpt lat="48.67698" lon="1.96076">
        <ele>124</ele>
      </trkpt>
      <trkpt lat="48.67696" lon="1.9609">
        <ele>124</ele>
        <time>2013-06-27T11:39:16Z</time>
      </trkpt>
      <trkpt lat="48.67694" lon="1.96104">
        <ele>124</ele>
      </trkpt>
      <trkpt lat="48.67692" lon="1.96118">
        <ele>124</ele>
        <time>2013-06-27T11:39:28Z</time>
      </trkpt>
      <trkpt lat="48.67682" lon="1.96124">
        <ele>124</ele>
      </trkpt>
      <trkpt lat="48.67673" lon="1.9613">
        <ele>125</ele>
        <time>2013-06-27T11:41:30Z</time>
      </trkpt>
      <trkpt lat="48.67682" lon="1.96131">
        <ele>125</ele>
        <time>2013-06-27T11:42:27Z</time>
      </trkpt>
      <trkpt lat="48.67683" lon="1.96116">
        <ele>124</ele>
      </trkpt>
      <trkpt lat="48.67684" lon="1.96101">
        <ele>124</ele>
      </trkpt>
      <trkpt lat="48.67685" lon="1.96087">
        <ele>124</ele>
      </trkpt>
      <trkpt lat="48.67686" lon="1.96072">
        <ele>124</ele>
        <time>2013-06-27T11:42:53Z</time>
      </trkpt>
      <trkpt lat="48.67685" lon="1.96057">
        <ele>124</ele>
      </trkpt>
      <trkpt lat="48.67684" lon="1.96043">
        <ele>124</ele>
      </trkpt>
      <trkpt lat="48.67683" lon="1.96029">
        <ele>122</ele>
      </trkpt>
      <trkpt lat="48.67683" lon="1.96014">
        <ele>122</ele>
        <time>2013-06-27T11:43:32Z</time>
      </trkpt>
      <trkpt lat="48.67685" lon="1.96001">
        <ele>122</ele>
      </trkpt>
      <trkpt lat="48.67688" lon="1.95987">
        <ele>122</ele>
      </trkpt>
      <trkpt lat="48.6769" lon="1.95973">
        <ele>122</ele>
      </trkpt>
      <trkpt lat="48.67693" lon="1.95959">
        <ele>122</ele>
        <time>2013-06-27T11:43:59Z</time>
      </trkpt>
      <trkpt lat="48.67694" lon="1.95945">
        <ele>121</ele>
      </trkpt>
      <trkpt lat="48.67696" lon="1.9593">
        <ele>121</ele>
      </trkpt>
      <trkpt lat="48.67697" lon="1.95916">
        <ele>121</ele>
      </trkpt>
      <trkpt lat="48.67699" lon="1.95901">
        <ele>121</ele>
        <time>2013-06-27T11:44:33Z</time>
      </trkpt>
      <trkpt lat="48.67704" lon="1.95889">
        <ele>121</ele>
      </trkpt>
      <trkpt lat="48.6771" lon="1.95878">
        <ele>133</ele>
      </trkpt>
      <trkpt lat="48.67716" lon="1.95866">
        <ele>125</ele>
      </trkpt>
      <trkpt lat="48.67722" lon="1.95854">
        <ele>125</ele>
        <time>2013-06-27T11:45:08Z</time>
      </trkpt>
      <trkpt lat="48.67727" lon="1.95841">
        <ele>125</ele>
      </trkpt>
      <trkpt lat="48.67733" lon="1.95827">
        <ele>125</ele>
      </trkpt>
      <trkpt lat="48.67738" lon="1.95814">
        <ele>125</ele>
      </trkpt>
      <trkpt lat="48.67743" lon="1.958">
        <ele>125</ele>
        <time>2013-06-27T11:45:42Z</time>
      </trkpt>
      <trkpt lat="48.67745" lon="1.95784">
        <ele>122</ele>
      </trkpt>
      <trkpt lat="48.67746" lon="1.95768">
        <ele>122</ele>
      </trkpt>
      <trkpt lat="48.67747" lon="1.95752">
        <ele>122</ele>
        <time>2013-06-27T11:46:12Z</time>
      </trkpt>
      <trkpt lat="48.67756" lon="1.95741">
        <ele>122</ele>
      </trkpt>
      <trkpt lat="48.67764" lon="1.95731">
        <ele>122</ele>
      </trkpt>
      <trkpt lat="48.67772" lon="1.9572">
        <ele>122</ele>
      </trkpt>
      <trkpt lat="48.6778" lon="1.9571">
        <ele>122</ele>
        <time>2013-06-27T11:46:56Z</time>
      </trkpt>
      <trkpt lat="48.67787" lon="1.957">
        <ele>121</ele>
      </trkpt>
      <trkpt lat="48.67795" lon="1.9569">
        <ele>129</ele>
      </trkpt>
      <trkpt lat="48.67802" lon="1.95681">
        <ele>129</ele>
      </trkpt>
      <trkpt lat="48.67809" lon="1.95671">
        <ele>129</ele>
        <time>2013-06-27T11:47:38Z</time>
      </trkpt>
      <trkpt lat="48.67812" lon="1.95655">
        <ele>129</ele>
      </trkpt>
      <trkpt lat="48.67815" lon="1.95639">
        <ele>129</ele>
        <time>2013-06-27T11:48:02Z</time>
      </trkpt>
      <trkpt lat="48.67823" lon="1.95628">
        <ele>129</ele>
      </trkpt>
      <trkpt lat="48.6783" lon="1.95618">
        <ele>124</ele>
      </trkpt>
      <trkpt lat="48.67838" lon="1.95607">
        <ele>124</ele>
      </trkpt>
      <trkpt lat="48.67846" lon="1.95597">
        <ele>124</ele>
        <time>2013-06-27T11:48:43Z</time>
      </trkpt>
      <trkpt lat="48.67847" lon="1.95579">
        <ele>124</ele>
      </trkpt>
      <trkpt lat="48.67848" lon="1.95562">
        <ele>124</ele>
      </trkpt>
      <trkpt lat="48.67849" lon="1.95545">
        <ele>124</ele>
      </trkpt>
      <trkpt lat="48.6785" lon="1.95528">
        <ele>125</ele>
      </trkpt>
      <trkpt lat="48.67851" lon="1.95511">
        <ele>125</ele>
      </trkpt>
      <trkpt lat="48.67852" lon="1.95494">
        <ele>125</ele>
        <time>2013-06-27T11:49:51Z</time>
      </trkpt>
      <trkpt lat="48.67855" lon="1.95479">
        <ele>125</ele>
      </trkpt>
      <trkpt lat="48.67858" lon="1.95464">
        <ele>125</ele>
      </trkpt>
      <trkpt lat="48.6786" lon="1.9545">
        <ele>123</ele>
      </trkpt>
      <trkpt lat="48.67863" lon="1.95435">
        <ele>123</ele>
        <time>2013-06-27T11:50:34Z</time>
      </trkpt>
      <trkpt lat="48.67865" lon="1.9542">
        <ele>123</ele>
      </trkpt>
      <trkpt lat="48.67867" lon="1.95404">
        <ele>123</ele>
      </trkpt>
      <trkpt lat="48.67869" lon="1.95389">
        <ele>123</ele>
        <time>2013-06-27T11:51:05Z</time>
      </trkpt>
      <trkpt lat="48.67873" lon="1.95377">
        <ele>123</ele>
      </trkpt>
      <trkpt lat="48.67878" lon="1.95365">
        <ele>131</ele>
      </trkpt>
      <trkpt lat="48.67883" lon="1.95353">
        <ele>131</ele>
      </trkpt>
      <trkpt lat="48.67887" lon="1.95341">
        <ele>131</ele>
        <time>2013-06-27T11:51:36Z</time>
      </trkpt>
      <trkpt lat="48.67893" lon="1.9533">
        <ele>131</ele>
      </trkpt>
      <trkpt lat="48.67899" lon="1.9532">
        <ele>131</ele>
      </trkpt>
      <trkpt lat="48.67905" lon="1.9531">
        <ele>131</ele>
      </trkpt>
      <trkpt lat="48.6791" lon="1.953">
        <ele>131</ele>
        <time>2013-06-27T11:52:11Z</time>
      </trkpt>
      <trkpt lat="48.67916" lon="1.95287">
        <ele>126</ele>
      </trkpt>
      <trkpt lat="48.67921" lon="1.95275">
        <ele>126</ele>
      </trkpt>
      <trkpt lat="48.67926" lon="1.95262">
        <ele>126</ele>
      </trkpt>
      <trkpt lat="48.67931" lon="1.9525">
        <ele>126</ele>
        <time>2013-06-27T11:52:43Z</time>
      </trkpt>
      <trkpt lat="48.67932" lon="1.95234">
        <ele>126</ele>
      </trkpt>
      <trkpt lat="48.67934" lon="1.95219">
        <ele>126</ele>
        <time>2013-06-27T11:53:03Z</time>
      </trkpt>
      <trkpt lat="48.67935" lon="1.95204">
        <ele>124</ele>
      </trkpt>
      <trkpt lat="48.67937" lon="1.95188">
        <ele>124</ele>
      </trkpt>
      <trkpt lat="48.67938" lon="1.95172">
        <ele>124</ele>
      </trkpt>
      <trkpt lat="48.6794" lon="1.95156">
        <ele>124</ele>
        <time>2013-06-27T11:53:42Z</time>
      </trkpt>
      <trkpt lat="48.67943" lon="1.95143">
        <ele>124</ele>
      </trkpt>
      <trkpt lat="48.67946" lon="1.9513">
        <ele>124</ele>
      </trkpt>
      <trkpt lat="48.6795" lon="1.95117">
        <ele>123</ele>
      </trkpt>
      <trkpt lat="48.67953" lon="1.95104">
        <ele>123</ele>
        <time>2013-06-27T11:54:28Z</time>
      </trkpt>
      <trkpt lat="48.67958" lon="1.95091">
        <ele>123</ele>
      </trkpt>
      <trkpt lat="48.67963" lon="1.95077">
        <ele>132</ele>
      </trkpt>
      <trkpt lat="48.67968" lon="1.95063">
        <ele>132</ele>
      </trkpt>
      <trkpt lat="48.67972" lon="1.95049">
        <ele>132</ele>
        <time>2013-06-27T11:55:07Z</time>
      </trkpt>
      <trkpt lat="48.67979" lon="1.9504">
        <ele>128</ele>
      </trkpt>
      <trkpt lat="48.67986" lon="1.95031">
        <ele>128</ele>
      </trkpt>
      <trkpt lat="48.67993" lon="1.95022">
        <ele>128</ele>
        <time>2013-06-27T11:55:35Z</time>
      </trkpt>
      <trkpt lat="48.68001" lon="1.95014">
        <ele>128</ele>
      </trkpt>
      <trkpt lat="48.68009" lon="1.95006">
        <ele>128</ele>
      </trkpt>
      <trkpt lat="48.68017" lon="1.94998">
        <ele>128</ele>
      </trkpt>
      <trkpt lat="48.68025" lon="1.9499">
        <ele>128</ele>
        <time>2013-06-27T11:56:12Z</time>
      </trkpt>
      <trkpt lat="48.68033" lon="1.94981">
        <ele>128</ele>
      </trkpt>
      <trkpt lat="48.68042" lon="1.94971">
        <ele>142</ele>
      </trkpt>
      <trkpt lat="48.68051" lon="1.94962">
        <ele>142</ele>
      </trkpt>
      <trkpt lat="48.6806" lon="1.94952">
        <ele>134</ele>
      </trkpt>
      <trkpt lat="48.68069" lon="1.94943">
        <ele>134</ele>
      </trkpt>
      <trkpt lat="48.68078" lon="1.94934">
        <ele>134</ele>
        <time>2013-06-27T11:57:12Z</time>
      </trkpt>
      <trkpt lat="48.68081" lon="1.94919">
        <ele>134</ele>
      </trkpt>
      <trkpt lat="48.68085" lon="1.94904">
        <ele>134</ele>
      </trkpt>
      <trkpt lat="48.68089" lon="1.94889">
        <ele>134</ele>
        <time>2013-06-27T11:57:50Z</time>
      </trkpt>
      <trkpt lat="48.6809" lon="1.94874">
        <ele>133</ele>
      </trkpt>
      <trkpt lat="48.68092" lon="1.9486">
        <ele>133</ele>
      </trkpt>
      <trkpt lat="48.68093" lon="1.94846">
        <ele>133</ele>
        <time>2013-06-27T11:58:53Z</time>
      </trkpt>
      <trkpt lat="48.68093" lon="1.94829">
        <ele>133</ele>
      </trkpt>
      <trkpt lat="48.68092" lon="1.94813">
        <ele>133</ele>
        <time>2013-06-27T11:59:14Z</time>
      </trkpt>
      <trkpt lat="48.68098" lon="1.94801">
        <ele>133</ele>
      </trkpt>
      <trkpt lat="48.68104" lon="1.9479">
        <ele>130</ele>
      </trkpt>
      <trkpt lat="48.68109" lon="1.94778">
        <ele>130</ele>
      </trkpt>
      <trkpt lat="48.68115" lon="1.94766">
        <ele>130</ele>
        <time>2013-06-27T11:59:48Z</time>
      </trkpt>
      <trkpt lat="48.68119" lon="1.94754">
        <ele>130</ele>
      </trkpt>
      <trkpt lat="48.68123" lon="1.94741">
        <ele>130</ele>
      </trkpt>
      <trkpt lat="48.68126" lon="1.94729">
        <ele>146</ele>
      </trkpt>
      <trkpt lat="48.6813" lon="1.94716">
        <ele>146</ele>
        <time>2013-06-27T12:00:21Z</time>
      </trkpt>
      <trkpt lat="48.68131" lon="1.94701">
        <ele>141</ele>
      </trkpt>
      <trkpt lat="48.68133" lon="1.94687">
        <ele>141</ele>
      </trkpt>
      <trkpt lat="48.68134" lon="1.94672">
        <ele>141</ele>
      </trkpt>
      <trkpt lat="48.68136" lon="1.94657">
        <ele>141</ele>
        <time>2013-06-27T12:01:00Z</time>
      </trkpt>
      <trkpt lat="48.68135" lon="1.94642">
        <ele>141</ele>
      </trkpt>
      <trkpt lat="48.68135" lon="1.94628">
        <ele>141</ele>
      </trkpt>
      <trkpt lat="48.68135" lon="1.94613">
        <ele>135</ele>
        <time>2013-06-27T12:01:23Z</time>
      </trkpt>
      <trkpt lat="48.68133" lon="1.94599">
        <ele>135</ele>
      </trkpt>
      <trkpt lat="48.68132" lon="1.94584">
        <ele>135</ele>
        <time>2013-06-27T12:01:37Z</time>
      </trkpt>
      <trkpt lat="48.68134" lon="1.94569">
        <ele>135</ele>
      </trkpt>
      <trkpt lat="48.68136" lon="1.94554">
        <ele>135</ele>
      </trkpt>
      <trkpt lat="48.68137" lon="1.94539">
        <ele>130</ele>
      </trkpt>
      <trkpt lat="48.68139" lon="1.94524">
        <ele>130</ele>
        <time>2013-06-27T12:02:12Z</time>
      </trkpt>
      <trkpt lat="48.68144" lon="1.94513">
        <ele>130</ele>
      </trkpt>
      <trkpt lat="48.68149" lon="1.94501">
        <ele>130</ele>
      </trkpt>
      <trkpt lat="48.68154" lon="1.9449">
        <ele>130</ele>
      </trkpt>
      <trkpt lat="48.68159" lon="1.94478">
        <ele>130</ele>
        <time>2013-06-27T12:02:49Z</time>
      </trkpt>
      <trkpt lat="48.68168" lon="1.94472">
        <ele>130</ele>
      </trkpt>
      <trkpt lat="48.68177" lon="1.94466">
        <ele>130</ele>
      </trkpt>
      <trkpt lat="48.68186" lon="1.9446">
        <ele>130</ele>
        <time>2013-06-27T12:03:25Z</time>
      </trkpt>
      <trkpt lat="48.68196" lon="1.94458">
        <ele>128</ele>
      </trkpt>
      <trkpt lat="48.68206" lon="1.94455">
        <ele>128</ele>
      </trkpt>
      <trkpt lat="48.68217" lon="1.94453">
        <ele>134</ele>
        <time>2013-06-27T12:03:57Z</time>
      </trkpt>
      <trkpt lat="48.68223" lon="1.94443">
        <ele>134</ele>
      </trkpt>
      <trkpt lat="48.68229" lon="1.94433">
        <ele>134</ele>
      </trkpt>
      <trkpt lat="48.68235" lon="1.94423">
        <ele>134</ele>
      </trkpt>
      <trkpt lat="48.68241" lon="1.94413">
        <ele>134</ele>
        <time>2013-06-27T12:04:21Z</time>
      </trkpt>
      <trkpt lat="48.68246" lon="1.94398">
        <ele>134</ele>
      </trkpt>
      <trkpt lat="48.68251" lon="1.94383">
        <ele>134</ele>
      </trkpt>
      <trkpt lat="48.68256" lon="1.94368">
        <ele>129</ele>
        <time>2013-06-27T12:04:53Z</time>
      </trkpt>
      <trkpt lat="48.68257" lon="1.94353">
        <ele>129</ele>
      </trkpt>
      <trkpt lat="48.68259" lon="1.94339">
        <ele>129</ele>
      </trkpt>
      <trkpt lat="48.6826" lon="1.94325">
        <ele>129</ele>
        <time>2013-06-27T12:05:16Z</time>
      </trkpt>
      <trkpt lat="48.68263" lon="1.94308">
        <ele>129</ele>
      </trkpt>
      <trkpt lat="48.68266" lon="1.94292">
        <ele>126</ele>
      </trkpt>
      <trkpt lat="48.68269" lon="1.94275">
        <ele>126</ele>
        <time>2013-06-27T12:05:46Z</time>
      </trkpt>
      <trkpt lat="48.68272" lon="1.94259">
        <ele>126</ele>
      </trkpt>
      <trkpt lat="48.68275" lon="1.94242">
        <ele>126</ele>
      </trkpt>
      <trkpt lat="48.68278" lon="1.94226">
        <ele>126</ele>
      </trkpt>
      <trkpt lat="48.68281" lon="1.94209">
        <ele>126</ele>
      </trkpt>
      <trkpt lat="48.68285" lon="1.94192">
        <ele>124</ele>
        <time>2013-06-27T12:06:43Z</time>
      </trkpt>
      <trkpt lat="48.68275" lon="1.94192">
        <ele>124</ele>
      </trkpt>
      <trkpt lat="48.68265" lon="1.94192">
        <ele>124</ele>
      </trkpt>
      <trkpt lat="48.68255" lon="1.94191">
        <ele>124</ele>
      </trkpt>
      <trkpt lat="48.68245" lon="1.94191">
        <ele>124</ele>
        <time>2013-06-27T12:07:07Z</time>
      </trkpt>
      <trkpt lat="48.68236" lon="1.94192">
        <ele>124</ele>
      </trkpt>
      <trkpt lat="48.68227" lon="1.94194">
        <ele>124</ele>
      </trkpt>
      <trkpt lat="48.68217" lon="1.94195">
        <ele>124</ele>
      </trkpt>
      <trkpt lat="48.68208" lon="1.94197">
        <ele>132</ele>
        <time>2013-06-27T12:07:44Z</time>
      </trkpt>
      <trkpt lat="48.68198" lon="1.94197">
        <ele>132</ele>
      </trkpt>
      <trkpt lat="48.68189" lon="1.94197">
        <ele>132</ele>
      </trkpt>
      <trkpt lat="48.68179" lon="1.94196">
        <ele>132</ele>
      </trkpt>
      <trkpt lat="48.6817" lon="1.94196">
        <ele>132</ele>
        <time>2013-06-27T12:08:16Z</time>
      </trkpt>
      <trkpt lat="48.6816" lon="1.94203">
        <ele>132</ele>
      </trkpt>
      <trkpt lat="48.68151" lon="1.9421">
        <ele>126</ele>
        <time>2013-06-27T12:09:25Z</time>
      </trkpt>
      <trkpt lat="48.6814" lon="1.94202">
        <ele>132</ele>
      </trkpt>
      <trkpt lat="48.6813" lon="1.94195">
        <ele>132</ele>
      </trkpt>
      <trkpt lat="48.6812" lon="1.94188">
        <ele>139</ele>
        <time>2013-06-27T12:09:50Z</time>
      </trkpt>
      <trkpt lat="48.68113" lon="1.94179">
        <ele>139</ele>
      </trkpt>
      <trkpt lat="48.68105" lon="1.94171">
        <ele>139</ele>
      </trkpt>
      <trkpt lat="48.68098" lon="1.94162">
        <ele>139</ele>
        <time>2013-06-27T12:11:02Z</time>
      </trkpt>
      <trkpt lat="48.68089" lon="1.94159">
        <ele>139</ele>
      </trkpt>
      <trkpt lat="48.6808" lon="1.94157">
        <ele>139</ele>
      </trkpt>
      <trkpt lat="48.68072" lon="1.94155">
        <ele>139</ele>
      </trkpt>
      <trkpt lat="48.68063" lon="1.94152">
        <ele>139</ele>
        <time>2013-06-27T12:11:45Z</time>
      </trkpt>
      <trkpt lat="48.68055" lon="1.94145">
        <ele>139</ele>
      </trkpt>
      <trkpt lat="48.68047" lon="1.94138">
        <ele>139</ele>
      </trkpt>
      <trkpt lat="48.68039" lon="1.9413">
        <ele>141</ele>
      </trkpt>
      <trkpt lat="48.68031" lon="1.94123">
        <ele>146</ele>
        <time>2013-06-27T12:12:05Z</time>
      </trkpt>
      <trkpt lat="48.68023" lon="1.94116">
        <ele>146</ele>
      </trkpt>
      <trkpt lat="48.68015" lon="1.94108">
        <ele>146</ele>
      </trkpt>
      <trkpt lat="48.68007" lon="1.941">
        <ele>146</ele>
      </trkpt>
      <trkpt lat="48.67999" lon="1.94093">
        <ele>146</ele>
        <time>2013-06-27T12:12:36Z</time>
      </trkpt>
      <trkpt lat="48.6799" lon="1.94084">
        <ele>146</ele>
      </trkpt>
      <trkpt lat="48.6798" lon="1.94076">
        <ele>146</ele>
      </trkpt>
      <trkpt lat="48.67971" lon="1.94068">
        <ele>146</ele>
      </trkpt>
      <trkpt lat="48.67962" lon="1.9406">
        <ele>146</ele>
        <time>2013-06-27T12:13:18Z</time>
      </trkpt>
      <trkpt lat="48.67953" lon="1.94051">
        <ele>142</ele>
      </trkpt>
      <trkpt lat="48.67944" lon="1.94042">
        <ele>142</ele>
      </trkpt>
      <trkpt lat="48.67935" lon="1.94033">
        <ele>146</ele>
      </trkpt>
      <trkpt lat="48.67926" lon="1.94024">
        <ele>146</ele>
        <time>2013-06-27T12:13:42Z</time>
      </trkpt>
      <trkpt lat="48.67916" lon="1.9402">
        <ele>146</ele>
      </trkpt>
      <trkpt lat="48.67906" lon="1.94016">
        <ele>146</ele>
      </trkpt>
      <trkpt lat="48.67896" lon="1.94011">
        <ele>146</ele>
      </trkpt>
      <trkpt lat="48.67887" lon="1.94007">
        <ele>146</ele>
        <time>2013-06-27T12:14:19Z</time>
      </trkpt>
      <trkpt lat="48.67878" lon="1.94">
        <ele>146</ele>
      </trkpt>
      <trkpt lat="48.67869" lon="1.93993">
        <ele>156</ele>
      </trkpt>
      <trkpt lat="48.67861" lon="1.93986">
        <ele>156</ele>
      </trkpt>
      <trkpt lat="48.67852" lon="1.93979">
        <ele>156</ele>
        <time>2013-06-27T12:15:02Z</time>
      </trkpt>
      <trkpt lat="48.67844" lon="1.93971">
        <ele>156</ele>
      </trkpt>
      <trkpt lat="48.67837" lon="1.93964">
        <ele>156</ele>
      </trkpt>
      <trkpt lat="48.67829" lon="1.93957">
        <ele>171</ele>
      </trkpt>
      <trkpt lat="48.67821" lon="1.9395">
        <ele>171</ele>
        <time>2013-06-27T12:15:55Z</time>
      </trkpt>
      <trkpt lat="48.67813" lon="1.93945">
        <ele>171</ele>
      </trkpt>
      <trkpt lat="48.67804" lon="1.93939">
        <ele>171</ele>
      </trkpt>
      <trkpt lat="48.67796" lon="1.93934">
        <ele>171</ele>
      </trkpt>
      <trkpt lat="48.67787" lon="1.93928">
        <ele>182</ele>
        <time>2013-06-27T12:16:52Z</time>
      </trkpt>
      <trkpt lat="48.6778" lon="1.93921">
        <ele>182</ele>
      </trkpt>
      <trkpt lat="48.67773" lon="1.93915">
        <ele>182</ele>
      </trkpt>
      <trkpt lat="48.67765" lon="1.93908">
        <ele>182</ele>
        <time>2013-06-27T12:18:35Z</time>
      </trkpt>
      <trkpt lat="48.67761" lon="1.93905">
        <ele>182</ele>
        <time>2013-06-27T12:20:28Z</time>
      </trkpt>
      <trkpt lat="48.67761" lon="1.93891">
        <ele>182</ele>
      </trkpt>
      <trkpt lat="48.67762" lon="1.93878">
        <ele>182</ele>
      </trkpt>
      <trkpt lat="48.67763" lon="1.93864">
        <ele>181</ele>
      </trkpt>
      <trkpt lat="48.67764" lon="1.9385">
        <ele>181</ele>
        <time>2013-06-27T12:20:55Z</time>
      </trkpt>
      <trkpt lat="48.67773" lon="1.9384">
        <ele>181</ele>
      </trkpt>
      <trkpt lat="48.67782" lon="1.9383">
        <ele>181</ele>
      </trkpt>
      <trkpt lat="48.67791" lon="1.9382">
        <ele>181</ele>
        <time>2013-06-27T12:21:28Z</time>
      </trkpt>
      <trkpt lat="48.67799" lon="1.93809">
        <ele>179</ele>
      </trkpt>
      <trkpt lat="48.67807" lon="1.93798">
        <ele>179</ele>
      </trkpt>
      <trkpt lat="48.67814" lon="1.93786">
        <ele>180</ele>
        <time>2013-06-27T12:21:58Z</time>
      </trkpt>
      <trkpt lat="48.67817" lon="1.93772">
        <ele>180</ele>
      </trkpt>
      <trkpt lat="48.67819" lon="1.93757">
        <ele>180</ele>
      </trkpt>
      <trkpt lat="48.67822" lon="1.93742">
        <ele>180</ele>
      </trkpt>
      <trkpt lat="48.67824" lon="1.93727">
        <ele>180</ele>
        <time>2013-06-27T12:22:31Z</time>
      </trkpt>
      <trkpt lat="48.67831" lon="1.93715">
        <ele>180</ele>
      </trkpt>
      <trkpt lat="48.67837" lon="1.93703">
        <ele>179</ele>
      </trkpt>
      <trkpt lat="48.67844" lon="1.9369">
        <ele>179</ele>
        <time>2013-06-27T12:23:01Z</time>
      </trkpt>
      <trkpt lat="48.67849" lon="1.93678">
        <ele>179</ele>
      </trkpt>
      <trkpt lat="48.67855" lon="1.93666">
        <ele>179</ele>
      </trkpt>
      <trkpt lat="48.6786" lon="1.93655">
        <ele>179</ele>
      </trkpt>
      <trkpt lat="48.67865" lon="1.93643">
        <ele>179</ele>
        <time>2013-06-27T12:23:38Z</time>
      </trkpt>
      <trkpt lat="48.67868" lon="1.93628">
        <ele>179</ele>
      </trkpt>
      <trkpt lat="48.67872" lon="1.93614">
        <ele>180</ele>
        <time>2013-06-27T12:23:52Z</time>
      </trkpt>
      <trkpt lat="48.67871" lon="1.936">
        <ele>180</ele>
      </trkpt>
      <trkpt lat="48.67871" lon="1.93587">
        <ele>180</ele>
      </trkpt>
      <trkpt lat="48.6787" lon="1.93574">
        <ele>180</ele>
      </trkpt>
      <trkpt lat="48.6787" lon="1.9356">
        <ele>180</ele>
        <time>2013-06-27T12:24:22Z</time>
      </trkpt>
      <trkpt lat="48.67871" lon="1.93544">
        <ele>180</ele>
      </trkpt>
      <trkpt lat="48.67871" lon="1.93529">
        <ele>180</ele>
      </trkpt>
      <trkpt lat="48.67872" lon="1.93513">
        <ele>180</ele>
      </trkpt>
      <trkpt lat="48.67873" lon="1.93497">
        <ele>180</ele>
        <time>2013-06-27T12:24:55Z</time>
      </trkpt>
      <trkpt lat="48.67875" lon="1.93484">
        <ele>180</ele>
      </trkpt>
      <trkpt lat="48.67877" lon="1.93471">
        <ele>183</ele>
        <time>2013-06-27T12:25:13Z</time>
      </trkpt>
      <trkpt lat="48.67878" lon="1.93457">
        <ele>180</ele>
      </trkpt>
      <trkpt lat="48.6788" lon="1.93442">
        <ele>180</ele>
      </trkpt>
      <trkpt lat="48.67882" lon="1.93427">
        <ele>180</ele>
      </trkpt>
      <trkpt lat="48.67884" lon="1.93413">
        <ele>180</ele>
        <time>2013-06-27T12:25:42Z</time>
      </trkpt>
      <trkpt lat="48.67886" lon="1.93398">
        <ele>180</ele>
      </trkpt>
      <trkpt lat="48.67889" lon="1.93383">
        <ele>180</ele>
      </trkpt>
      <trkpt lat="48.67891" lon="1.93368">
        <ele>178</ele>
        <time>2013-06-27T12:26:05Z</time>
      </trkpt>
      <trkpt lat="48.67893" lon="1.93354">
        <ele>178</ele>
      </trkpt>
      <trkpt lat="48.67896" lon="1.9334">
        <ele>178</ele>
      </trkpt>
      <trkpt lat="48.67898" lon="1.93327">
        <ele>178</ele>
      </trkpt>
      <trkpt lat="48.679" lon="1.93313">
        <ele>178</ele>
        <time>2013-06-27T12:26:35Z</time>
      </trkpt>
      <trkpt lat="48.67902" lon="1.93299">
        <ele>178</ele>
      </trkpt>
      <trkpt lat="48.67905" lon="1.93284">
        <ele>177</ele>
      </trkpt>
      <trkpt lat="48.67907" lon="1.9327">
        <ele>177</ele>
      </trkpt>
      <trkpt lat="48.67909" lon="1.93256">
        <ele>177</ele>
        <time>2013-06-27T12:27:07Z</time>
      </trkpt>
      <trkpt lat="48.67912" lon="1.93243">
        <ele>177</ele>
      </trkpt>
      <trkpt lat="48.67915" lon="1.9323">
        <ele>177</ele>
      </trkpt>
      <trkpt lat="48.67918" lon="1.93218">
        <ele>177</ele>
        <time>2013-06-27T12:27:31Z</time>
      </trkpt>
      <trkpt lat="48.6792" lon="1.93203">
        <ele>177</ele>
      </trkpt>
      <trkpt lat="48.67922" lon="1.93188">
        <ele>177</ele>
        <time>2013-06-27T12:27:45Z</time>
      </trkpt>
      <trkpt lat="48.67926" lon="1.93173">
        <ele>177</ele>
      </trkpt>
      <trkpt lat="48.6793" lon="1.93157">
        <ele>177</ele>
      </trkpt>
      <trkpt lat="48.67935" lon="1.93142">
        <ele>177</ele>
      </trkpt>
      <trkpt lat="48.67939" lon="1.93126">
        <ele>177</ele>
        <time>2013-06-27T12:28:29Z</time>
      </trkpt>
      <trkpt lat="48.67948" lon="1.93121">
        <ele>175</ele>
      </trkpt>
      <trkpt lat="48.67958" lon="1.93115">
        <ele>175</ele>
      </trkpt>
      <trkpt lat="48.67967" lon="1.9311">
        <ele>176</ele>
        <time>2013-06-27T12:29:59Z</time>
      </trkpt>
      <trkpt lat="48.67975" lon="1.931">
        <ele>176</ele>
      </trkpt>
      <trkpt lat="48.67982" lon="1.93091">
        <ele>176</ele>
      </trkpt>
      <trkpt lat="48.6799" lon="1.93081">
        <ele>176</ele>
        <time>2013-06-27T12:30:24Z</time>
      </trkpt>
      <trkpt lat="48.67996" lon="1.93071">
        <ele>176</ele>
      </trkpt>
      <trkpt lat="48.68001" lon="1.93061">
        <ele>176</ele>
      </trkpt>
      <trkpt lat="48.68007" lon="1.93052">
        <ele>176</ele>
        <time>2013-06-27T12:31:19Z</time>
      </trkpt>
      <trkpt lat="48.68018" lon="1.93054">
        <ele>176</ele>
      </trkpt>
      <trkpt lat="48.68029" lon="1.93057">
        <ele>176</ele>
      </trkpt>
      <trkpt lat="48.68039" lon="1.9306">
        <ele>176</ele>
      </trkpt>
      <trkpt lat="48.6805" lon="1.93062">
        <ele>178</ele>
        <time>2013-06-27T12:32:04Z</time>
      </trkpt>
      <trkpt lat="48.6806" lon="1.9306">
        <ele>178</ele>
      </trkpt>
      <trkpt lat="48.6807" lon="1.93057">
        <ele>178</ele>
      </trkpt>
      <trkpt lat="48.6808" lon="1.93055">
        <ele>178</ele>
      </trkpt>
      <trkpt lat="48.68089" lon="1.93052">
        <ele>178</ele>
        <time>2013-06-27T12:32:47Z</time>
      </trkpt>
      <trkpt lat="48.68099" lon="1.93045">
        <ele>178</ele>
      </trkpt>
      <trkpt lat="48.68108" lon="1.93039">
        <ele>175</ele>
      </trkpt>
      <trkpt lat="48.68117" lon="1.93032">
        <ele>175</ele>
      </trkpt>
      <trkpt lat="48.68126" lon="1.93025">
        <ele>176</ele>
        <time>2013-06-27T12:33:21Z</time>
      </trkpt>
      <trkpt lat="48.68131" lon="1.9301">
        <ele>176</ele>
      </trkpt>
      <trkpt lat="48.68135" lon="1.92996">
        <ele>176</ele>
      </trkpt>
      <trkpt lat="48.6814" lon="1.92982">
        <ele>176</ele>
      </trkpt>
      <trkpt lat="48.68145" lon="1.92967">
        <ele>176</ele>
      </trkpt>
      <trkpt lat="48.6815" lon="1.92953">
        <ele>178</ele>
      </trkpt>
      <trkpt lat="48.68154" lon="1.92938">
        <ele>178</ele>
        <time>2013-06-27T12:34:10Z</time>
      </trkpt>
      <trkpt lat="48.68155" lon="1.92922">
        <ele>178</ele>
      </trkpt>
      <trkpt lat="48.68155" lon="1.92906">
        <ele>178</ele>
      </trkpt>
      <trkpt lat="48.68155" lon="1.92889">
        <ele>178</ele>
        <time>2013-06-27T12:34:41Z</time>
      </trkpt>
      <trkpt lat="48.68153" lon="1.92873">
        <ele>180</ele>
      </trkpt>
      <trkpt lat="48.68151" lon="1.92857">
        <ele>180</ele>
      </trkpt>
      <trkpt lat="48.68149" lon="1.92841">
        <ele>180</ele>
      </trkpt>
      <trkpt lat="48.68147" lon="1.92824">
        <ele>180</ele>
        <time>2013-06-27T12:35:22Z</time>
      </trkpt>
      <trkpt lat="48.68143" lon="1.92811">
        <ele>180</ele>
      </trkpt>
      <trkpt lat="48.6814" lon="1.92797">
        <ele>180</ele>
      </trkpt>
      <trkpt lat="48.68136" lon="1.92784">
        <ele>181</ele>
      </trkpt>
      <trkpt lat="48.68133" lon="1.9277">
        <ele>181</ele>
        <time>2013-06-27T12:35:55Z</time>
      </trkpt>
      <trkpt lat="48.6813" lon="1.92757">
        <ele>181</ele>
      </trkpt>
      <trkpt lat="48.68126" lon="1.92743">
        <ele>181</ele>
      </trkpt>
      <trkpt lat="48.68123" lon="1.92729">
        <ele>176</ele>
      </trkpt>
      <trkpt lat="48.68119" lon="1.92716">
        <ele>176</ele>
        <time>2013-06-27T12:36:34Z</time>
      </trkpt>
      <trkpt lat="48.6812" lon="1.92699">
        <ele>178</ele>
      </trkpt>
      <trkpt lat="48.6812" lon="1.92682">
        <ele>178</ele>
      </trkpt>
      <trkpt lat="48.6812" lon="1.92665">
        <ele>178</ele>
      </trkpt>
      <trkpt lat="48.68121" lon="1.92648">
        <ele>178</ele>
      </trkpt>
      <trkpt lat="48.68121" lon="1.92631">
        <ele>178</ele>
      </trkpt>
      <trkpt lat="48.68122" lon="1.92614">
        <ele>178</ele>
        <time>2013-06-27T12:37:38Z</time>
      </trkpt>
      <trkpt lat="48.68123" lon="1.926">
        <ele>178</ele>
      </trkpt>
      <trkpt lat="48.68124" lon="1.92586">
        <ele>178</ele>
      </trkpt>
      <trkpt lat="48.68126" lon="1.92572">
        <ele>179</ele>
      </trkpt>
      <trkpt lat="48.68127" lon="1.92558">
        <ele>179</ele>
        <time>2013-06-27T12:38:11Z</time>
      </trkpt>
      <trkpt lat="48.68125" lon="1.92543">
        <ele>179</ele>
      </trkpt>
      <trkpt lat="48.68124" lon="1.92528">
        <ele>177</ele>
      </trkpt>
      <trkpt lat="48.68122" lon="1.92514">
        <ele>177</ele>
      </trkpt>
      <trkpt lat="48.68121" lon="1.92499">
        <ele>177</ele>
      </trkpt>
      <trkpt lat="48.68119" lon="1.92484">
        <ele>177</ele>
      </trkpt>
      <trkpt lat="48.68117" lon="1.92469">
        <ele>177</ele>
        <time>2013-06-27T12:39:05Z</time>
      </trkpt>
      <trkpt lat="48.68117" lon="1.92455">
        <ele>176</ele>
      </trkpt>
      <trkpt lat="48.68116" lon="1.92442">
        <ele>176</ele>
      </trkpt>
      <trkpt lat="48.68116" lon="1.92429">
        <ele>176</ele>
      </trkpt>
      <trkpt lat="48.68115" lon="1.92416">
        <ele>176</ele>
        <time>2013-06-27T12:39:36Z</time>
      </trkpt>
      <trkpt lat="48.68117" lon="1.92402">
        <ele>176</ele>
      </trkpt>
      <trkpt lat="48.6812" lon="1.92389">
        <ele>176</ele>
        <time>2013-06-27T12:39:49Z</time>
      </trkpt>
      <trkpt lat="48.68129" lon="1.92378">
        <ele>176</ele>
      </trkpt>
      <trkpt lat="48.68138" lon="1.92367">
        <ele>176</ele>
      </trkpt>
      <trkpt lat="48.68147" lon="1.92356">
        <ele>176</ele>
        <time>2013-06-27T12:40:21Z</time>
      </trkpt>
      <trkpt lat="48.68153" lon="1.92346">
        <ele>176</ele>
      </trkpt>
      <trkpt lat="48.68159" lon="1.92336">
        <ele>176</ele>
      </trkpt>
      <trkpt lat="48.68165" lon="1.92325">
        <ele>176</ele>
      </trkpt>
      <trkpt lat="48.68171" lon="1.92315">
        <ele>176</ele>
        <time>2013-06-27T12:40:50Z</time>
      </trkpt>
      <trkpt lat="48.68174" lon="1.92302">
        <ele>176</ele>
      </trkpt>
      <trkpt lat="48.68178" lon="1.92288">
        <ele>176</ele>
      </trkpt>
      <trkpt lat="48.68181" lon="1.92275">
        <ele>176</ele>
      </trkpt>
      <trkpt lat="48.68185" lon="1.92262">
        <ele>176</ele>
        <time>2013-06-27T12:41:19Z</time>
      </trkpt>
      <trkpt lat="48.68191" lon="1.92248">
        <ele>176</ele>
      </trkpt>
      <trkpt lat="48.68197" lon="1.92234">
        <ele>176</ele>
      </trkpt>
      <trkpt lat="48.68204" lon="1.9222">
        <ele>176</ele>
        <time>2013-06-27T12:41:47Z</time>
      </trkpt>
      <trkpt lat="48.68208" lon="1.92207">
        <ele>176</ele>
      </trkpt>
      <trkpt lat="48.68213" lon="1.92195">
        <ele>173</ele>
      </trkpt>
      <trkpt lat="48.68217" lon="1.92182">
        <ele>173</ele>
        <time>2013-06-27T12:42:12Z</time>
      </trkpt>
      <trkpt lat="48.68218" lon="1.92168">
        <ele>173</ele>
      </trkpt>
      <trkpt lat="48.68219" lon="1.92155">
        <ele>173</ele>
      </trkpt>
      <trkpt lat="48.6822" lon="1.92141">
        <ele>173</ele>
      </trkpt>
      <trkpt lat="48.6822" lon="1.92127">
        <ele>173</ele>
        <time>2013-06-27T12:42:40Z</time>
      </trkpt>
      <trkpt lat="48.68221" lon="1.92114">
        <ele>174</ele>
      </trkpt>
      <trkpt lat="48.68222" lon="1.921">
        <ele>174</ele>
      </trkpt>
      <trkpt lat="48.68224" lon="1.92086">
        <ele>174</ele>
      </trkpt>
      <trkpt lat="48.68225" lon="1.92072">
        <ele>174</ele>
        <time>2013-06-27T12:43:11Z</time>
      </trkpt>
      <trkpt lat="48.68228" lon="1.92059">
        <ele>174</ele>
      </trkpt>
      <trkpt lat="48.68231" lon="1.92046">
        <ele>174</ele>
      </trkpt>
      <trkpt lat="48.68234" lon="1.92033">
        <ele>177</ele>
      </trkpt>
      <trkpt lat="48.68237" lon="1.92019">
        <ele>177</ele>
        <time>2013-06-27T12:43:41Z</time>
      </trkpt>
      <trkpt lat="48.68237" lon="1.92003">
        <ele>177</ele>
      </trkpt>
      <trkpt lat="48.68238" lon="1.91986">
        <ele>177</ele>
      </trkpt>
      <trkpt lat="48.68238" lon="1.91969">
        <ele>177</ele>
        <time>2013-06-27T12:44:03Z</time>
      </trkpt>
      <trkpt lat="48.68239" lon="1.91955">
        <ele>178</ele>
      </trkpt>
      <trkpt lat="48.68239" lon="1.91941">
        <ele>178</ele>
      </trkpt>
      <trkpt lat="48.6824" lon="1.91927">
        <ele>178</ele>
        <time>2013-06-27T12:44:30Z</time>
      </trkpt>
      <trkpt lat="48.68237" lon="1.91912">
        <ele>178</ele>
      </trkpt>
      <trkpt lat="48.68234" lon="1.91897">
        <ele>178</ele>
      </trkpt>
      <trkpt lat="48.68231" lon="1.91882">
        <ele>178</ele>
      </trkpt>
      <trkpt lat="48.68228" lon="1.91868">
        <ele>176</ele>
        <time>2013-06-27T12:45:02Z</time>
      </trkpt>
      <trkpt lat="48.68227" lon="1.91851">
        <ele>176</ele>
      </trkpt>
      <trkpt lat="48.68225" lon="1.91835">
        <ele>176</ele>
      </trkpt>
      <trkpt lat="48.68224" lon="1.91819">
        <ele>176</ele>
        <time>2013-06-27T12:45:33Z</time>
      </trkpt>
      <trkpt lat="48.68219" lon="1.91805">
        <ele>176</ele>
      </trkpt>
      <trkpt lat="48.68215" lon="1.91792">
        <ele>176</ele>
      </trkpt>
      <trkpt lat="48.68211" lon="1.91778">
        <ele>177</ele>
      </trkpt>
      <trkpt lat="48.68206" lon="1.91764">
        <ele>173</ele>
        <time>2013-06-27T12:46:08Z</time>
      </trkpt>
      <trkpt lat="48.68213" lon="1.91753">
        <ele>177</ele>
      </trkpt>
      <trkpt lat="48.68221" lon="1.91741">
        <ele>177</ele>
      </trkpt>
      <trkpt lat="48.68228" lon="1.91729">
        <ele>177</ele>
        <time>2013-06-27T12:46:38Z</time>
      </trkpt>
      <trkpt lat="48.68234" lon="1.91719">
        <ele>177</ele>
      </trkpt>
      <trkpt lat="48.6824" lon="1.91708">
        <ele>175</ele>
      </trkpt>
      <trkpt lat="48.68245" lon="1.91698">
        <ele>175</ele>
        <time>2013-06-27T12:47:02Z</time>
      </trkpt>
      <trkpt lat="48.6825" lon="1.91682">
        <ele>175</ele>
      </trkpt>
      <trkpt lat="48.68255" lon="1.91667">
        <ele>175</ele>
      </trkpt>
      <trkpt lat="48.6826" lon="1.91651">
        <ele>175</ele>
        <time>2013-06-27T12:47:36Z</time>
      </trkpt>
      <trkpt lat="48.68261" lon="1.91635">
        <ele>175</ele>
      </trkpt>
      <trkpt lat="48.68263" lon="1.91619">
        <ele>176</ele>
      </trkpt>
      <trkpt lat="48.68264" lon="1.91603">
        <ele>176</ele>
        <time>2013-06-27T12:48:04Z</time>
      </trkpt>
      <trkpt lat="48.68266" lon="1.91586">
        <ele>176</ele>
      </trkpt>
      <trkpt lat="48.68267" lon="1.91568">
        <ele>176</ele>
        <time>2013-06-27T12:48:24Z</time>
      </trkpt>
      <trkpt lat="48.68267" lon="1.91553">
        <ele>176</ele>
      </trkpt>
      <trkpt lat="48.68266" lon="1.91538">
        <ele>178</ele>
      </trkpt>
      <trkpt lat="48.68266" lon="1.91523">
        <ele>178</ele>
      </trkpt>
      <trkpt lat="48.68266" lon="1.91507">
        <ele>178</ele>
        <time>2013-06-27T12:49:03Z</time>
      </trkpt>
      <trkpt lat="48.68263" lon="1.91492">
        <ele>178</ele>
      </trkpt>
      <trkpt lat="48.6826" lon="1.91477">
        <ele>178</ele>
      </trkpt>
      <trkpt lat="48.68257" lon="1.91461">
        <ele>178</ele>
      </trkpt>
      <trkpt lat="48.68254" lon="1.91446">
        <ele>178</ele>
      </trkpt>
      <trkpt lat="48.68251" lon="1.9143">
        <ele>178</ele>
      </trkpt>
      <trkpt lat="48.68248" lon="1.91415">
        <ele>178</ele>
        <time>2013-06-27T12:49:57Z</time>
      </trkpt>
      <trkpt lat="48.68244" lon="1.91401">
        <ele>178</ele>
      </trkpt>
      <trkpt lat="48.68239" lon="1.91387">
        <ele>178</ele>
      </trkpt>
      <trkpt lat="48.68235" lon="1.91373">
        <ele>177</ele>
        <time>2013-06-27T12:50:25Z</time>
      </trkpt>
      <trkpt lat="48.68229" lon="1.91362">
        <ele>177</ele>
      </trkpt>
      <trkpt lat="48.68223" lon="1.91351">
        <ele>177</ele>
      </trkpt>
      <trkpt lat="48.68217" lon="1.9134">
        <ele>177</ele>
      </trkpt>
      <trkpt lat="48.68211" lon="1.91329">
        <ele>177</ele>
        <time>2013-06-27T12:50:57Z</time>
      </trkpt>
      <trkpt lat="48.68206" lon="1.91314">
        <ele>176</ele>
      </trkpt>
      <trkpt lat="48.682" lon="1.91299">
        <ele>176</ele>
        <time>2013-06-27T12:51:16Z</time>
      </trkpt>
      <trkpt lat="48.68195" lon="1.91286">
        <ele>177</ele>
      </trkpt>
      <trkpt lat="48.6819" lon="1.91272">
        <ele>177</ele>
      </trkpt>
      <trkpt lat="48.68184" lon="1.91259">
        <ele>177</ele>
      </trkpt>
      <trkpt lat="48.68179" lon="1.91246">
        <ele>177</ele>
      </trkpt>
      <trkpt lat="48.68174" lon="1.91232">
        <ele>177</ele>
      </trkpt>
      <trkpt lat="48.68169" lon="1.91219">
        <ele>177</ele>
        <time>2013-06-27T12:54:10Z</time>
      </trkpt>
      <trkpt lat="48.68172" lon="1.91232">
        <ele>177</ele>
      </trkpt>
      <trkpt lat="48.68176" lon="1.91244">
        <ele>177</ele>
      </trkpt>
      <trkpt lat="48.6818" lon="1.91257">
        <ele>177</ele>
      </trkpt>
      <trkpt lat="48.68183" lon="1.91269">
        <ele>177</ele>
        <time>2013-06-27T12:55:27Z</time>
      </trkpt>
      <trkpt lat="48.68177" lon="1.91256">
        <ele>177</ele>
      </trkpt>
      <trkpt lat="48.6817" lon="1.91243">
        <ele>177</ele>
      </trkpt>
      <trkpt lat="48.68163" lon="1.9123">
        <ele>177</ele>
        <time>2013-06-27T12:55:51Z</time>
      </trkpt>
      <trkpt lat="48.68172" lon="1.91226">
        <ele>177</ele>
      </trkpt>
      <trkpt lat="48.68181" lon="1.91222">
        <ele>177</ele>
      </trkpt>
      <trkpt lat="48.6819" lon="1.91217">
        <ele>177</ele>
      </trkpt>
      <trkpt lat="48.68199" lon="1.91213">
        <ele>177</ele>
      </trkpt>
      <trkpt lat="48.68208" lon="1.91209">
        <ele>176</ele>
        <time>2013-06-27T12:56:43Z</time>
      </trkpt>
      <trkpt lat="48.68215" lon="1.91196">
        <ele>172</ele>
      </trkpt>
      <trkpt lat="48.68221" lon="1.91183">
        <ele>172</ele>
      </trkpt>
      <trkpt lat="48.68227" lon="1.91171">
        <ele>172</ele>
        <time>2013-06-27T12:57:19Z</time>
      </trkpt>
      <trkpt lat="48.68237" lon="1.91164">
        <ele>172</ele>
      </trkpt>
      <trkpt lat="48.68247" lon="1.91158">
        <ele>172</ele>
      </trkpt>
      <trkpt lat="48.68257" lon="1.91152">
        <ele>172</ele>
      </trkpt>
      <trkpt lat="48.68267" lon="1.91145">
        <ele>172</ele>
        <time>2013-06-27T12:57:44Z</time>
      </trkpt>
      <trkpt lat="48.68276" lon="1.91142">
        <ele>172</ele>
      </trkpt>
      <trkpt lat="48.68285" lon="1.91138">
        <ele>172</ele>
      </trkpt>
      <trkpt lat="48.68294" lon="1.91135">
        <ele>167</ele>
      </trkpt>
      <trkpt lat="48.68302" lon="1.91131">
        <ele>167</ele>
        <time>2013-06-27T12:58:21Z</time>
      </trkpt>
      <trkpt lat="48.68312" lon="1.91134">
        <ele>167</ele>
      </trkpt>
      <trkpt lat="48.68322" lon="1.91138">
        <ele>167</ele>
      </trkpt>
      <trkpt lat="48.68332" lon="1.91141">
        <ele>167</ele>
      </trkpt>
      <trkpt lat="48.68342" lon="1.91144">
        <ele>167</ele>
        <time>2013-06-27T12:58:59Z</time>
      </trkpt>
      <trkpt lat="48.68353" lon="1.91144">
        <ele>167</ele>
      </trkpt>
      <trkpt lat="48.68365" lon="1.91143">
        <ele>167</ele>
      </trkpt>
      <trkpt lat="48.68376" lon="1.91142">
        <ele>167</ele>
      </trkpt>
      <trkpt lat="48.68387" lon="1.91142">
        <ele>167</ele>
        <time>2013-06-27T12:59:28Z</time>
      </trkpt>
      <trkpt lat="48.68395" lon="1.91136">
        <ele>167</ele>
      </trkpt>
      <trkpt lat="48.68403" lon="1.9113">
        <ele>167</ele>
      </trkpt>
      <trkpt lat="48.68411" lon="1.91124">
        <ele>162</ele>
      </trkpt>
      <trkpt lat="48.68419" lon="1.91118">
        <ele>162</ele>
        <time>2013-06-27T13:00:09Z</time>
      </trkpt>
      <trkpt lat="48.68428" lon="1.91111">
        <ele>162</ele>
      </trkpt>
      <trkpt lat="48.68437" lon="1.91103">
        <ele>162</ele>
      </trkpt>
      <trkpt lat="48.68446" lon="1.91095">
        <ele>162</ele>
      </trkpt>
      <trkpt lat="48.68455" lon="1.91087">
        <ele>162</ele>
        <time>2013-06-27T13:00:43Z</time>
      </trkpt>
      <trkpt lat="48.68464" lon="1.91081">
        <ele>155</ele>
      </trkpt>
      <trkpt lat="48.68473" lon="1.91074">
        <ele>155</ele>
      </trkpt>
      <trkpt lat="48.68482" lon="1.91068">
        <ele>155</ele>
      </trkpt>
      <trkpt lat="48.68492" lon="1.91062">
        <ele>155</ele>
        <time>2013-06-27T13:01:19Z</time>
      </trkpt>
      <trkpt lat="48.68501" lon="1.91058">
        <ele>155</ele>
      </trkpt>
      <trkpt lat="48.68511" lon="1.91054">
        <ele>155</ele>
      </trkpt>
      <trkpt lat="48.68521" lon="1.9105">
        <ele>155</ele>
      </trkpt>
      <trkpt lat="48.68531" lon="1.91047">
        <ele>155</ele>
        <time>2013-06-27T13:01:54Z</time>
      </trkpt>
      <trkpt lat="48.68541" lon="1.91049">
        <ele>155</ele>
      </trkpt>
      <trkpt lat="48.6855" lon="1.91051">
        <ele>150</ele>
      </trkpt>
      <trkpt lat="48.6856" lon="1.91054">
        <ele>150</ele>
      </trkpt>
      <trkpt lat="48.6857" lon="1.91056">
        <ele>150</ele>
        <time>2013-06-27T13:02:33Z</time>
      </trkpt>
      <trkpt lat="48.6858" lon="1.91063">
        <ele>150</ele>
      </trkpt>
      <trkpt lat="48.6859" lon="1.91069">
        <ele>150</ele>
      </trkpt>
      <trkpt lat="48.686" lon="1.91075">
        <ele>150</ele>
      </trkpt>
      <trkpt lat="48.6861" lon="1.91082">
        <ele>150</ele>
        <time>2013-06-27T13:02:59Z</time>
      </trkpt>
      <trkpt lat="48.68621" lon="1.9108">
        <ele>150</ele>
      </trkpt>
      <trkpt lat="48.68631" lon="1.91078">
        <ele>148</ele>
        <time>2013-06-27T13:03:28Z</time>
      </trkpt>
      <trkpt lat="48.6864" lon="1.91067">
        <ele>148</ele>
      </trkpt>
      <trkpt lat="48.68648" lon="1.91056">
        <ele>148</ele>
        <time>2013-06-27T13:03:53Z</time>
      </trkpt>
      <trkpt lat="48.68643" lon="1.91045">
        <ele>148</ele>
      </trkpt>
      <trkpt lat="48.68638" lon="1.91033">
        <ele>153</ele>
      </trkpt>
      <trkpt lat="48.68632" lon="1.91021">
        <ele>153</ele>
      </trkpt>
      <trkpt lat="48.68627" lon="1.91009">
        <ele>153</ele>
        <time>2013-06-27T13:04:24Z</time>
      </trkpt>
      <trkpt lat="48.6862" lon="1.90998">
        <ele>150</ele>
      </trkpt>
      <trkpt lat="48.68613" lon="1.90988">
        <ele>150</ele>
      </trkpt>
      <trkpt lat="48.68606" lon="1.90977">
        <ele>150</ele>
        <time>2013-06-27T13:04:55Z</time>
      </trkpt>
      <trkpt lat="48.68597" lon="1.90971">
        <ele>150</ele>
      </trkpt>
      <trkpt lat="48.68589" lon="1.90964">
        <ele>150</ele>
      </trkpt>
      <trkpt lat="48.6858" lon="1.90957">
        <ele>160</ele>
      </trkpt>
      <trkpt lat="48.68572" lon="1.9095">
        <ele>160</ele>
        <time>2013-06-27T13:05:12Z</time>
      </trkpt>
      <trkpt lat="48.68573" lon="1.90933">
        <ele>160</ele>
      </trkpt>
      <trkpt lat="48.68574" lon="1.90916">
        <ele>160</ele>
      </trkpt>
      <trkpt lat="48.68576" lon="1.90899">
        <ele>160</ele>
      </trkpt>
      <trkpt lat="48.68577" lon="1.90882">
        <ele>160</ele>
      </trkpt>
      <trkpt lat="48.68578" lon="1.90865">
        <ele>171</ele>
        <time>2013-06-27T13:06:30Z</time>
      </trkpt>
      <trkpt lat="48.68584" lon="1.90854">
        <ele>171</ele>
      </trkpt>
      <trkpt lat="48.6859" lon="1.90843">
        <ele>171</ele>
      </trkpt>
      <trkpt lat="48.68595" lon="1.90833">
        <ele>171</ele>
      </trkpt>
      <trkpt lat="48.68601" lon="1.90822">
        <ele>171</ele>
        <time>2013-06-27T13:07:20Z</time>
      </trkpt>
      <trkpt lat="48.68601" lon="1.90805">
        <ele>171</ele>
      </trkpt>
      <trkpt lat="48.686" lon="1.90789">
        <ele>175</ele>
      </trkpt>
      <trkpt lat="48.686" lon="1.90773">
        <ele>175</ele>
      </trkpt>
      <trkpt lat="48.686" lon="1.90756">
        <ele>175</ele>
      </trkpt>
      <trkpt lat="48.686" lon="1.9074">
        <ele>175</ele>
      </trkpt>
      <trkpt lat="48.68599" lon="1.90723">
        <ele>175</ele>
        <time>2013-06-27T13:09:18Z</time>
      </trkpt>
      <trkpt lat="48.686" lon="1.90709">
        <ele>175</ele>
      </trkpt>
      <trkpt lat="48.686" lon="1.90694">
        <ele>176</ele>
      </trkpt>
      <trkpt lat="48.68601" lon="1.90679">
        <ele>176</ele>
      </trkpt>
      <trkpt lat="48.68602" lon="1.90665">
        <ele>176</ele>
        <time>2013-06-27T13:09:54Z</time>
      </trkpt>
      <trkpt lat="48.68604" lon="1.90651">
        <ele>176</ele>
      </trkpt>
      <trkpt lat="48.68606" lon="1.90637">
        <ele>176</ele>
      </trkpt>
      <trkpt lat="48.68609" lon="1.90623">
        <ele>179</ele>
      </trkpt>
      <trkpt lat="48.68611" lon="1.90609">
        <ele>179</ele>
        <time>2013-06-27T13:10:21Z</time>
      </trkpt>
      <trkpt lat="48.68609" lon="1.90593">
        <ele>179</ele>
      </trkpt>
      <trkpt lat="48.68607" lon="1.90578">
        <ele>179</ele>
      </trkpt>
      <trkpt lat="48.68605" lon="1.90562">
        <ele>179</ele>
        <time>2013-06-27T13:10:48Z</time>
      </trkpt>
      <trkpt lat="48.68604" lon="1.90547">
        <ele>179</ele>
      </trkpt>
      <trkpt lat="48.68604" lon="1.90532">
        <ele>182</ele>
      </trkpt>
      <trkpt lat="48.68603" lon="1.90517">
        <ele>182</ele>
        <time>2013-06-27T13:11:18Z</time>
      </trkpt>
      <trkpt lat="48.68605" lon="1.90503">
        <ele>182</ele>
      </trkpt>
      <trkpt lat="48.68607" lon="1.90489">
        <ele>182</ele>
      </trkpt>
      <trkpt lat="48.68609" lon="1.90475">
        <ele>182</ele>
        <time>2013-06-27T13:11:38Z</time>
      </trkpt>
      <trkpt lat="48.68609" lon="1.90459">
        <ele>182</ele>
      </trkpt>
      <trkpt lat="48.6861" lon="1.90444">
        <ele>184</ele>
        <time>2013-06-27T13:11:58Z</time>
      </trkpt>
      <trkpt lat="48.68609" lon="1.9043">
        <ele>184</ele>
      </trkpt>
      <trkpt lat="48.68608" lon="1.90416">
        <ele>184</ele>
      </trkpt>
      <trkpt lat="48.68608" lon="1.90403">
        <ele>184</ele>
      </trkpt>
      <trkpt lat="48.68607" lon="1.90389">
        <ele>184</ele>
        <time>2013-06-27T13:12:28Z</time>
      </trkpt>
      <trkpt lat="48.68607" lon="1.90372">
        <ele>185</ele>
      </trkpt>
      <trkpt lat="48.68607" lon="1.90355">
        <ele>185</ele>
      </trkpt>
      <trkpt lat="48.68606" lon="1.90338">
        <ele>185</ele>
        <time>2013-06-27T13:12:56Z</time>
      </trkpt>
      <trkpt lat="48.68607" lon="1.90322">
        <ele>185</ele>
      </trkpt>
      <trkpt lat="48.68608" lon="1.90307">
        <ele>185</ele>
      </trkpt>
      <trkpt lat="48.68609" lon="1.90291">
        <ele>185</ele>
      </trkpt>
      <trkpt lat="48.68609" lon="1.90276">
        <ele>185</ele>
        <time>2013-06-27T13:13:27Z</time>
      </trkpt>
      <trkpt lat="48.68607" lon="1.90261">
        <ele>185</ele>
      </trkpt>
      <trkpt lat="48.68604" lon="1.90246">
        <ele>185</ele>
      </trkpt>
      <trkpt lat="48.68602" lon="1.90231">
        <ele>185</ele>
      </trkpt>
      <trkpt lat="48.68599" lon="1.90216">
        <ele>185</ele>
        <time>2013-06-27T13:13:57Z</time>
      </trkpt>
      <trkpt lat="48.68601" lon="1.902">
        <ele>185</ele>
      </trkpt>
      <trkpt lat="48.68603" lon="1.90185">
        <ele>185</ele>
      </trkpt>
      <trkpt lat="48.68605" lon="1.9017">
        <ele>185</ele>
        <time>2013-06-27T13:14:20Z</time>
      </trkpt>
      <trkpt lat="48.68603" lon="1.90158">
        <ele>185</ele>
      </trkpt>
      <trkpt lat="48.686" lon="1.90146">
        <ele>185</ele>
        <time>2013-06-27T13:14:33Z</time>
      </trkpt>
      <trkpt lat="48.686" lon="1.90129">
        <ele>185</ele>
      </trkpt>
      <trkpt lat="48.68599" lon="1.90112">
        <ele>183</ele>
      </trkpt>
      <trkpt lat="48.68599" lon="1.90095">
        <ele>183</ele>
      </trkpt>
      <trkpt lat="48.68598" lon="1.90078">
        <ele>183</ele>
      </trkpt>
      <trkpt lat="48.68598" lon="1.90062">
        <ele>183</ele>
      </trkpt>
      <trkpt lat="48.68597" lon="1.90045">
        <ele>183</ele>
        <time>2013-06-27T13:15:31Z</time>
      </trkpt>
      <trkpt lat="48.68598" lon="1.90031">
        <ele>180</ele>
      </trkpt>
      <trkpt lat="48.68598" lon="1.90018">
        <ele>180</ele>
      </trkpt>
      <trkpt lat="48.68599" lon="1.90005">
        <ele>180</ele>
        <time>2013-06-27T13:15:50Z</time>
      </trkpt>
      <trkpt lat="48.68599" lon="1.89989">
        <ele>180</ele>
      </trkpt>
      <trkpt lat="48.686" lon="1.89974">
        <ele>180</ele>
      </trkpt>
      <trkpt lat="48.686" lon="1.89958">
        <ele>178</ele>
      </trkpt>
      <trkpt lat="48.686" lon="1.89943">
        <ele>178</ele>
        <time>2013-06-27T13:16:28Z</time>
      </trkpt>
      <trkpt lat="48.68601" lon="1.89928">
        <ele>178</ele>
      </trkpt>
      <trkpt lat="48.68601" lon="1.89914">
        <ele>178</ele>
      </trkpt>
      <trkpt lat="48.68601" lon="1.899">
        <ele>178</ele>
      </trkpt>
      <trkpt lat="48.68602" lon="1.89886">
        <ele>178</ele>
        <time>2013-06-27T13:16:57Z</time>
      </trkpt>
      <trkpt lat="48.68601" lon="1.8987">
        <ele>178</ele>
      </trkpt>
      <trkpt lat="48.68601" lon="1.89854">
        <ele>178</ele>
      </trkpt>
      <trkpt lat="48.68601" lon="1.89838">
        <ele>178</ele>
      </trkpt>
      <trkpt lat="48.686" lon="1.89823">
        <ele>178</ele>
      </trkpt>
      <trkpt lat="48.686" lon="1.89807">
        <ele>178</ele>
        <time>2013-06-27T13:17:47Z</time>
      </trkpt>
      <trkpt lat="48.68601" lon="1.89792">
        <ele>178</ele>
      </trkpt>
      <trkpt lat="48.68601" lon="1.89778">
        <ele>179</ele>
      </trkpt>
      <trkpt lat="48.68602" lon="1.89764">
        <ele>179</ele>
        <time>2013-06-27T13:18:56Z</time>
      </trkpt>
      <trkpt lat="48.68602" lon="1.89747">
        <ele>179</ele>
      </trkpt>
      <trkpt lat="48.68601" lon="1.8973">
        <ele>179</ele>
      </trkpt>
      <trkpt lat="48.686" lon="1.89713">
        <ele>179</ele>
        <time>2013-06-27T13:19:26Z</time>
      </trkpt>
      <trkpt lat="48.686" lon="1.89698">
        <ele>182</ele>
      </trkpt>
      <trkpt lat="48.686" lon="1.89683">
        <ele>182</ele>
      </trkpt>
      <trkpt lat="48.686" lon="1.89668">
        <ele>182</ele>
      </trkpt>
      <trkpt lat="48.686" lon="1.89652">
        <ele>182</ele>
        <time>2013-06-27T13:19:58Z</time>
      </trkpt>
      <trkpt lat="48.68604" lon="1.89645">
        <ele>182</ele>
      </trkpt>
      <trkpt lat="48.68608" lon="1.89637">
        <ele>182</ele>
        <time>2013-06-27T13:20:16Z</time>
      </trkpt>
      <trkpt lat="48.68609" lon="1.8962">
        <ele>184</ele>
      </trkpt>
      <trkpt lat="48.6861" lon="1.89602">
        <ele>184</ele>
      </trkpt>
      <trkpt lat="48.68611" lon="1.89585">
        <ele>184</ele>
        <time>2013-06-27T13:20:52Z</time>
      </trkpt>
      <trkpt lat="48.68609" lon="1.89571">
        <ele>184</ele>
      </trkpt>
      <trkpt lat="48.68606" lon="1.89558">
        <ele>184</ele>
      </trkpt>
      <trkpt lat="48.68604" lon="1.89545">
        <ele>184</ele>
      </trkpt>
      <trkpt lat="48.68601" lon="1.89531">
        <ele>184</ele>
        <time>2013-06-27T13:21:18Z</time>
      </trkpt>
      <trkpt lat="48.686" lon="1.89515">
        <ele>184</ele>
      </trkpt>
      <trkpt lat="48.68599" lon="1.895">
        <ele>184</ele>
      </trkpt>
      <trkpt lat="48.68598" lon="1.89484">
        <ele>184</ele>
      </trkpt>
      <trkpt lat="48.68597" lon="1.89468">
        <ele>184</ele>
        <time>2013-06-27T13:21:56Z</time>
      </trkpt>
      <trkpt lat="48.68596" lon="1.89454">
        <ele>186</ele>
      </trkpt>
      <trkpt lat="48.68595" lon="1.8944">
        <ele>186</ele>
      </trkpt>
      <trkpt lat="48.68595" lon="1.89426">
        <ele>186</ele>
      </trkpt>
      <trkpt lat="48.68594" lon="1.89412">
        <ele>186</ele>
        <time>2013-06-27T13:22:23Z</time>
      </trkpt>
      <trkpt lat="48.68598" lon="1.89398">
        <ele>186</ele>
      </trkpt>
      <trkpt lat="48.68602" lon="1.89385">
        <ele>186</ele>
      </trkpt>
      <trkpt lat="48.68605" lon="1.89372">
        <ele>186</ele>
      </trkpt>
      <trkpt lat="48.68609" lon="1.89359">
        <ele>186</ele>
        <time>2013-06-27T13:22:52Z</time>
      </trkpt>
      <trkpt lat="48.6861" lon="1.89345">
        <ele>186</ele>
      </trkpt>
      <trkpt lat="48.6861" lon="1.8933">
        <ele>186</ele>
      </trkpt>
      <trkpt lat="48.68611" lon="1.89316">
        <ele>186</ele>
      </trkpt>
      <trkpt lat="48.68611" lon="1.89302">
        <ele>186</ele>
        <time>2013-06-27T13:23:21Z</time>
      </trkpt>
      <trkpt lat="48.68608" lon="1.89287">
        <ele>185</ele>
      </trkpt>
      <trkpt lat="48.68605" lon="1.89272">
        <ele>185</ele>
      </trkpt>
      <trkpt lat="48.68602" lon="1.89256">
        <ele>185</ele>
        <time>2013-06-27T13:23:48Z</time>
      </trkpt>
      <trkpt lat="48.68602" lon="1.89241">
        <ele>185</ele>
      </trkpt>
      <trkpt lat="48.68603" lon="1.89226">
        <ele>185</ele>
      </trkpt>
      <trkpt lat="48.68603" lon="1.89211">
        <ele>185</ele>
      </trkpt>
      <trkpt lat="48.68604" lon="1.89196">
        <ele>185</ele>
        <time>2013-06-27T13:24:18Z</time>
      </trkpt>
      <trkpt lat="48.68606" lon="1.8918">
        <ele>185</ele>
      </trkpt>
      <trkpt lat="48.68608" lon="1.89165">
        <ele>185</ele>
      </trkpt>
      <trkpt lat="48.6861" lon="1.89149">
        <ele>185</ele>
        <time>2013-06-27T13:24:42Z</time>
      </trkpt>
      <trkpt lat="48.6861" lon="1.89136">
        <ele>185</ele>
      </trkpt>
      <trkpt lat="48.6861" lon="1.89122">
        <ele>185</ele>
      </trkpt>
      <trkpt lat="48.68609" lon="1.89108">
        <ele>185</ele>
      </trkpt>
      <trkpt lat="48.68609" lon="1.89095">
        <ele>185</ele>
        <time>2013-06-27T13:25:11Z</time>
      </trkpt>
      <trkpt lat="48.68609" lon="1.89079">
        <ele>185</ele>
      </trkpt>
      <trkpt lat="48.68608" lon="1.89063">
        <ele>185</ele>
      </trkpt>
      <trkpt lat="48.68608" lon="1.89047">
        <ele>185</ele>
        <time>2013-06-27T13:25:36Z</time>
      </trkpt>
      <trkpt lat="48.68606" lon="1.89032">
        <ele>184</ele>
      </trkpt>
      <trkpt lat="48.68604" lon="1.89017">
        <ele>184</ele>
      </trkpt>
      <trkpt lat="48.68603" lon="1.89002">
        <ele>184</ele>
      </trkpt>
      <trkpt lat="48.68601" lon="1.88988">
        <ele>184</ele>
        <time>2013-06-27T13:26:09Z</time>
      </trkpt>
      <trkpt lat="48.68601" lon="1.88971">
        <ele>184</ele>
      </trkpt>
      <trkpt lat="48.68601" lon="1.88955">
        <ele>184</ele>
      </trkpt>
      <trkpt lat="48.68602" lon="1.88938">
        <ele>184</ele>
        <time>2013-06-27T13:26:38Z</time>
      </trkpt>
      <trkpt lat="48.68603" lon="1.88924">
        <ele>184</ele>
      </trkpt>
      <trkpt lat="48.68604" lon="1.8891">
        <ele>184</ele>
      </trkpt>
      <trkpt lat="48.68605" lon="1.88895">
        <ele>184</ele>
      </trkpt>
      <trkpt lat="48.68606" lon="1.88881">
        <ele>184</ele>
        <time>2013-06-27T13:27:08Z</time>
      </trkpt>
      <trkpt lat="48.68604" lon="1.88867">
        <ele>183</ele>
      </trkpt>
      <trkpt lat="48.68602" lon="1.88853">
        <ele>183</ele>
      </trkpt>
      <trkpt lat="48.68601" lon="1.88839">
        <ele>183</ele>
      </trkpt>
      <trkpt lat="48.68599" lon="1.88825">
        <ele>183</ele>
        <time>2013-06-27T13:27:34Z</time>
      </trkpt>
      <trkpt lat="48.68599" lon="1.88808">
        <ele>183</ele>
      </trkpt>
      <trkpt lat="48.68599" lon="1.8879">
        <ele>181</ele>
      </trkpt>
      <trkpt lat="48.68599" lon="1.88773">
        <ele>181</ele>
      </trkpt>
      <trkpt lat="48.68599" lon="1.88756">
        <ele>181</ele>
      </trkpt>
      <trkpt lat="48.68599" lon="1.88738">
        <ele>181</ele>
      </trkpt>
      <trkpt lat="48.68599" lon="1.88721">
        <ele>181</ele>
      </trkpt>
      <trkpt lat="48.68599" lon="1.88704">
        <ele>180</ele>
      </trkpt>
      <trkpt lat="48.68599" lon="1.88686">
        <ele>180</ele>
      </trkpt>
      <trkpt lat="48.68599" lon="1.88669">
        <ele>180</ele>
      </trkpt>
      <trkpt lat="48.68599" lon="1.88652">
        <ele>180</ele>
      </trkpt>
      <trkpt lat="48.68599" lon="1.88634">
        <ele>180</ele>
      </trkpt>
      <trkpt lat="48.68599" lon="1.88617">
        <ele>178</ele>
      </trkpt>
      <trkpt lat="48.68599" lon="1.886">
        <ele>178</ele>
      </trkpt>
      <trkpt lat="48.68599" lon="1.88582">
        <ele>178</ele>
        <time>2013-06-27T13:30:59Z</time>
      </trkpt>
      <trkpt lat="48.68599" lon="1.88567">
        <ele>178</ele>
      </trkpt>
      <trkpt lat="48.68599" lon="1.88551">
        <ele>178</ele>
      </trkpt>
      <trkpt lat="48.68598" lon="1.88535">
        <ele>178</ele>
      </trkpt>
      <trkpt lat="48.68598" lon="1.88519">
        <ele>178</ele>
      </trkpt>
      <trkpt lat="48.68597" lon="1.88503">
        <ele>178</ele>
        <time>2013-06-27T13:31:40Z</time>
      </trkpt>
      <trkpt lat="48.68592" lon="1.8849">
        <ele>178</ele>
      </trkpt>
      <trkpt lat="48.68586" lon="1.88476">
        <ele>178</ele>
      </trkpt>
      <trkpt lat="48.68581" lon="1.88462">
        <ele>178</ele>
      </trkpt>
      <trkpt lat="48.68575" lon="1.88449">
        <ele>180</ele>
        <time>2013-06-27T13:32:08Z</time>
      </trkpt>
      <trkpt lat="48.6857" lon="1.88437">
        <ele>180</ele>
      </trkpt>
      <trkpt lat="48.68565" lon="1.88425">
        <ele>180</ele>
      </trkpt>
      <trkpt lat="48.68561" lon="1.88414">
        <ele>180</ele>
      </trkpt>
      <trkpt lat="48.68556" lon="1.88402">
        <ele>180</ele>
        <time>2013-06-27T13:32:41Z</time>
      </trkpt>
      <trkpt lat="48.68551" lon="1.88389">
        <ele>180</ele>
      </trkpt>
      <trkpt lat="48.68546" lon="1.88377">
        <ele>180</ele>
      </trkpt>
      <trkpt lat="48.68541" lon="1.88364">
        <ele>179</ele>
      </trkpt>
      <trkpt lat="48.68536" lon="1.88352">
        <ele>179</ele>
        <time>2013-06-27T13:33:14Z</time>
      </trkpt>
      <trkpt lat="48.68529" lon="1.88343">
        <ele>179</ele>
      </trkpt>
      <trkpt lat="48.68521" lon="1.88335">
        <ele>179</ele>
      </trkpt>
      <trkpt lat="48.68513" lon="1.88326">
        <ele>179</ele>
      </trkpt>
      <trkpt lat="48.68506" lon="1.88317">
        <ele>179</ele>
        <time>2013-06-27T13:33:34Z</time>
      </trkpt>
      <trkpt lat="48.68502" lon="1.88305">
        <ele>179</ele>
      </trkpt>
      <trkpt lat="48.68498" lon="1.88293">
        <ele>179</ele>
      </trkpt>
      <trkpt lat="48.68493" lon="1.88281">
        <ele>177</ele>
        <time>2013-06-27T13:34:03Z</time>
      </trkpt>
      <trkpt lat="48.68493" lon="1.88264">
        <ele>177</ele>
      </trkpt>
      <trkpt lat="48.68492" lon="1.88248">
        <ele>177</ele>
      </trkpt>
      <trkpt lat="48.68491" lon="1.88231">
        <ele>177</ele>
      </trkpt>
      <trkpt lat="48.68491" lon="1.88215">
        <ele>177</ele>
      </trkpt>
      <trkpt lat="48.6849" lon="1.88198">
        <ele>174</ele>
        <time>2013-06-27T13:34:43Z</time>
      </trkpt>
      <trkpt lat="48.68484" lon="1.88186">
        <ele>174</ele>
      </trkpt>
      <trkpt lat="48.68479" lon="1.88175">
        <ele>174</ele>
      </trkpt>
      <trkpt lat="48.68473" lon="1.88163">
        <ele>174</ele>
      </trkpt>
      <trkpt lat="48.68468" lon="1.88151">
        <ele>174</ele>
        <time>2013-06-27T13:35:15Z</time>
      </trkpt>
      <trkpt lat="48.68461" lon="1.8814">
        <ele>174</ele>
      </trkpt>
      <trkpt lat="48.68454" lon="1.88129">
        <ele>177</ele>
      </trkpt>
      <trkpt lat="48.68448" lon="1.88118">
        <ele>176</ele>
        <time>2013-06-27T13:35:44Z</time>
      </trkpt>
      <trkpt lat="48.68441" lon="1.88107">
        <ele>176</ele>
      </trkpt>
      <trkpt lat="48.68435" lon="1.88097">
        <ele>176</ele>
      </trkpt>
      <trkpt lat="48.68429" lon="1.88086">
        <ele>176</ele>
      </trkpt>
      <trkpt lat="48.68423" lon="1.88076">
        <ele>176</ele>
        <time>2013-06-27T13:36:11Z</time>
      </trkpt>
      <trkpt lat="48.68425" lon="1.88062">
        <ele>176</ele>
      </trkpt>
      <trkpt lat="48.68426" lon="1.88048">
        <ele>176</ele>
      </trkpt>
      <trkpt lat="48.68428" lon="1.88034">
        <ele>174</ele>
      </trkpt>
      <trkpt lat="48.68429" lon="1.8802">
        <ele>174</ele>
        <time>2013-06-27T13:36:41Z</time>
      </trkpt>
      <trkpt lat="48.68424" lon="1.88007">
        <ele>174</ele>
      </trkpt>
      <trkpt lat="48.68419" lon="1.87995">
        <ele>174</ele>
      </trkpt>
      <trkpt lat="48.68414" lon="1.87982">
        <ele>174</ele>
      </trkpt>
      <trkpt lat="48.68409" lon="1.87969">
        <ele>174</ele>
        <time>2013-06-27T13:37:09Z</time>
      </trkpt>
      <trkpt lat="48.684" lon="1.87961">
        <ele>174</ele>
      </trkpt>
      <trkpt lat="48.68392" lon="1.87954">
        <ele>173</ele>
        <time>2013-06-27T13:37:24Z</time>
      </trkpt>
      <trkpt lat="48.68388" lon="1.87942">
        <ele>173</ele>
      </trkpt>
      <trkpt lat="48.68383" lon="1.87929">
        <ele>173</ele>
      </trkpt>
      <trkpt lat="48.68379" lon="1.87917">
        <ele>173</ele>
      </trkpt>
      <trkpt lat="48.68375" lon="1.87905">
        <ele>173</ele>
        <time>2013-06-27T13:37:54Z</time>
      </trkpt>
      <trkpt lat="48.68371" lon="1.87891">
        <ele>174</ele>
      </trkpt>
      <trkpt lat="48.68368" lon="1.87877">
        <ele>174</ele>
      </trkpt>
      <trkpt lat="48.68364" lon="1.87863">
        <ele>174</ele>
      </trkpt>
      <trkpt lat="48.6836" lon="1.87849">
        <ele>174</ele>
        <time>2013-06-27T13:38:29Z</time>
      </trkpt>
      <trkpt lat="48.68356" lon="1.87834">
        <ele>174</ele>
      </trkpt>
      <trkpt lat="48.68351" lon="1.87819">
        <ele>174</ele>
      </trkpt>
      <trkpt lat="48.68347" lon="1.87804">
        <ele>174</ele>
        <time>2013-06-27T13:38:57Z</time>
      </trkpt>
      <trkpt lat="48.68341" lon="1.87791">
        <ele>174</ele>
      </trkpt>
      <trkpt lat="48.68335" lon="1.87779">
        <ele>174</ele>
      </trkpt>
      <trkpt lat="48.68329" lon="1.87767">
        <ele>174</ele>
        <time>2013-06-27T13:39:31Z</time>
      </trkpt>
      <trkpt lat="48.68323" lon="1.87756">
        <ele>174</ele>
      </trkpt>
      <trkpt lat="48.68318" lon="1.87746">
        <ele>174</ele>
      </trkpt>
      <trkpt lat="48.68312" lon="1.87735">
        <ele>174</ele>
      </trkpt>
      <trkpt lat="48.68307" lon="1.87725">
        <ele>174</ele>
        <time>2013-06-27T13:40:05Z</time>
      </trkpt>
      <trkpt lat="48.683" lon="1.87713">
        <ele>174</ele>
      </trkpt>
      <trkpt lat="48.68293" lon="1.87702">
        <ele>173</ele>
      </trkpt>
      <trkpt lat="48.68287" lon="1.8769">
        <ele>176</ele>
      </trkpt>
      <trkpt lat="48.6828" lon="1.87679">
        <ele>176</ele>
        <time>2013-06-27T13:40:29Z</time>
      </trkpt>
      <trkpt lat="48.68281" lon="1.87665">
        <ele>176</ele>
      </trkpt>
      <trkpt lat="48.68281" lon="1.8765">
        <ele>176</ele>
      </trkpt>
      <trkpt lat="48.68282" lon="1.87636">
        <ele>176</ele>
      </trkpt>
      <trkpt lat="48.68283" lon="1.87622">
        <ele>174</ele>
        <time>2013-06-27T13:41:03Z</time>
      </trkpt>
      <trkpt lat="48.68278" lon="1.87609">
        <ele>174</ele>
      </trkpt>
      <trkpt lat="48.68274" lon="1.87596">
        <ele>174</ele>
      </trkpt>
      <trkpt lat="48.68269" lon="1.87582">
        <ele>174</ele>
      </trkpt>
      <trkpt lat="48.68265" lon="1.87569">
        <ele>174</ele>
        <time>2013-06-27T13:41:33Z</time>
      </trkpt>
      <trkpt lat="48.6826" lon="1.87556">
        <ele>174</ele>
      </trkpt>
      <trkpt lat="48.68255" lon="1.87543">
        <ele>174</ele>
      </trkpt>
      <trkpt lat="48.6825" lon="1.87529">
        <ele>171</ele>
      </trkpt>
      <trkpt lat="48.68245" lon="1.87516">
        <ele>171</ele>
        <time>2013-06-27T13:42:03Z</time>
      </trkpt>
      <trkpt lat="48.68239" lon="1.87504">
        <ele>171</ele>
      </trkpt>
      <trkpt lat="48.68233" lon="1.87492">
        <ele>171</ele>
      </trkpt>
      <trkpt lat="48.68227" lon="1.8748">
        <ele>171</ele>
      </trkpt>
      <trkpt lat="48.68222" lon="1.87468">
        <ele>171</ele>
        <time>2013-06-27T13:42:35Z</time>
      </trkpt>
      <trkpt lat="48.68217" lon="1.87454">
        <ele>170</ele>
      </trkpt>
      <trkpt lat="48.68212" lon="1.87441">
        <ele>170</ele>
      </trkpt>
      <trkpt lat="48.68207" lon="1.87428">
        <ele>171</ele>
        <time>2013-06-27T13:43:01Z</time>
      </trkpt>
      <trkpt lat="48.68202" lon="1.87415">
        <ele>171</ele>
      </trkpt>
      <trkpt lat="48.68198" lon="1.87401">
        <ele>171</ele>
      </trkpt>
      <trkpt lat="48.68193" lon="1.87388">
        <ele>171</ele>
      </trkpt>
      <trkpt lat="48.68188" lon="1.87374">
        <ele>170</ele>
        <time>2013-06-27T13:43:47Z</time>
      </trkpt>
      <trkpt lat="48.68184" lon="1.87361">
        <ele>170</ele>
      </trkpt>
      <trkpt lat="48.68179" lon="1.87349">
        <ele>170</ele>
      </trkpt>
      <trkpt lat="48.68174" lon="1.87336">
        <ele>170</ele>
      </trkpt>
      <trkpt lat="48.6817" lon="1.87323">
        <ele>170</ele>
        <time>2013-06-27T13:44:17Z</time>
      </trkpt>
      <trkpt lat="48.68165" lon="1.87311">
        <ele>170</ele>
      </trkpt>
      <trkpt lat="48.6816" lon="1.87298">
        <ele>170</ele>
      </trkpt>
      <trkpt lat="48.68155" lon="1.87286">
        <ele>170</ele>
      </trkpt>
      <trkpt lat="48.6815" lon="1.87274">
        <ele>170</ele>
        <time>2013-06-27T13:44:47Z</time>
      </trkpt>
      <trkpt lat="48.68145" lon="1.8726">
        <ele>170</ele>
      </trkpt>
      <trkpt lat="48.6814" lon="1.87247">
        <ele>170</ele>
      </trkpt>
      <trkpt lat="48.68135" lon="1.87234">
        <ele>170</ele>
      </trkpt>
      <trkpt lat="48.6813" lon="1.87221">
        <ele>170</ele>
        <time>2013-06-27T13:45:23Z</time>
      </trkpt>
      <trkpt lat="48.68125" lon="1.87206">
        <ele>171</ele>
      </trkpt>
      <trkpt lat="48.68121" lon="1.87192">
        <ele>171</ele>
      </trkpt>
      <trkpt lat="48.68116" lon="1.87178">
        <ele>171</ele>
      </trkpt>
      <trkpt lat="48.68111" lon="1.87164">
        <ele>171</ele>
        <time>2013-06-27T13:45:53Z</time>
      </trkpt>
      <trkpt lat="48.68107" lon="1.87151">
        <ele>171</ele>
      </trkpt>
      <trkpt lat="48.68103" lon="1.87137">
        <ele>171</ele>
      </trkpt>
      <trkpt lat="48.68099" lon="1.87124">
        <ele>172</ele>
      </trkpt>
      <trkpt lat="48.68095" lon="1.8711">
        <ele>172</ele>
        <time>2013-06-27T13:46:27Z</time>
      </trkpt>
      <trkpt lat="48.68091" lon="1.87096">
        <ele>172</ele>
      </trkpt>
      <trkpt lat="48.68087" lon="1.87082">
        <ele>172</ele>
      </trkpt>
      <trkpt lat="48.68082" lon="1.87068">
        <ele>172</ele>
        <time>2013-06-27T13:47:08Z</time>
      </trkpt>
      <trkpt lat="48.68094" lon="1.87066">
        <ele>172</ele>
      </trkpt>
      <trkpt lat="48.68105" lon="1.87063">
        <ele>172</ele>
      </trkpt>
      <trkpt lat="48.68116" lon="1.87061">
        <ele>172</ele>
      </trkpt>
      <trkpt lat="48.68127" lon="1.87059">
        <ele>174</ele>
        <time>2013-06-27T13:47:42Z</time>
      </trkpt>
      <trkpt lat="48.68136" lon="1.87054">
        <ele>174</ele>
      </trkpt>
      <trkpt lat="48.68146" lon="1.8705">
        <ele>174</ele>
      </trkpt>
      <trkpt lat="48.68156" lon="1.87045">
        <ele>174</ele>
      </trkpt>
      <trkpt lat="48.68165" lon="1.87041">
        <ele>173</ele>
        <time>2013-06-27T13:48:23Z</time>
      </trkpt>
      <trkpt lat="48.68175" lon="1.87038">
        <ele>173</ele>
      </trkpt>
      <trkpt lat="48.68185" lon="1.87036">
        <ele>173</ele>
      </trkpt>
      <trkpt lat="48.68195" lon="1.87034">
        <ele>173</ele>
      </trkpt>
      <trkpt lat="48.68205" lon="1.87031">
        <ele>173</ele>
        <time>2013-06-27T13:48:52Z</time>
      </trkpt>
      <trkpt lat="48.68215" lon="1.87025">
        <ele>173</ele>
      </trkpt>
      <trkpt lat="48.68224" lon="1.8702">
        <ele>173</ele>
      </trkpt>
      <trkpt lat="48.68233" lon="1.87014">
        <ele>173</ele>
      </trkpt>
      <trkpt lat="48.68242" lon="1.87009">
        <ele>173</ele>
        <time>2013-06-27T13:49:32Z</time>
      </trkpt>
      <trkpt lat="48.68251" lon="1.87008">
        <ele>173</ele>
      </trkpt>
      <trkpt lat="48.68261" lon="1.87006">
        <ele>173</ele>
      </trkpt>
      <trkpt lat="48.68271" lon="1.87005">
        <ele>173</ele>
      </trkpt>
      <trkpt lat="48.6828" lon="1.87004">
        <ele>173</ele>
        <time>2013-06-27T13:50:00Z</time>
      </trkpt>
      <trkpt lat="48.6829" lon="1.86999">
        <ele>173</ele>
      </trkpt>
      <trkpt lat="48.68299" lon="1.86993">
        <ele>175</ele>
      </trkpt>
      <trkpt lat="48.68309" lon="1.86988">
        <ele>175</ele>
      </trkpt>
      <trkpt lat="48.68318" lon="1.86983">
        <ele>175</ele>
        <time>2013-06-27T13:50:35Z</time>
      </trkpt>
      <trkpt lat="48.68325" lon="1.86986">
        <ele>175</ele>
      </trkpt>
      <trkpt lat="48.68332" lon="1.8699">
        <ele>175</ele>
        <time>2013-06-27T13:51:43Z</time>
      </trkpt>
      <trkpt lat="48.6834" lon="1.86987">
        <ele>175</ele>
      </trkpt>
      <trkpt lat="48.68348" lon="1.86983">
        <ele>175</ele>
        <time>2013-06-27T13:53:48Z</time>
      </trkpt>
      <trkpt lat="48.68358" lon="1.8698">
        <ele>175</ele>
      </trkpt>
      <trkpt lat="48.68368" lon="1.86976">
        <ele>175</ele>
      </trkpt>
      <trkpt lat="48.68378" lon="1.86973">
        <ele>175</ele>
      </trkpt>
      <trkpt lat="48.68388" lon="1.86969">
        <ele>175</ele>
        <time>2013-06-27T13:54:20Z</time>
      </trkpt>
      <trkpt lat="48.68397" lon="1.86965">
        <ele>175</ele>
      </trkpt>
      <trkpt lat="48.68407" lon="1.86961">
        <ele>175</ele>
      </trkpt>
      <trkpt lat="48.68416" lon="1.86956">
        <ele>178</ele>
      </trkpt>
      <trkpt lat="48.68425" lon="1.86952">
        <ele>178</ele>
        <time>2013-06-27T13:55:00Z</time>
      </trkpt>
      <trkpt lat="48.68435" lon="1.86949">
        <ele>178</ele>
      </trkpt>
      <trkpt lat="48.68444" lon="1.86947">
        <ele>178</ele>
      </trkpt>
      <trkpt lat="48.68454" lon="1.86944">
        <ele>178</ele>
      </trkpt>
      <trkpt lat="48.68464" lon="1.86941">
        <ele>177</ele>
        <time>2013-06-27T13:55:34Z</time>
      </trkpt>
      <trkpt lat="48.68473" lon="1.86937">
        <ele>177</ele>
      </trkpt>
      <trkpt lat="48.68483" lon="1.86934">
        <ele>177</ele>
      </trkpt>
      <trkpt lat="48.68492" lon="1.8693">
        <ele>177</ele>
      </trkpt>
      <trkpt lat="48.68502" lon="1.86926">
        <ele>177</ele>
        <time>2013-06-27T13:56:07Z</time>
      </trkpt>
      <trkpt lat="48.68511" lon="1.86923">
        <ele>177</ele>
      </trkpt>
      <trkpt lat="48.68521" lon="1.86921">
        <ele>177</ele>
      </trkpt>
      <trkpt lat="48.6853" lon="1.86919">
        <ele>177</ele>
      </trkpt>
      <trkpt lat="48.6854" lon="1.86916">
        <ele>177</ele>
        <time>2013-06-27T13:56:40Z</time>
      </trkpt>
      <trkpt lat="48.6855" lon="1.86912">
        <ele>177</ele>
      </trkpt>
      <trkpt lat="48.6856" lon="1.86908">
        <ele>177</ele>
      </trkpt>
      <trkpt lat="48.68571" lon="1.86904">
        <ele>177</ele>
      </trkpt>
      <trkpt lat="48.68581" lon="1.869">
        <ele>177</ele>
        <time>2013-06-27T13:57:11Z</time>
      </trkpt>
      <trkpt lat="48.68591" lon="1.86898">
        <ele>177</ele>
      </trkpt>
      <trkpt lat="48.686" lon="1.86896">
        <ele>177</ele>
      </trkpt>
      <trkpt lat="48.6861" lon="1.86894">
        <ele>177</ele>
      </trkpt>
      <trkpt lat="48.6862" lon="1.86892">
        <ele>177</ele>
        <time>2013-06-27T13:57:44Z</time>
      </trkpt>
      <trkpt lat="48.6863" lon="1.86889">
        <ele>175</ele>
      </trkpt>
      <trkpt lat="48.68641" lon="1.86886">
        <ele>175</ele>
      </trkpt>
      <trkpt lat="48.68651" lon="1.86883">
        <ele>175</ele>
      </trkpt>
      <trkpt lat="48.68661" lon="1.8688">
        <ele>175</ele>
        <time>2013-06-27T13:58:13Z</time>
      </trkpt>
      <trkpt lat="48.6867" lon="1.86875">
        <ele>175</ele>
      </trkpt>
      <trkpt lat="48.6868" lon="1.86871">
        <ele>174</ele>
      </trkpt>
      <trkpt lat="48.68689" lon="1.86866">
        <ele>174</ele>
      </trkpt>
      <trkpt lat="48.68698" lon="1.86861">
        <ele>174</ele>
        <time>2013-06-27T13:59:36Z</time>
      </trkpt>
      <trkpt lat="48.68708" lon="1.8686">
        <ele>174</ele>
      </trkpt>
      <trkpt lat="48.68718" lon="1.86858">
        <ele>174</ele>
      </trkpt>
      <trkpt lat="48.68727" lon="1.86857">
        <ele>174</ele>
      </trkpt>
      <trkpt lat="48.68737" lon="1.86855">
        <ele>174</ele>
        <time>2013-06-27T14:00:39Z</time>
      </trkpt>
      <trkpt lat="48.68747" lon="1.86851">
        <ele>174</ele>
      </trkpt>
      <trkpt lat="48.68756" lon="1.86847">
        <ele>174</ele>
      </trkpt>
      <trkpt lat="48.68766" lon="1.86842">
        <ele>174</ele>
      </trkpt>
      <trkpt lat="48.68775" lon="1.86838">
        <ele>174</ele>
        <time>2013-06-27T14:01:10Z</time>
      </trkpt>
      <trkpt lat="48.68785" lon="1.86836">
        <ele>174</ele>
      </trkpt>
      <trkpt lat="48.68796" lon="1.86833">
        <ele>173</ele>
      </trkpt>
      <trkpt lat="48.68806" lon="1.86831">
        <ele>173</ele>
      </trkpt>
      <trkpt lat="48.68816" lon="1.86829">
        <ele>173</ele>
        <time>2013-06-27T14:01:56Z</time>
      </trkpt>
      <trkpt lat="48.68825" lon="1.86823">
        <ele>173</ele>
      </trkpt>
      <trkpt lat="48.68835" lon="1.86818">
        <ele>173</ele>
      </trkpt>
      <trkpt lat="48.68844" lon="1.86812">
        <ele>173</ele>
      </trkpt>
      <trkpt lat="48.68854" lon="1.86807">
        <ele>173</ele>
        <time>2013-06-27T14:02:20Z</time>
      </trkpt>
      <trkpt lat="48.68864" lon="1.86808">
        <ele>173</ele>
      </trkpt>
      <trkpt lat="48.68873" lon="1.86809">
        <ele>173</ele>
      </trkpt>
      <trkpt lat="48.68883" lon="1.86811">
        <ele>173</ele>
      </trkpt>
      <trkpt lat="48.68893" lon="1.86812">
        <ele>173</ele>
        <time>2013-06-27T14:02:54Z</time>
      </trkpt>
      <trkpt lat="48.68898" lon="1.86824">
        <ele>173</ele>
      </trkpt>
      <trkpt lat="48.68903" lon="1.86836">
        <ele>173</ele>
      </trkpt>
      <trkpt lat="48.68908" lon="1.86848">
        <ele>173</ele>
      </trkpt>
      <trkpt lat="48.68913" lon="1.8686">
        <ele>173</ele>
        <time>2013-06-27T14:03:22Z</time>
      </trkpt>
      <trkpt lat="48.68923" lon="1.86862">
        <ele>173</ele>
      </trkpt>
      <trkpt lat="48.68933" lon="1.86865">
        <ele>173</ele>
      </trkpt>
      <trkpt lat="48.68943" lon="1.86868">
        <ele>173</ele>
      </trkpt>
      <trkpt lat="48.68953" lon="1.86871">
        <ele>173</ele>
        <time>2013-06-27T14:04:02Z</time>
      </trkpt>
      <trkpt lat="48.68963" lon="1.86871">
        <ele>172</ele>
      </trkpt>
      <trkpt lat="48.68973" lon="1.86871">
        <ele>172</ele>
      </trkpt>
      <trkpt lat="48.68983" lon="1.8687">
        <ele>172</ele>
      </trkpt>
      <trkpt lat="48.68992" lon="1.8687">
        <ele>172</ele>
        <time>2013-06-27T14:04:33Z</time>
      </trkpt>
      <trkpt lat="48.69002" lon="1.8687">
        <ele>172</ele>
      </trkpt>
      <trkpt lat="48.69012" lon="1.86869">
        <ele>172</ele>
      </trkpt>
      <trkpt lat="48.69022" lon="1.86868">
        <ele>172</ele>
      </trkpt>
      <trkpt lat="48.69032" lon="1.86868">
        <ele>172</ele>
        <time>2013-06-27T14:05:10Z</time>
      </trkpt>
      <trkpt lat="48.69042" lon="1.86867">
        <ele>172</ele>
      </trkpt>
      <trkpt lat="48.69052" lon="1.86867">
        <ele>172</ele>
      </trkpt>
      <trkpt lat="48.69061" lon="1.86866">
        <ele>172</ele>
      </trkpt>
      <trkpt lat="48.69071" lon="1.86866">
        <ele>172</ele>
        <time>2013-06-27T14:05:38Z</time>
      </trkpt>
      <trkpt lat="48.6908" lon="1.86865">
        <ele>172</ele>
      </trkpt>
      <trkpt lat="48.6909" lon="1.86864">
        <ele>172</ele>
      </trkpt>
      <trkpt lat="48.69099" lon="1.86863">
        <ele>172</ele>
      </trkpt>
      <trkpt lat="48.69109" lon="1.86862">
        <ele>172</ele>
        <time>2013-06-27T14:06:09Z</time>
      </trkpt>
      <trkpt lat="48.69119" lon="1.86863">
        <ele>172</ele>
      </trkpt>
      <trkpt lat="48.69129" lon="1.86864">
        <ele>172</ele>
      </trkpt>
      <trkpt lat="48.69139" lon="1.86865">
        <ele>172</ele>
      </trkpt>
      <trkpt lat="48.69149" lon="1.86866">
        <ele>172</ele>
        <time>2013-06-27T14:06:40Z</time>
      </trkpt>
      <trkpt lat="48.6916" lon="1.86863">
        <ele>172</ele>
      </trkpt>
      <trkpt lat="48.6917" lon="1.86861">
        <ele>172</ele>
      </trkpt>
      <trkpt lat="48.6918" lon="1.86858">
        <ele>172</ele>
      </trkpt>
      <trkpt lat="48.6919" lon="1.86856">
        <ele>172</ele>
        <time>2013-06-27T14:07:10Z</time>
      </trkpt>
      <trkpt lat="48.692" lon="1.86856">
        <ele>172</ele>
      </trkpt>
      <trkpt lat="48.6921" lon="1.86856">
        <ele>173</ele>
      </trkpt>
      <trkpt lat="48.6922" lon="1.86855">
        <ele>173</ele>
      </trkpt>
      <trkpt lat="48.6923" lon="1.86855">
        <ele>173</ele>
        <time>2013-06-27T14:08:16Z</time>
      </trkpt>
      <trkpt lat="48.69237" lon="1.86848">
        <ele>173</ele>
      </trkpt>
      <trkpt lat="48.69245" lon="1.8684">
        <ele>173</ele>
      </trkpt>
      <trkpt lat="48.69252" lon="1.86833">
        <ele>173</ele>
      </trkpt>
      <trkpt lat="48.6926" lon="1.86825">
        <ele>173</ele>
        <time>2013-06-27T14:08:59Z</time>
      </trkpt>
      <trkpt lat="48.69264" lon="1.86813">
        <ele>173</ele>
      </trkpt>
      <trkpt lat="48.69268" lon="1.868">
        <ele>173</ele>
      </trkpt>
      <trkpt lat="48.69272" lon="1.86787">
        <ele>174</ele>
      </trkpt>
      <trkpt lat="48.69276" lon="1.86774">
        <ele>174</ele>
        <time>2013-06-27T14:09:28Z</time>
      </trkpt>
      <trkpt lat="48.69281" lon="1.86761">
        <ele>174</ele>
      </trkpt>
      <trkpt lat="48.69285" lon="1.86749">
        <ele>174</ele>
      </trkpt>
      <trkpt lat="48.6929" lon="1.86736">
        <ele>174</ele>
      </trkpt>
      <trkpt lat="48.69295" lon="1.86723">
        <ele>173</ele>
        <time>2013-06-27T14:09:57Z</time>
      </trkpt>
      <trkpt lat="48.69299" lon="1.8671">
        <ele>173</ele>
      </trkpt>
      <trkpt lat="48.69304" lon="1.86696">
        <ele>175</ele>
      </trkpt>
      <trkpt lat="48.69308" lon="1.86683">
        <ele>175</ele>
      </trkpt>
      <trkpt lat="48.69313" lon="1.8667">
        <ele>175</ele>
        <time>2013-06-27T14:10:29Z</time>
      </trkpt>
      <trkpt lat="48.69317" lon="1.86657">
        <ele>175</ele>
      </trkpt>
      <trkpt lat="48.69321" lon="1.86643">
        <ele>175</ele>
      </trkpt>
      <trkpt lat="48.69325" lon="1.8663">
        <ele>175</ele>
      </trkpt>
      <trkpt lat="48.69328" lon="1.86617">
        <ele>176</ele>
        <time>2013-06-27T14:11:06Z</time>
      </trkpt>
      <trkpt lat="48.69333" lon="1.86604">
        <ele>176</ele>
      </trkpt>
      <trkpt lat="48.69338" lon="1.86591">
        <ele>176</ele>
      </trkpt>
      <trkpt lat="48.69343" lon="1.86579">
        <ele>176</ele>
      </trkpt>
      <trkpt lat="48.69347" lon="1.86566">
        <ele>176</ele>
        <time>2013-06-27T14:11:47Z</time>
      </trkpt>
      <trkpt lat="48.69352" lon="1.86552">
        <ele>176</ele>
      </trkpt>
      <trkpt lat="48.69356" lon="1.86537">
        <ele>174</ele>
      </trkpt>
      <trkpt lat="48.6936" lon="1.86523">
        <ele>174</ele>
      </trkpt>
      <trkpt lat="48.69364" lon="1.86509">
        <ele>174</ele>
        <time>2013-06-27T14:12:19Z</time>
      </trkpt>
      <trkpt lat="48.69368" lon="1.86496">
        <ele>174</ele>
      </trkpt>
      <trkpt lat="48.69373" lon="1.86483">
        <ele>174</ele>
      </trkpt>
      <trkpt lat="48.69377" lon="1.86469">
        <ele>171</ele>
      </trkpt>
      <trkpt lat="48.69381" lon="1.86456">
        <ele>172</ele>
        <time>2013-06-27T14:12:48Z</time>
      </trkpt>
      <trkpt lat="48.69389" lon="1.86444">
        <ele>172</ele>
      </trkpt>
      <trkpt lat="48.69398" lon="1.86432">
        <ele>172</ele>
      </trkpt>
      <trkpt lat="48.69406" lon="1.86419">
        <ele>172</ele>
        <time>2013-06-27T14:13:25Z</time>
      </trkpt>
      <trkpt lat="48.69415" lon="1.86422">
        <ele>172</ele>
      </trkpt>
      <trkpt lat="48.69425" lon="1.86426">
        <ele>172</ele>
      </trkpt>
      <trkpt lat="48.69435" lon="1.86429">
        <ele>172</ele>
      </trkpt>
      <trkpt lat="48.69444" lon="1.86432">
        <ele>172</ele>
        <time>2013-06-27T14:15:05Z</time>
      </trkpt>
      <trkpt lat="48.69454" lon="1.86436">
        <ele>172</ele>
      </trkpt>
      <trkpt lat="48.69463" lon="1.8644">
        <ele>173</ele>
      </trkpt>
      <trkpt lat="48.69473" lon="1.86444">
        <ele>173</ele>
      </trkpt>
      <trkpt lat="48.69482" lon="1.86448">
        <ele>173</ele>
        <time>2013-06-27T14:15:36Z</time>
      </trkpt>
      <trkpt lat="48.69491" lon="1.86452">
        <ele>173</ele>
      </trkpt>
      <trkpt lat="48.695" lon="1.86456">
        <ele>173</ele>
      </trkpt>
      <trkpt lat="48.69508" lon="1.8646">
        <ele>171</ele>
      </trkpt>
      <trkpt lat="48.69517" lon="1.86463">
        <ele>171</ele>
        <time>2013-06-27T14:18:35Z</time>
      </trkpt>
      <trkpt lat="48.69526" lon="1.86467">
        <ele>171</ele>
      </trkpt>
      <trkpt lat="48.69536" lon="1.86471">
        <ele>171</ele>
      </trkpt>
      <trkpt lat="48.69546" lon="1.86474">
        <ele>174</ele>
      </trkpt>
      <trkpt lat="48.69555" lon="1.86478">
        <ele>174</ele>
        <time>2013-06-27T14:19:51Z</time>
      </trkpt>
      <trkpt lat="48.69564" lon="1.86483">
        <ele>174</ele>
      </trkpt>
      <trkpt lat="48.69573" lon="1.86488">
        <ele>174</ele>
      </trkpt>
      <trkpt lat="48.69582" lon="1.86493">
        <ele>174</ele>
      </trkpt>
      <trkpt lat="48.69591" lon="1.86497">
        <ele>174</ele>
        <time>2013-06-27T14:20:29Z</time>
      </trkpt>
      <trkpt lat="48.69588" lon="1.8651">
        <ele>174</ele>
      </trkpt>
      <trkpt lat="48.69586" lon="1.86522">
        <ele>174</ele>
      </trkpt>
      <trkpt lat="48.69583" lon="1.86534">
        <ele>174</ele>
        <time>2013-06-27T14:22:51Z</time>
      </trkpt>
      <trkpt lat="48.69573" lon="1.86532">
        <ele>174</ele>
      </trkpt>
      <trkpt lat="48.69564" lon="1.86529">
        <ele>174</ele>
      </trkpt>
      <trkpt lat="48.69554" lon="1.86527">
        <ele>174</ele>
      </trkpt>
      <trkpt lat="48.69544" lon="1.86524">
        <ele>174</ele>
        <time>2013-06-27T14:23:27Z</time>
      </trkpt>
      <trkpt lat="48.69535" lon="1.86524">
        <ele>171</ele>
      </trkpt>
      <trkpt lat="48.69525" lon="1.86523">
        <ele>171</ele>
      </trkpt>
      <trkpt lat="48.69515" lon="1.86522">
        <ele>171</ele>
      </trkpt>
      <trkpt lat="48.69506" lon="1.86521">
        <ele>171</ele>
        <time>2013-06-27T14:23:59Z</time>
      </trkpt>
      <trkpt lat="48.69497" lon="1.86527">
        <ele>171</ele>
      </trkpt>
      <trkpt lat="48.69489" lon="1.86533">
        <ele>171</ele>
      </trkpt>
      <trkpt lat="48.69481" lon="1.86539">
        <ele>171</ele>
      </trkpt>
      <trkpt lat="48.69472" lon="1.86545">
        <ele>170</ele>
        <time>2013-06-27T14:24:33Z</time>
      </trkpt>
      <trkpt lat="48.69468" lon="1.86557">
        <ele>170</ele>
      </trkpt>
      <trkpt lat="48.69464" lon="1.86569">
        <ele>170</ele>
      </trkpt>
      <trkpt lat="48.69459" lon="1.86582">
        <ele>170</ele>
      </trkpt>
      <trkpt lat="48.69455" lon="1.86594">
        <ele>172</ele>
        <time>2013-06-27T14:25:13Z</time>
      </trkpt>
      <trkpt lat="48.6945" lon="1.86606">
        <ele>172</ele>
      </trkpt>
      <trkpt lat="48.69445" lon="1.86619">
        <ele>172</ele>
      </trkpt>
      <trkpt lat="48.69439" lon="1.86632">
        <ele>173</ele>
      </trkpt>
      <trkpt lat="48.69434" lon="1.86645">
        <ele>173</ele>
        <time>2013-06-27T14:25:45Z</time>
      </trkpt>
      <trkpt lat="48.69432" lon="1.86658">
        <ele>173</ele>
      </trkpt>
      <trkpt lat="48.6943" lon="1.86671">
        <ele>173</ele>
      </trkpt>
      <trkpt lat="48.69428" lon="1.86685">
        <ele>173</ele>
      </trkpt>
      <trkpt lat="48.69427" lon="1.86698">
        <ele>173</ele>
        <time>2013-06-27T14:26:20Z</time>
      </trkpt>
      <trkpt lat="48.69425" lon="1.86711">
        <ele>172</ele>
      </trkpt>
      <trkpt lat="48.69424" lon="1.86725">
        <ele>172</ele>
      </trkpt>
      <trkpt lat="48.69422" lon="1.86738">
        <ele>172</ele>
      </trkpt>
      <trkpt lat="48.69421" lon="1.86752">
        <ele>172</ele>
        <time>2013-06-27T14:26:50Z</time>
      </trkpt>
      <trkpt lat="48.69427" lon="1.86763">
        <ele>172</ele>
      </trkpt>
      <trkpt lat="48.69433" lon="1.86774">
        <ele>172</ele>
      </trkpt>
      <trkpt lat="48.69439" lon="1.86785">
        <ele>172</ele>
      </trkpt>
      <trkpt lat="48.69445" lon="1.86797">
        <ele>172</ele>
        <time>2013-06-27T14:27:31Z</time>
      </trkpt>
      <trkpt lat="48.6945" lon="1.86813">
        <ele>172</ele>
      </trkpt>
      <trkpt lat="48.69454" lon="1.86829">
        <ele>172</ele>
      </trkpt>
      <trkpt lat="48.69459" lon="1.86845">
        <ele>169</ele>
        <time>2013-06-27T14:27:59Z</time>
      </trkpt>
      <trkpt lat="48.69463" lon="1.86857">
        <ele>169</ele>
      </trkpt>
      <trkpt lat="48.69468" lon="1.86868">
        <ele>169</ele>
      </trkpt>
      <trkpt lat="48.69472" lon="1.8688">
        <ele>169</ele>
      </trkpt>
      <trkpt lat="48.69477" lon="1.86891">
        <ele>169</ele>
        <time>2013-06-27T14:28:24Z</time>
      </trkpt>
      <trkpt lat="48.69482" lon="1.86906">
        <ele>169</ele>
      </trkpt>
      <trkpt lat="48.69487" lon="1.86922">
        <ele>169</ele>
      </trkpt>
      <trkpt lat="48.69493" lon="1.86937">
        <ele>169</ele>
      </trkpt>
      <trkpt lat="48.69498" lon="1.86953">
        <ele>169</ele>
        <time>2013-06-27T14:29:10Z</time>
      </trkpt>
      <trkpt lat="48.69507" lon="1.86957">
        <ele>169</ele>
      </trkpt>
      <trkpt lat="48.69516" lon="1.86961">
        <ele>178</ele>
      </trkpt>
      <trkpt lat="48.69526" lon="1.86965">
        <ele>178</ele>
      </trkpt>
      <trkpt lat="48.69535" lon="1.86969">
        <ele>178</ele>
        <time>2013-06-27T14:30:47Z</time>
      </trkpt>
      <trkpt lat="48.69544" lon="1.86974">
        <ele>168</ele>
      </trkpt>
      <trkpt lat="48.69553" lon="1.86979">
        <ele>168</ele>
      </trkpt>
      <trkpt lat="48.69562" lon="1.86985">
        <ele>168</ele>
      </trkpt>
      <trkpt lat="48.69571" lon="1.8699">
        <ele>168</ele>
        <time>2013-06-27T14:31:24Z</time>
      </trkpt>
      <trkpt lat="48.6958" lon="1.86996">
        <ele>168</ele>
      </trkpt>
      <trkpt lat="48.69588" lon="1.87002">
        <ele>168</ele>
      </trkpt>
      <trkpt lat="48.69596" lon="1.87009">
        <ele>168</ele>
      </trkpt>
      <trkpt lat="48.69605" lon="1.87015">
        <ele>168</ele>
        <time>2013-06-27T14:31:54Z</time>
      </trkpt>
      <trkpt lat="48.69612" lon="1.87024">
        <ele>168</ele>
      </trkpt>
      <trkpt lat="48.69619" lon="1.87032">
        <ele>168</ele>
      </trkpt>
      <trkpt lat="48.69626" lon="1.87041">
        <ele>167</ele>
      </trkpt>
      <trkpt lat="48.69633" lon="1.8705">
        <ele>165</ele>
        <time>2013-06-27T14:32:21Z</time>
      </trkpt>
      <trkpt lat="48.69638" lon="1.87062">
        <ele>165</ele>
      </trkpt>
      <trkpt lat="48.69642" lon="1.87075">
        <ele>165</ele>
      </trkpt>
      <trkpt lat="48.69647" lon="1.87087">
        <ele>165</ele>
      </trkpt>
      <trkpt lat="48.69651" lon="1.87099">
        <ele>165</ele>
        <time>2013-06-27T14:32:46Z</time>
      </trkpt>
      <trkpt lat="48.69657" lon="1.87113">
        <ele>165</ele>
      </trkpt>
      <trkpt lat="48.69662" lon="1.87127">
        <ele>168</ele>
      </trkpt>
      <trkpt lat="48.69667" lon="1.87141">
        <ele>168</ele>
        <time>2013-06-27T14:33:13Z</time>
      </trkpt>
      <trkpt lat="48.69669" lon="1.87155">
        <ele>168</ele>
      </trkpt>
      <trkpt lat="48.69672" lon="1.8717">
        <ele>168</ele>
      </trkpt>
      <trkpt lat="48.69674" lon="1.87185">
        <ele>168</ele>
      </trkpt>
      <trkpt lat="48.69676" lon="1.872">
        <ele>168</ele>
        <time>2013-06-27T14:33:40Z</time>
      </trkpt>
      <trkpt lat="48.69679" lon="1.87213">
        <ele>171</ele>
      </trkpt>
      <trkpt lat="48.69682" lon="1.87226">
        <ele>171</ele>
      </trkpt>
      <trkpt lat="48.69685" lon="1.8724">
        <ele>171</ele>
      </trkpt>
      <trkpt lat="48.69688" lon="1.87253">
        <ele>171</ele>
        <time>2013-06-27T14:34:10Z</time>
      </trkpt>
      <trkpt lat="48.69692" lon="1.87266">
        <ele>171</ele>
      </trkpt>
      <trkpt lat="48.69696" lon="1.87279">
        <ele>171</ele>
      </trkpt>
      <trkpt lat="48.69699" lon="1.87292">
        <ele>172</ele>
      </trkpt>
      <trkpt lat="48.69703" lon="1.87305">
        <ele>172</ele>
        <time>2013-06-27T14:34:41Z</time>
      </trkpt>
      <trkpt lat="48.69705" lon="1.87319">
        <ele>172</ele>
      </trkpt>
      <trkpt lat="48.69707" lon="1.87332">
        <ele>172</ele>
      </trkpt>
      <trkpt lat="48.69709" lon="1.87345">
        <ele>162</ele>
      </trkpt>
      <trkpt lat="48.69711" lon="1.87359">
        <ele>162</ele>
        <time>2013-06-27T14:35:12Z</time>
      </trkpt>
      <trkpt lat="48.69715" lon="1.87372">
        <ele>162</ele>
      </trkpt>
      <trkpt lat="48.69719" lon="1.87386">
        <ele>157</ele>
      </trkpt>
      <trkpt lat="48.69723" lon="1.87399">
        <ele>157</ele>
        <time>2013-06-27T14:35:39Z</time>
      </trkpt>
      <trkpt lat="48.69722" lon="1.87411">
        <ele>157</ele>
      </trkpt>
      <trkpt lat="48.69721" lon="1.87424">
        <ele>157</ele>
        <time>2013-06-27T14:35:46Z</time>
      </trkpt>
      <trkpt lat="48.69724" lon="1.87437">
        <ele>157</ele>
      </trkpt>
      <trkpt lat="48.69726" lon="1.87451">
        <ele>157</ele>
      </trkpt>
      <trkpt lat="48.69729" lon="1.87464">
        <ele>157</ele>
      </trkpt>
      <trkpt lat="48.69732" lon="1.87478">
        <ele>157</ele>
        <time>2013-06-27T14:36:13Z</time>
      </trkpt>
      <trkpt lat="48.69732" lon="1.87491">
        <ele>157</ele>
      </trkpt>
      <trkpt lat="48.69733" lon="1.87505">
        <ele>157</ele>
      </trkpt>
      <trkpt lat="48.69733" lon="1.87518">
        <ele>157</ele>
      </trkpt>
      <trkpt lat="48.69734" lon="1.87531">
        <ele>157</ele>
        <time>2013-06-27T14:36:47Z</time>
      </trkpt>
      <trkpt lat="48.69741" lon="1.87543">
        <ele>166</ele>
      </trkpt>
      <trkpt lat="48.69748" lon="1.87554">
        <ele>166</ele>
      </trkpt>
      <trkpt lat="48.69755" lon="1.87566">
        <ele>166</ele>
      </trkpt>
      <trkpt lat="48.69762" lon="1.87577">
        <ele>166</ele>
        <time>2013-06-27T14:37:10Z</time>
      </trkpt>
      <trkpt lat="48.69769" lon="1.87586">
        <ele>166</ele>
      </trkpt>
      <trkpt lat="48.69776" lon="1.87595">
        <ele>166</ele>
      </trkpt>
      <trkpt lat="48.69783" lon="1.87604">
        <ele>166</ele>
      </trkpt>
      <trkpt lat="48.6979" lon="1.87613">
        <ele>166</ele>
        <time>2013-06-27T14:37:37Z</time>
      </trkpt>
      <trkpt lat="48.69794" lon="1.87621">
        <ele>154</ele>
      </trkpt>
      <trkpt lat="48.69797" lon="1.87628">
        <ele>155</ele>
      </trkpt>
      <trkpt lat="48.69803" lon="1.87643">
        <ele>155</ele>
      </trkpt>
      <trkpt lat="48.69806" lon="1.87651">
        <ele>155</ele>
      </trkpt>
      <trkpt lat="48.69809" lon="1.87658">
        <ele>155</ele>
        <time>2013-06-27T14:38:05Z</time>
      </trkpt>
      <trkpt lat="48.69812" lon="1.87673">
        <ele>155</ele>
      </trkpt>
      <trkpt lat="48.69815" lon="1.87688">
        <ele>155</ele>
      </trkpt>
      <trkpt lat="48.69818" lon="1.87703">
        <ele>155</ele>
      </trkpt>
      <trkpt lat="48.69821" lon="1.87717">
        <ele>155</ele>
        <time>2013-06-27T14:38:34Z</time>
      </trkpt>
      <trkpt lat="48.69824" lon="1.87733">
        <ele>155</ele>
      </trkpt>
      <trkpt lat="48.69826" lon="1.87748">
        <ele>155</ele>
      </trkpt>
      <trkpt lat="48.69828" lon="1.87763">
        <ele>155</ele>
      </trkpt>
      <trkpt lat="48.6983" lon="1.87778">
        <ele>155</ele>
        <time>2013-06-27T14:39:13Z</time>
      </trkpt>
      <trkpt lat="48.69827" lon="1.87792">
        <ele>155</ele>
      </trkpt>
      <trkpt lat="48.69824" lon="1.87805">
        <ele>155</ele>
        <time>2013-06-27T14:39:53Z</time>
      </trkpt>
      <trkpt lat="48.69829" lon="1.87817">
        <ele>155</ele>
      </trkpt>
      <trkpt lat="48.69833" lon="1.87829">
        <ele>155</ele>
      </trkpt>
      <trkpt lat="48.69837" lon="1.8784">
        <ele>155</ele>
        <time>2013-06-27T14:40:32Z</time>
      </trkpt>
      <trkpt lat="48.69842" lon="1.87853">
        <ele>155</ele>
      </trkpt>
      <trkpt lat="48.69847" lon="1.87865">
        <ele>155</ele>
      </trkpt>
      <trkpt lat="48.69852" lon="1.87877">
        <ele>153</ele>
      </trkpt>
      <trkpt lat="48.69857" lon="1.87889">
        <ele>153</ele>
        <time>2013-06-27T14:41:01Z</time>
      </trkpt>
      <trkpt lat="48.69856" lon="1.87906">
        <ele>153</ele>
      </trkpt>
      <trkpt lat="48.69855" lon="1.87922">
        <ele>153</ele>
      </trkpt>
      <trkpt lat="48.69854" lon="1.87939">
        <ele>153</ele>
        <time>2013-06-27T14:41:27Z</time>
      </trkpt>
      <trkpt lat="48.69859" lon="1.87948">
        <ele>153</ele>
      </trkpt>
      <trkpt lat="48.69864" lon="1.87957">
        <ele>153</ele>
        <time>2013-06-27T14:41:47Z</time>
      </trkpt>
      <trkpt lat="48.69869" lon="1.87969">
        <ele>155</ele>
      </trkpt>
      <trkpt lat="48.69874" lon="1.87981">
        <ele>155</ele>
      </trkpt>
      <trkpt lat="48.69879" lon="1.87992">
        <ele>147</ele>
      </trkpt>
      <trkpt lat="48.69884" lon="1.88004">
        <ele>147</ele>
        <time>2013-06-27T14:42:09Z</time>
      </trkpt>
      <trkpt lat="48.69891" lon="1.88016">
        <ele>147</ele>
      </trkpt>
      <trkpt lat="48.69898" lon="1.88029">
        <ele>147</ele>
      </trkpt>
      <trkpt lat="48.69905" lon="1.88041">
        <ele>147</ele>
      </trkpt>
      <trkpt lat="48.69911" lon="1.88053">
        <ele>150</ele>
        <time>2013-06-27T14:42:40Z</time>
      </trkpt>
      <trkpt lat="48.69918" lon="1.88065">
        <ele>150</ele>
      </trkpt>
      <trkpt lat="48.69925" lon="1.88076">
        <ele>150</ele>
      </trkpt>
      <trkpt lat="48.69932" lon="1.88087">
        <ele>150</ele>
      </trkpt>
      <trkpt lat="48.69939" lon="1.88098">
        <ele>150</ele>
        <time>2013-06-27T14:43:14Z</time>
      </trkpt>
      <trkpt lat="48.69946" lon="1.88108">
        <ele>150</ele>
      </trkpt>
      <trkpt lat="48.69953" lon="1.88117">
        <ele>150</ele>
      </trkpt>
      <trkpt lat="48.69959" lon="1.88127">
        <ele>147</ele>
      </trkpt>
      <trkpt lat="48.69966" lon="1.88136">
        <ele>147</ele>
        <time>2013-06-27T14:43:45Z</time>
      </trkpt>
      <trkpt lat="48.69975" lon="1.8814">
        <ele>147</ele>
      </trkpt>
      <trkpt lat="48.69985" lon="1.88144">
        <ele>147</ele>
      </trkpt>
      <trkpt lat="48.69994" lon="1.88148">
        <ele>147</ele>
      </trkpt>
      <trkpt lat="48.70003" lon="1.88152">
        <ele>147</ele>
        <time>2013-06-27T14:44:27Z</time>
      </trkpt>
      <trkpt lat="48.70006" lon="1.88165">
        <ele>147</ele>
      </trkpt>
      <trkpt lat="48.70009" lon="1.88178">
        <ele>147</ele>
      </trkpt>
      <trkpt lat="48.70012" lon="1.88191">
        <ele>147</ele>
      </trkpt>
      <trkpt lat="48.70015" lon="1.88203">
        <ele>147</ele>
        <time>2013-06-27T14:44:55Z</time>
      </trkpt>
      <trkpt lat="48.70016" lon="1.88221">
        <ele>150</ele>
      </trkpt>
      <trkpt lat="48.70017" lon="1.88238">
        <ele>150</ele>
      </trkpt>
      <trkpt lat="48.70019" lon="1.88255">
        <ele>150</ele>
        <time>2013-06-27T14:45:25Z</time>
      </trkpt>
      <trkpt lat="48.7002" lon="1.88272">
        <ele>150</ele>
      </trkpt>
      <trkpt lat="48.70021" lon="1.88289">
        <ele>150</ele>
      </trkpt>
      <trkpt lat="48.70022" lon="1.88306">
        <ele>151</ele>
        <time>2013-06-27T14:45:55Z</time>
      </trkpt>
      <trkpt lat="48.70031" lon="1.88316">
        <ele>151</ele>
      </trkpt>
      <trkpt lat="48.7004" lon="1.88326">
        <ele>151</ele>
      </trkpt>
      <trkpt lat="48.70049" lon="1.88337">
        <ele>147</ele>
      </trkpt>
      <trkpt lat="48.70057" lon="1.88347">
        <ele>147</ele>
        <time>2013-06-27T14:46:16Z</time>
      </trkpt>
      <trkpt lat="48.70061" lon="1.8836">
        <ele>147</ele>
      </trkpt>
      <trkpt lat="48.70065" lon="1.88372">
        <ele>147</ele>
      </trkpt>
      <trkpt lat="48.70069" lon="1.88385">
        <ele>150</ele>
      </trkpt>
      <trkpt lat="48.70072" lon="1.88397">
        <ele>150</ele>
        <time>2013-06-27T14:46:48Z</time>
      </trkpt>
      <trkpt lat="48.70078" lon="1.88408">
        <ele>150</ele>
      </trkpt>
      <trkpt lat="48.70085" lon="1.88419">
        <ele>150</ele>
      </trkpt>
      <trkpt lat="48.70091" lon="1.88429">
        <ele>150</ele>
      </trkpt>
      <trkpt lat="48.70097" lon="1.8844">
        <ele>150</ele>
        <time>2013-06-27T14:47:11Z</time>
      </trkpt>
      <trkpt lat="48.70103" lon="1.88453">
        <ele>150</ele>
      </trkpt>
      <trkpt lat="48.70109" lon="1.88467">
        <ele>153</ele>
        <time>2013-06-27T14:48:33Z</time>
      </trkpt>
      <trkpt lat="48.70109" lon="1.88457">
        <ele>150</ele>
      </trkpt>
      <trkpt lat="48.7011" lon="1.88447">
        <ele>150</ele>
      </trkpt>
      <trkpt lat="48.70121" lon="1.88447">
        <ele>150</ele>
      </trkpt>
      <trkpt lat="48.70133" lon="1.88447">
        <ele>149</ele>
      </trkpt>
      <trkpt lat="48.70144" lon="1.88447">
        <ele>149</ele>
      </trkpt>
      <trkpt lat="48.70153" lon="1.88452">
        <ele>149</ele>
      </trkpt>
      <trkpt lat="48.70162" lon="1.88458">
        <ele>149</ele>
      </trkpt>
      <trkpt lat="48.70171" lon="1.88464">
        <ele>151</ele>
      </trkpt>
      <trkpt lat="48.7018" lon="1.8847">
        <ele>151</ele>
      </trkpt>
      <trkpt lat="48.70189" lon="1.88476">
        <ele>151</ele>
      </trkpt>
      <trkpt lat="48.70199" lon="1.88481">
        <ele>151</ele>
      </trkpt>
      <trkpt lat="48.70208" lon="1.88486">
        <ele>151</ele>
      </trkpt>
      <trkpt lat="48.70217" lon="1.88491">
        <ele>150</ele>
      </trkpt>
      <trkpt lat="48.70226" lon="1.88496">
        <ele>150</ele>
      </trkpt>
      <trkpt lat="48.70236" lon="1.88501">
        <ele>150</ele>
      </trkpt>
      <trkpt lat="48.70241" lon="1.8851">
        <ele>150</ele>
      </trkpt>
      <trkpt lat="48.70247" lon="1.88518">
        <ele>150</ele>
      </trkpt>
      <trkpt lat="48.70252" lon="1.88526">
        <ele>150</ele>
      </trkpt>
      <trkpt lat="48.70263" lon="1.88526">
        <ele>150</ele>
      </trkpt>
      <trkpt lat="48.70274" lon="1.88526">
        <ele>150</ele>
      </trkpt>
      <trkpt lat="48.70285" lon="1.88526">
        <ele>150</ele>
      </trkpt>
      <trkpt lat="48.70296" lon="1.88527">
        <ele>147</ele>
      </trkpt>
      <trkpt lat="48.70306" lon="1.88527">
        <ele>147</ele>
      </trkpt>
      <trkpt lat="48.70317" lon="1.88527">
        <ele>147</ele>
      </trkpt>
      <trkpt lat="48.70328" lon="1.88527">
        <ele>147</ele>
      </trkpt>
      <trkpt lat="48.70339" lon="1.88527">
        <ele>147</ele>
      </trkpt>
    </trkseg>
  </trk>
</gpx>